Aviation Digital Data Service (ADDS)

Output produced by METARs form (0037 UTC 21 July 2017)
found at http://aviationweather.gov/adds/metars/
 
K04W 210035Z AUTO 22005KT 10SM CLR 27/20 A2996 RMK AO2
K05U 210015Z AUTO 18008G14KT 10SM FEW120 30/09 A3010 RMK A01
K06D 210035Z AUTO 05006KT 10SM 22/19 A2993 RMK AO2
K08D 210035Z AUTO 05011G22KT 10SM CLR 25/21 A2990 RMK AO2
K0A9 210015Z AUTO 00000KT 10SM CLR 26/22 A3006 RMK AO2 PWINO
K0CO 210035Z AUTO 18009KT 10SM TS SCT065 SCT075 SCT120 08/00 A3074 RMK AO2 LTG DSNT ALQS
K0E0 210015Z AUTO 25008KT 10SM CLR 23/15 A3024 RMK AO2 T02250150
K0F2 210035Z AUTO 13003KT 10SM CLR 34/19 A2998 RMK AO2 T03410189
K0J4 202358Z AUTO 00000KT 10SM CLR 29/24 A3003 RMK AO2 SLP166 T02940239 10350 20294 53004 $
K0R0 210015Z AUTO 00000KT 10SM CLR 31/26 A3004 RMK AO2
K0R4 210015Z AUTO 19003KT 10SM CLR 31/27 A2999 RMK AO2 T03120266
K0S9 210035Z AUTO 30010KT 10SM FEW031 OVC043 18/13 A3013 RMK AO2
K0V4 210035Z AUTO 21003KT 10SM CLR 30/19 A2997 RMK AO1 T03000192
K0VG 210010Z AUTO 00000KT 10SM CLR 28/21 A3008 RMK AO2
K11R 210015Z AUTO 10009KT 10SM SCT070 35/21 A2999 RMK AO2 T03520212
K12N 202354Z AUTO 00000KT 22/21 A2993 RMK AO1 SLP126 P0009 60009 T02220211 10322 20222 50010
K14Y 210034Z AUTO 00000KT 10SM CLR 26/20 A2998 RMK AO2
K18A 210015Z AUTO 00000KT 10SM CLR 29/23 A3002 RMK AO2 T02910230
K19S 210035Z AUTO 19009KT 10SM CLR 35/14 A2995 RMK AO2 T03520145
K1A6 210035Z AUTO 00000KT 10SM CLR 27/22 A3006 RMK AO2 T02660220
K1A9 210035Z AUTO 00000KT 10SM SCT090 28/23 A3002 RMK AO2 T02750228
K1F0 210015Z AUTO 17007KT 10SM CLR 35/16 A2997 RMK AO2
K1H2 210015Z AUTO 22003KT 10SM CLR 33/23 A2998 RMK AO2 T03320229
K1K1 210035Z AUTO 16009G18KT 10SM CLR A2994 RMK AO2
K1M5 210015Z AUTO 00000KT 10SM CLR 31/22 A3003 RMK A01
K1P1 210035Z AUTO 00000KT 10SM CLR 23/19 A2983 RMK AO2 T02330191
K1S5 210035Z AUTO 27007KT 10SM 25/08 A2998 RMK AO2 T02530083
K1V4 202354Z AUTO 23/18 A2982 RMK AO1 SLP089 T02330178 10289 20233 55002
K1YT 202358Z AUTO 01009KT 10SM CLR 26/06 A2999 RMK AO2 SLPNO T02640059 10276 20239 57011 $
K20U 210035Z AUTO 13013G20KT 10SM CLR 28/16 A2978 RMK AO2
K20V 210034Z AUTO 01014G20KT 10SM SCT100 22/12 A3033 RMK AO2 LTG DSNT N AND NE
K21D 210032Z AUTO 00000KT 10SM CLR 28/19 A2999 RMK AO2
K22N 210035Z AUTO 00000KT 10SM SCT060 21/21 A2995 RMK AO2
K24A 210025Z AUTO 00000KT 10SM CLR 24/20 A3017 RMK AO2 LTG DSNT SE T02380205
K24J 210035Z AUTO 00000KT 10SM CLR 25/25 A3007 RMK A01 LTG DSNT SE
K28J 210035Z AUTO 21005KT 10SM VCTS CLR 28/24 A3007 RMK AO2 LTG DSNT S-NW
K2C8 210035Z AUTO 00000KT 10SM CLR 24/18 A2993 RMK AO2
K2DP 202356Z AUTO 19006KT 10SM CLR 28/23 A2998 RMK AO2 SLPNO T02750233 10304 20275 55007 $
K2F5 210015Z AUTO 14011G16KT 130V200 10SM OVC100 35/12 A3004 RMK AO2
K2G4 210030Z AUTO 29005KT 10SM SCT020 SCT027 BKN045 22/18 A3010 RMK AO1
K2G9 210035Z AUTO 26005G15KT 10SM -DZ SCT060 OVC110 21/20 A3008 RMK AO2
K2I0 202255Z AUTO 24004KT 10SM CLR 32/26 A3001 RMK AO2 T03230256
K2P2 210015Z AUTO 00000KT 10SM CLR 24/19 A2991 RMK AO2 T02410192
K2V6 210029Z AUTO 08005KT 10SM CLR 32/07 A2999 RMK AO2
K2W6 210017Z AUTO 16003KT 10SM CLR A2994 RMK AO1
K2WX 210003Z AUTO 32024G31KT 20/17 A2988 RMK AO1 PK WND 33030/2357 WSHFT 2343 P0001 T02000172
K33V 210035Z AUTO 24014G19KT 10SM SCT085 24/06 A3033 RMK AO1
K36U 210035Z AUTO 22008KT 10SM BKN110 28/08 A3009 RMK AO2
K3AU 210015Z AUTO 15008KT 10SM CLR 35/19 A2994 RMK AO2
K3D2 210020Z AUTO 00000KT 10SM CLR 26/20 A2991 RMK AO2 T02640202
K3F3 210015Z AUTO 00000KT 10SM CLR 34/24 A3004 RMK AO2 T03400239
K3I2 210035Z AUTO 00000KT 10SM CLR 28/25 A3002 RMK AO2 T02770246
K3J7 210015Z AUTO 00000KT 10SM CLR 31/23 A2998 RMK AO2
K3K3 210015Z AUTO 18008KT 10SM CLR 36/11 A2993 RMK AO2
K3L4 210015Z AUTO 00000KT 10SM CLR 28/26 A3003 RMK A01
K3LF 210035Z AUTO 19004KT 10SM CLR 30/25 A2997 RMK AO2 T03020253
K3N8 210015Z AUTO 00000KT 10SM CLR 28/16 A2996 RMK AO2 T02820155
K3R7 210015Z AUTO 20003KT 10SM SCT050 BKN060 OVC080 29/24 A3001 RMK AO2 LTG DSNT S AND SW T02890238
K3S8 210015Z AUTO VRB05G13KT 10SM CLR 31/06 A3006 RMK AO2
K3T5 210035Z AUTO 15006KT 10SM CLR 35/23 A2996 RMK AO2 T03470230
K40B 210016Z AUTO 00000KT 19/18 A2981 RMK AO1 SLP083 T01940185 10269 20194 55009
K40J 210015Z AUTO 00000KT 10SM CLR 26/25 A3004 RMK AO2 T02620247
K42J 210035Z AUTO 23012G23KT 10SM SCT029 BKN035 BKN050 28/20 A3009 RMK AO1 TSNO
K46U 210000Z AUTO 33004KT 9SM CLR M26/ A3014 RMK A01
K49A 210035Z AUTO 00000KT 10SM SCT070 27/23 A3010 RMK AO2 T02690231
K4A6 210015Z AUTO 00000KT 10SM CLR 30/25 A3003 RMK AO2
K4A9 210015Z AUTO 11003KT 10SM CLR 27/23 A3004 RMK AO2
K4BM 210034Z AUTO 10003KT 10SM TS SCT044 SCT050 BKN080 15/06 A3066 RMK AO2 LTG DSNT SW THRU NE
K4I3 210020Z AUTO 26004KT 10SM CLR 27/22 A3002 RMK AO2
K4M9 202315Z AUTO 20006KT 10SM -RA FEW049 34/27 A3001 RMK AO2
K4MR 202358Z AUTO 24008KT 10SM CLR 33/10 A3008 RMK AO2 SLP120 T03340099 10340 20306 57023 $
K4O4 210035Z AUTO 16004KT 7SM CLR 32/21 A3001 RMK AO2
K4R5 210035Z AUTO 00000KT 10SM CLR 26/20 A2992 RMK AO2 T02570196
K4S2 210035Z AUTO 27007G17KT 130V320 10SM CLR 22/09 A3008 RMK AO2
K4V0 210035Z AUTO 00000KT 10SM VCTS CLR 30/10 A3006 RMK AO2 LTG DSNT E THRU SW T03040099
K54J 210035Z AUTO 00000KT 10SM CLR 25/22 A3003 RMK AO2 T02520223
K57C 210035Z AUTO 00000KT 10SM CLR 27/22 A2997 RMK AO2 T02710222
K5A6 210035Z AUTO 00000KT 10SM CLR 31/25 A3002 RMK AO2 T03100249
K5C1 210015Z AUTO 14008KT 10SM CLR 34/17 A3002 RMK AO1
K5H4 210035Z AUTO 12006KT 10SM 27/18 A2990 RMK AO2 PWINO
K5M9 210035Z AUTO 00000KT 10SM CLR 30/25 A3002 RMK AO2 T02990250
K5R8 210015Z AUTO 15003KT 10SM CLR 29/23 A3001 RMK AO2 LTG DSNT SE T02910232
K5SM 210032Z AUTO 26004KT 10SM VCTS CLR 12/03 A3060 RMK AO2 LTG DSNT NW THRU NE
K5T9 210015Z AUTO 11009G16KT 10SM FEW095 38/15 A2991 RMK A01
K65S 210015Z AUTO 20009G17KT 10SM CLR 25/05 A2995 RMK AO2
K66R 210035Z AUTO 18009KT 10SM CLR 32/23 A3000 RMK AO2 T03180232
K6A1 210015Z AUTO 00000KT 10SM 31/22 A3002 RMK AO2 T03090217
K6A2 210015Z AUTO 32004KT 10SM CLR 28/21 A3003 RMK AO2
K6B0 210015Z AUTO 00000KT 10SM CLR 22/19 A2986 RMK AO2 T02160189
K6B9 210035Z AUTO 23003KT 10SM OVC022 22/19 A2993 RMK AO2
K6I2 210015Z AUTO 25004KT 10SM CLR 30/23 A3004 RMK AO2
K6L4 210035Z AUTO 00000KT 10SM CLR 28/20 A3008 RMK AO2
K6P9 210035Z AUTO 14006KT 10SM CLR 34/17 A3000 RMK AO2 T03390174
K6R3 210035Z AUTO 00000KT 7SM CLR 32/25 A3001 RMK AO2 LTG DSNT E T03210250
K6R6 202353Z AUTO 11015G24KT 34/15 A2999 RMK AO1 SLP117 T03390150 10350 20322 56019
K6S0 210015Z AUTO 24004KT 10SM CLR 33/03 A2990 RMK A01
K6S2 210035Z AUTO 33008KT 10SM CLR 17/12 A3016 RMK AO2
K74V 210035Z AUTO 24003KT 10SM SCT120 26/13 A3011 RMK AO2 LTG DSNT SE
K79J 202356Z AUTO 00000KT 10SM CLR 31/23 A3001 RMK AO2 SLP158 T03060228 10378 20306 53001
K7BM 210032Z AUTO 00000KT 10SM SCT075 OVC090 21/03 A3051 RMK AO2 LTG DSNT NE
K7L2 210035Z AUTO 12007KT 10SM A2991 RMK AO2
K7N0 202356Z AUTO 17008KT 10SM 34/25 RMK AO2 SLPNO T03390250 10356 20333 $
K7W4 210015Z AUTO 21008KT 10SM CLR 30/24 A2992 RMK AO1 T02950239
K7W6 210030Z AUTO 20004KT 10SM CLR 26/23 A2998 RMK AO2 T02550232
K82C 210015Z AUTO 32003KT 10SM CLR 26/23 A2997 RMK AO2 T02550225
K82V 210035Z AUTO 09006KT 10SM CLR 28/11 A3006 RMK AO2 LTG DSNT SW
K8A0 210015Z AUTO 23004KT 10SM BKN047 BKN060 30/28 A3005 RMK AO2
K8A3 210015Z AUTO 00000KT 10SM CLR 29/24 A3006 RMK A01
K8D3 202356Z AUTO 15010KT 29/21 A2990 RMK AO1 SLP108 T02940211 10311 20294 58029
K8W2 210035Z AUTO 00000KT 10SM BKN070 BKN080 27/21 A2997 RMK AO1 T02740208
K9A5 210015Z AUTO 00000KT 10SM CLR 26/22 A3004 RMK AO2 T02640223
K9L2 202358Z AUTO 25016G22KT 8SM CLR 37/M03 A2991 RMK AO2 PK WND 24026/04 SLP099 6//// T03701027 10377 20331 $
K9MN 210032Z AUTO 03005KT 10SM CLR 28/21 A3001 RMK AO1 T02800209
K9V9 210015Z AUTO 14011G19KT 10SM CLR 34/19 A2986 RMK AO2 T03400194
KA08 210035Z AUTO 00000KT 10SM SCT100 29/26 A3002 RMK AO2 T02910255
KA39 210015Z AUTO 33009KT 10SM CLR 38/17 A2988 RMK AO2
KAAA 210035Z AUTO 00000KT 10SM CLR 33/27 A2994 RMK AO2 LTG DSNT W T03270267
KAAF 202353Z AUTO 26003KT 10SM CLR 29/26 A3001 RMK AO2 SLP161 60000 T02890261 10328 20272 56007
KAAO 202354Z AUTO 15013KT 10SM CLR 37/19 A2993 RMK AO2 SLP117 T03670189 10394 20361 56015
KAAT 202355Z AUTO 28015G20KT 10SM CLR 30/M03 A3010 RMK AO2 SLP153 T03001028 10306 20239 58014
KABE 210021Z 07009KT 3SM -RA BR BKN040 BKN070 OVC090 22/20 A2993 RMK AO2 TWR VIS 6 P0021 T02220200
KABH 202356Z AUTO 16009KT CLR M17/ A3015 RMK AO2 SLPNO T1172 56016 $
KABI 202352Z 16009KT 10SM CLR 35/16 A2998 RMK AO2 SLP123 T03500161 10367 20328 56024
KABQ 210014Z 11023G35KT 9SM VCTS SCT110CB BKN170 27/11 A3015 RMK AO2 PK WND 11037/0004 WSHFT 2339 LTG DSNT N AND S RAB2359E12 TSE08 TS NE MOV NW CB DSNT S SHRA DSNT S P0000 T02720111
KABR 202353Z AUTO 15010KT 10SM CLR 30/19 A2988 RMK AO2 SLP110 T03000194 10317 20294 58034
KABY 202353Z 20007G15KT 10SM CLR 32/23 A3001 RMK AO2 LTG DSNT S SLP160 60000 T03220233 10361 20311 51003
KACB 210035Z AUTO 00000KT 10SM CLR 23/18 A2994 RMK AO2 T02310183
KACJ 210015Z AUTO 00000KT 10SM SCT070 31/22 A3002 RMK AO2
KACK 202353Z 22010KT 1 1/2SM R24/6000VP6000FT BR OVC002 23/23 A2988 RMK AO2 SLP117 T02280228 10283 20222 55004 $
KACP 210015Z AUTO 00000KT 10SM CLR 32/27 A2999 RMK AO2 LTG DSNT S T03210270
KACQ 210032Z AUTO 04005KT 10SM CLR 26/21 A2999 RMK AO2
KACT 202351Z 13009KT 10SM CLR 36/19 A2996 RMK AO2 SLP135 T03610189 10383 20356 56021
KACV 202353Z AUTO 33015KT 10SM CLR 17/13 A3014 RMK AO2 SLP210 T01720128 10194 20172 58011
KACY 202354Z 19004KT 10SM CLR 31/24 A2990 RMK AO2 SLP123 T03060239 10356 20306 55003
KADC 210034Z AUTO 00000KT 10SM CLR 27/21 A2996 RMK AO2 PWINO
KADF 202356Z AUTO 27004KT 10SM CLR 34/26 A3000 RMK AO2 SLPNO T03390261 10356 20339 56014
KADG 202353Z AUTO 26004KT 10SM FEW050 28/21 A2996 RMK AO2 SLP142 T02780206 10294 20267 56006
KADH 210035Z AUTO 14006KT 10SM CLR 33/21 A3000 RMK AO2
KADM 202355Z 13006KT 10SM SKC 36/21 A2996
KADS 202347Z 13011KT 13SM SCT075 36/19 A2998
KADU 210035Z AUTO 00000KT 10SM -RA CLR 28/26 A2995 RMK AO2
KADW 202358Z AUTO 20007KT 10SM CLR 31/22 A2990 RMK AO2 SLP129 T03140219 10360 20314 55006
KAEG 202350Z 18015KT 10SM SCT080 BKN100 31/09 A3018 RMK SHRA DSNT SE MOV NW CB DSNT ALQDS
KAEJ 210035Z AUTO 33011KT 10SM BKN100 OVC120 22/09 A3033 RMK AO2 T02160087
KAEL 210032Z AUTO 09004KT 10SM CLR 27/19 A2999 RMK AO2
KAEX 202353Z 03003KT 10SM CLR 34/24 A2998 RMK AO2 SLP152 T03440239 10356 20333 56015
KAFF 202358Z 20007KT 10SM FEW200 28/10 A3018 RMK AO2A LTG DSNT NW SLP123 60000 T02810095 10310 20258 57016
KAFJ 210035Z AUTO 22004KT 10SM FEW120 23/21 A3002 RMK AO1
KAFK 210015Z AUTO 15004KT 10SM SCT110 34/28 A2990 RMK AO2 T03370282
KAFN 202352Z AUTO 32003KT 10SM CLR 26/18 A2990 RMK AO2 SLP122 T02610178 10306 20261 55002
KAFO 210035Z AUTO 11004KT CLR 19/13 A3016 RMK AO2 TSNO
KAFP 210025Z AUTO 00000KT 10SM CLR 30/23 A2998 RMK AO2 T02960230 PWINO
KAFW 202353Z 13009KT 10SM FEW075 36/19 A2996 RMK AO2 SLP127 T03560194 10378 20350 56017
KAGC 202353Z 00000KT 10SM SCT065 24/21 A3001 RMK AO2 SLP158 60042 T02390206 10311 20228 53008
KAGS 202353Z 16007KT 10SM VCTS BKN090 30/23 A2999 RMK AO2 LTG DSNT NW TSE53 SLP152 60000 T03000228 10367 20300 53007
KAHN 210006Z AUTO 00000KT 10SM FEW002 31/21 A3001 RMK AO2 T03060206
KAHQ 210035Z AUTO 09003KT 10SM CLR 32/26 A2989 RMK AO2 T03150255
KAIA 202353Z AUTO 13011KT 10SM CLR 32/14 A2998 RMK AO2 SLP102 T03220144 10333 20272 57026
KAIB 210015Z AUTO 11009KT 10SM VCTS CLR 26/07 A3020 RMK AO2 LTG DSNT ALQS
KAID 201945Z 24010KTS 10SM CLR 31/21 A3001
KAIG 210035Z AUTO 28007KT 10SM CLR 26/17 A3000 RMK AO2 T02580173
KAIK 210035Z AUTO 18005KT 10SM CLR 26/22 A3006 RMK AO2
KAIO 210035Z AUTO 00000KT 10SM CLR 30/27 A2992 RMK AO2
KAIT 210033Z AUTO 21004KT 10SM CLR 27/18 A2995 RMK AO2
KAIZ 202356Z AUTO VRB03KT 10SM SCT080 36/22 A2999 RMK AO2 SLP146 T03610217 10372 20344 56008
KAJG 210015Z AUTO 22005KT 10SM CLR 30/24 A2998 RMK AO2 T03000238
KAJO 202356Z AUTO 28015G20KT 10SM CLR 31/16 A2989 RMK AO2 SLP125 T03110156 10333 20283 56024
KAJR 210035Z AUTO 00000KT 10SM CLR 28/21 A3007 RMK AO2 T02770213
KAJZ 210035Z AUTO 15010G14KT 10SM CLR 29/10 A3013 RMK AO2 T02900102
KAKH 202354Z AUTO 00000KT 10SM CLR 29/22 A2999 RMK AO2 SLP148 T02940222 10344 20294 55007
KAKO 202353Z AUTO 06011KT 10SM CLR 33/13 A3003 RMK AO2 SLP099 T03330133 10356 20311 56020
KAKQ 202354Z AUTO 18003KT 10SM CLR 30/24 A2994 RMK AO2 SLP136 T03000239 10344 20300 55009
KAKR 202354Z AUTO 27005KT 10SM FEW060 29/20 A2997 RMK AO2 SLP139 T02940200 10328 20294 56005 TSNO
KALB 202351Z 36005KT 10SM FEW110 FEW170 SCT250 SCT280 26/17 A2987 RMK AO2 SLP112 VIRGA SE-S T02560172 10306 20256 55010
KALI 202353Z AUTO 13016G22KT 10SM CLR 34/22 A2996 RMK AO2 SLP141 T03390222 10389 20339 56011
KALK 202356Z AUTO 25007KT 10SM FEW055 BKN075 24/16 A3017 RMK AO2 SLP130 60000 T02440161 10300 20228 55007
KALM 210035Z AUTO 04005KT 10SM VCTS CLR 27/15 A3011 RMK AO2 LTG DSNT N
KALN 202345Z 24005KT 10SM SCT200 34/24 A2996
KALO 202354Z 04007KT 10SM CLR 29/24 A2996 RMK AO2 SLP136 T02890239 10322 20289 55003 $
KALS 202352Z AUTO 00000KT 10SM FEW100 27/08 A3025 RMK AO2 LTG DSNT N SLP140 T02720083 10294 20244 56018
KALW 202353Z 23009KT 10SM CLR 28/03 A3001 RMK AO2 SLP153 T02830028 10294 20250 58014
KALX 210035Z AUTO 00000KT 10SM CLR 27/25 A3005 RMK AO2 T02660247
KAMA 202353Z 20009KT 10SM FEW090 34/11 A3005 RMK AO2 SLP117 T03440111 10356 20322 56020
KAMG 202353Z AUTO 14005KT 10SM CLR 24/23 A3003 RMK AO2 SLP166 60026 T02440228 10350 20244 50009
KAMN 210035Z AUTO 20003KT 10SM CLR 27/21 A2994 RMK AO2 T02670205
KAMW 202353Z AUTO 07009KT 9SM CLR 31/27 A2993 RMK AO2 PK WND 13026/2305 SLP122 T03110272 10356 20311 56006
KANB 202353Z AUTO 25003KT 10SM CLR 28/24 A3005 RMK AO2 SLP165 60028 T02780239 10339 20233 56013
KAND 202356Z AUTO 27005KT 10SM CLR 32/22 A3000 RMK AO2 SLP147 T03170217 10344 20317 56005
KANE 202345Z 24004KT 10SM SKC 31/16 A2998
KANJ 202355Z AUTO 30006KT 9SM CLR 22/14 A2990 RMK AO2 SLP121 T02170144 10283 20217 56002
KANK 210035Z AUTO 12017G29KT 10SM BKN100 26/04 A3035 RMK AO1 T02640044
KANQ 210035Z AUTO 22003KT 10SM FEW030 28/25 A2997 RMK
KANW 210015Z AUTO 14011G16KT 10SM CLR 32/16 A2994 RMK AO2 T03180161
KAOH 202353Z AUTO 18003KT 10SM BKN055 OVC070 27/23 A2999 RMK AO2 SLP148 T02720228 10289 20272 58006
KAOO 202353Z AUTO 24004KT 10SM CLR 27/21 A3000 RMK AO2 SLP147 T02670211 10306 20267 55001
KAPA 202353Z 26007KT 10SM FEW095 SCT110 BKN220 25/14 A3015 RMK AO2 SLP141 FRQ LTGICCG DSNT SE-SW CB DSNT SE-SW MOV NE 60002 T02500144 10333 20217 58001
KAPC 202354Z 19016KT 10SM CLR 27/13 A2995 RMK AO2 RAE51 SLP135 P0000 60000 T02720133 10278 20217 58020
KAPF 202353Z 23004KT 10SM CLR 29/24 A3004 RMK AO2 LTG DSNT NE SLP172 T02940244 10317 20294 53001
KAPG 202352Z 00000KT 7SM BKN150 31/24 A2991
KAPN 202354Z AUTO 13006KT 10SM CLR 24/19 A2991 RMK AO2 SLP126 T02390194 10289 20239 53002
KAPS 210035Z AUTO 15003KT 10SM CLR 33/24 A3001 RMK AO2 LTG DSNT SW T03250238
KAPY 210015Z AUTO 12011G15KT 10SM CLR 37/15 A2990 RMK AO2 T03750151
KAQO 210010Z AUTO 14007KT 10SM CLR 37/17 A2999 RMK AO2
KAQP 210034Z AUTO 13005KT 10SM CLR 28/20 A2992 RMK AO2
KAQR 210035Z AUTO 00000KT 10SM CLR 33/21 A2998 RMK AO2
KAQV 202356Z AUTO 00000KT 10SM CLR 32/25 A2999 RMK AO2 SLP153 60000 T03220250 10350 20317 56014
KAQW 202352Z AUTO 35003KT 10SM SCT120 23/18 A2987 RMK AO2 SLP114 T02280178 10300 20228 56009
KARA 202353Z 19007KT 10SM SCT048 BKN075 30/23 A3001 RMK AO2 LTG DSNT E AND SE SLP162 T03000228 10361 20300 55010
KARB 202353Z 21005KT 10SM SCT038 28/22 A2994 RMK AO2 SLP133 T02830217 10306 20267 56007
KARG 210035Z AUTO 00000KT 10SM CLR 33/23 A2999 RMK AO1
KARM 210035Z AUTO 11004KT 10SM CLR 26/22 A3001 RMK AO2 T02600222
KARR 202352Z 29003KT 7SM BKN050 29/26 A2996 RMK AO2 SLP140 T02890256 10300 20283 58004
KART 202356Z AUTO 25003KT 10SM CLR 21/17 A2988 RMK AO2 SLP112 60005 T02110167 10244 20200 56005
KARV 210015Z AUTO 32003KT 10SM CLR 27/15 A2999 RMK AO2 T02650150
KARW 210035Z AUTO 20004KT 7SM CLR 27/23 A3002 RMK AO2
KASD 202353Z AUTO 00000KT 10SM CLR 34/22 A2999 RMK AO2 SLP156 T03440222 10361 20344 56009
KASE 210029Z 25012G20KT 5SM TSRA OVC080 18/11 A3036 RMK AO2 RAB07 TSB23 P0002 T01830111
KASG 202348Z 20010KT 10SM SKC 33/21 A3007
KASH 202356Z 29006KT 10SM CLR 28/18 A2984 RMK AO2 SLP112 T02830183 10328 20278 55001
KASJ 210030Z AUTO 00000KT 10SM 27/25 A2997 RMK AO2 T02690251
KASL 210035Z AUTO 00000KT 10SM 32/23 A3002 RMK AO1 T03220229
KASN 210035Z AUTO 00000KT 10SM CLR 27/25 A3005 RMK AO2 T02670248
KAST 202355Z AUTO 24007KT 10SM FEW025 SCT055 19/12 A3017 RMK AO2 SLP215 60000 T01890122 10194 20150 58003
KASW 210015Z AUTO 00000KT 10SM SCT037 SCT048 OVC055 27/25 A2997 RMK AO2
KASX 202353Z AUTO 22005KT 10SM CLR 27/19 A2994 RMK AO2 SLP137 T02720189 10289 20272 58011
KATL 202352Z 32007KT 10SM FEW050 FEW100 SCT250 31/21 A3003 RMK AO2 SLP158 CB DSNT SE T03110206 10339 20311 55003
KATP 210015Z AUTO 00000KT 10SM FEW022 BKN028 BKN035 30/25 A3004 RMK A01
KATS 210035Z AUTO 18011G19KT 10SM CLR 34/12 A3003 RMK AO2 LTG DSNT NW
KATT 202351Z AUTO VRB05KT 10SM CLR 37/18 A2997 RMK AO2 SLP133 T03720178 10394 20356 56020
KATW 202345Z 31004KT 10SM BKN120 28/16 A2994
KATY 202353Z AUTO 13008KT 10SM CLR 29/16 A2994 RMK AO2 SLP127 T02890156 10306 20267 58028
KAUG 202353Z AUTO 00000KT 10SM CLR 24/18 A2982 RMK AO2 SLP095 60001 T02440178 10289 20233 56004
KAUH 210015Z AUTO 09005KT 10SM CLR 31/26 A2991 RMK AO2 T03110259
KAUM 210035Z AUTO 10003KT 10SM -RA CLR 27/22 A2999 RMK AO2
KAUN 210035Z AUTO 23007KT 10SM CLR 32/06 A2998 RMK AO1
KAUO 202356Z AUTO 34006KT 10SM CLR 27/24 A3006 RMK AO2 SLP187 60000 T02720239 10339 20256 51001
KAUS 202353Z 17010KT 10SM FEW075 SCT200 37/20 A2996 RMK AO2 SLP131 T03670200 10383 20350 56020
KAUW 202354Z AUTO 30008KT 10SM CLR 28/16 A2997 RMK AO2 SLP143 T02830161 10300 20256 55002
KAVC 210016Z AUTO 00000KT 10SM CLR 29/23 A3002 RMK AO2 T02900230
KAVK 210015Z AUTO 19012G19KT 10SM CLR 39/14 A2992 RMK AO2
KAVL 202354Z 34008KT 10SM CLR 28/19 A3010 RMK AO2 SLP165 T02830194 10317 20283 55005
KAVP 210026Z 10004KT 10SM FEW055 SCT070 22/21 A2994 RMK AO2 T02220211
KAVQ 210015Z AUTO 23014G23KT 10SM BKN085 33/15 A2992 RMK AO2 T03340151
KAVX 202351Z AUTO 27005KT 8SM CLR 24/16 A2999 RMK AO2 SLP130 T02390161 10261 20228 58018 TSNO $
KAWG 210035Z AUTO 11008KT 10SM BKN032 BKN039 31/25 A2994 RMK AO2
KAWM 202353Z AUTO 00000KT 9SM CLR 33/26 A3000 RMK AO2 LTG DSNT E SLP155 T03280256 10344 20328 56008
KAWO 202356Z AUTO 31008KT 10SM BKN047 OVC055 21/12 A3012 RMK AO2 SLP204 T02110122 10228 20194 58005
KAXA 210035Z AUTO 09004KT 10SM CLR 29/24 A2997 RMK AO2
KAXH 210035Z AUTO 19003KT 10SM CLR 29/24 A3001 RMK AO2 LTG DSNT N AND E T02900240
KAXN 202353Z AUTO 18006KT 10SM FEW001 28/19 A2998 RMK AO2 SLP147 T02780194 10289 20261 58020
KAXS 210035Z AUTO 16011G16KT 10SM CLR 37/15 A2996 RMK AO2 T03680150
KAXV 210034Z AUTO 14004KT 10SM BKN055 27/23 A2999 RMK AO2
KAXX 210015Z AUTO 19009KT 10SM CLR 26/06 A3035 RMK AO2 T02550055
KAYS 210015Z AUTO 17003KT 10SM VCTS CLR 24/24 A3005 RMK AO2 LTG DSNT S T02410241
KAZC 210035Z AUTO 29007KT 270V360 10SM CLR 32/12 A3012 RMK AO2
KAZE 210015Z AUTO 17004KT 10SM CLR 27/24 A3002 RMK AO2 LTG DSNT SE T02730237
KAZO 202353Z COR 27006KT 10SM CLR 28/20 A2996 RMK AO2 SLP139 T02830200 10300 20283 58001
KBAB 202358Z COR 22005KT 10SM CLR 34/09 A2989 RMK AO2A SLP124 T03410089 10346 20264 57022 $ COR 2359
KBAC 210035Z AUTO 18007KT 10SM CLR 29/20 A2994 RMK AO2
KBAD 202358Z AUTO 00000KT 10SM CLR 33/23 A2999 RMK AO2 SLP156 T03270230 10361 20327 57014
KBAF 202353Z 00000KT 10SM CLR 24/20 A2985 RMK AO2 SLP104 T02440200 10333 20244 55005
KBAK 202345Z 23008KT 10SM SKC 30/23 A2999
KBAN 202352Z AUTO 23008G16KT 9SM CLR 28/M03 A3021 RMK AO2 SLP130 T02831033 10300 20256 58011 $
KBAX 210037Z AUTO 23005KT 10SM CLR 27/20 A2992 RMK AO2 T02690204
KBAZ 202351Z 16009KT 10SM SCT070 37/19 A2996 RMK AO2 SLP133 T03670189 10389 20339 56020
KBBB 210033Z AUTO 18004KT 10SM CLR 28/20 A2995 RMK AO2
KBBF 210015Z AUTO 17010KT 9SM CLR 30/24 A3002 RMK A01
KBBG 202345Z 00000KT 10SM FEW050 33/21 A3006
KBBP 210035Z AUTO 00000KT 10SM CLR 30/23 A2998 RMK AO2
KBBW 202353Z AUTO 10008KT 10SM CLR 32/21 A2993 RMK AO2 SLP109 T03220211 10333 20294 58024
KBCB 210035Z AUTO 29003KT 10SM CLR 27/18 A3011 RMK AO2 T02700182
KBCE 210034Z AUTO 32010G20KT +TSRA 17/11 A3032 RMK AO2 RAB30 P0050 T01670111 $
KBCK 210035Z AUTO 33005KT 10SM CLR 28/21 A2998 RMK AO2 T02820209
KBDE 202353Z AUTO 03003KT 10SM CLR 24/12 A2996 RMK AO2 SLP143 T02390122 10250 20228 58013
KBDG 210035Z AUTO 20007KT 10SM CLR 31/08 A3019 RMK AO1 T03130077
KBDH 210035Z AUTO 12005KT 10SM CLR 28/22 A2996 RMK AO2
KBDL 202351Z COR 00000KT 10SM FEW047 FEW120 SCT170 BKN200 BKN240 23/21 A2984 RMK AO2 SLP104 60050 T02280211 10339 20217 58006 $
KBDN 210035Z AUTO 33011KT 310V010 10SM CLR 28/00 A3009 RMK AO2
KBDR 202352Z 23006KT 8SM CLR 28/23 A2986 RMK AO2 SLP113 T02780233 10339 20278 55000
KBDU 210035Z AUTO 24007KT 10SM CLR 28/07 A3009 RMK AO2 LTG DSNT NW
KBEA 210015Z AUTO 14012G19KT 10SM CLR 33/21 A2998 RMK AO2 T03320212
KBEC 210035Z AUTO 15013G19KT 10SM CLR 35/18 A2993 RMK AO2 T03450179
KBED 202356Z 35003KT 10SM CLR 27/21 A2982 RMK AO2 SLP107 T02670211 10322 20267 55005
KBEH 202353Z AUTO 00000KT 10SM CLR 27/19 A2996 RMK AO2 SLP141 T02670194 10278 20261 56005
KBFD 202353Z AUTO 28009KT 10SM CLR 27/18 A2999 RMK AO2 SLP138 T02670178 10294 20267 53001
KBFF 202353Z AUTO 11009KT 10SM CLR 32/14 A2998 RMK AO2 SLP099 T03170144 10339 20289 56026
KBFI 202353Z 20008G16KT 180V250 10SM SCT065 23/12 A3011 RMK AO2 SLP197 T02280117 10239 20200 58009
KBFL 202354Z 35010KT 10SM CLR 37/07 A2989 RMK AO2 SLP115 T03720067 10372 20311 58021
KBFM 202353Z 19004KT 10SM FEW060 32/26 A3001 RMK AO2 SLP162 T03220261 10361 20322 55005 $
KBFW 202354Z AUTO 00000KT 10SM CLR 26/15 A2993 RMK AO2
KBGD 202351Z AUTO 19010G16KT 10SM FEW100 37/12 A3000 RMK AO2 SLP107 T03670117 10378 20350 56020 TSNO
KBGE 210015Z AUTO 13004KT 10SM CLR 31/24 A3001 RMK AO2
KBGF 210035Z AUTO 00000KT 10SM CLR 30/23 A3004 RMK
KBGM 210011Z 00000KT 9SM FEW007 20/19 A2995 RMK AO2 T02000194
KBGR 202353Z 17006KT 10SM TS SCT050CB BKN085 BKN200 24/18 A2980 RMK AO2 LTG DSNT W-N TSB28 SLP086 OCNL LTGICCG NW-NE TS NW MOV E T02390183 10306 20239 55005
KBHB 202356Z AUTO 21007KT 10SM FEW002 21/18 A2982 RMK AO2 SLP102 T02110183 10289 20211 55000 $
KBHC 210015Z AUTO 18004KT 10SM CLR 25/25 A3003 RMK AO2 LTG DSNT S
KBHK 202351Z AUTO 24021G30KT 10SM CLR 32/09 A2981 RMK AO2 PK WND 23032/2332 SLP064 60005 T03170089 10389 20267 55010
KBHM 202353Z 31004KT 10SM BKN200 32/22 A3006 RMK AO2 SLP169 T03170217 10344 20294 56017
KBID 210020Z AUTO 22013KT 5SM BR FEW003 24/23 A2987 RMK AO2
KBIE 210015Z AUTO 11006KT 10SM CLR 35/25 A2990 RMK AO2 T03460253
KBIF 210008Z AUTO 07010G19KT 10SM VCTS SCT075 SCT100 BKN160 26/17 A3005 RMK AO2 RAE08 SLP117 $
KBIH 202356Z AUTO 17014G19KT 10SM CLR 37/M02 A2994 RMK AO2 SLP083 T03721017 10383 20311 56023
KBIJ 210035Z AUTO 00000KT 10SM CLR 30/26 A3001 RMK AO2
KBIL 202353Z 21011KT 10SM FEW110 BKN200 32/08 A2985 RMK AO2 PK WND 20032/2307 SLP069 SHRA DSNT E-S T03170078 10350 20300 57017
KBIS 210031Z 10009KT 10SM -RA FEW050 SCT090 BKN110 29/14 A2988 RMK AO2 LTG DSNT W AND NW RAB30 TSB10E25 P0000 T02940139
KBIV 202353Z AUTO 26004KT 10SM CLR 24/20 A2997 RMK AO2 SLP144 T02440200 10272 20244 52001
KBIX 202358Z AUTO 23006KT 10SM CLR 32/25 A3000 RMK AO2 SLP162 T03160249 10340 20316 55007
KBJC 210033Z AUTO 17006KT 10SM CLR 28/10 A3013 RMK AO2 LTG DSNT S
KBJI 210032Z AUTO 27005KT 10SM CLR 27/14 A2997 RMK AO2 T02700138
KBJJ 202356Z AUTO 00000KT 10SM SCT038 27/23 A2999 RMK AO2 SLP146 T02720233 10300 20272 56006
KBKB 202354Z AUTO 00000KT 10SM CLR 34/24 A2998 RMK AO2 SLP175 T03390239 10361 20322 56014
KBKD 210015Z AUTO 15008KT 10SM CLR 37/16 A2996 RMK AO2 T03650155
KBKE 202353Z AUTO 32013KT 10SM CLR 28/06 A3004 RMK AO2 SLP146 T02780056 10289 20222 58015 TSNO
KBKF 202358Z 10004KT 10SM SCT090 BKN140 BKN200 24/15 A3012 RMK AO2A RAE23 TSE23 SLP126 P0004 60087 T02430150 10345 20194 55008
KBKL 202353Z 25004KT 10SM CLR 27/18 A2994 RMK AO2 SLP133 T02720183 10283 20267 56011
KBKN 210035Z AUTO 14013KT 10SM CLR 38/17 A2994 RMK AO2
KBKS 210015Z AUTO 12014G17KT 10SM CLR 34/23 A2995 RMK AO1 T03370227
KBKT 210015Z AUTO 21004KT 10SM CLR A2995 RMK AO1
KBKV 210033Z 17005KT 10SM VCTS FEW039 SCT065 BKN095 25/22 A3006 RMK AO2 LTG DSNT N AND S AND NW TSB2356E27 T02500217
KBKW 202351Z AUTO 33005KT 10SM CLR 26/17 A3012 RMK AO2 SLP162 T02560172 10294 20256 55007 TSNO
KBKX 210016Z AUTO 12011KT FEW001 29/19 A2995 RMK AO2 RVRNO $
KBLF 202352Z AUTO 29003KT 10SM CLR 24/18 A3014 RMK AO2 SLP169 T02390178 10289 20239 56008
KBLH 202352Z AUTO 19012KT 10SM BKN110 42/16 A2976 RMK AO2 SLP068 T04170161 10422 20378 56030
KBLI 202353Z 16010KT 10SM CLR 21/12 A3012 RMK AO2 SLP204 T02060117 10211 20167 58004
KBLM 202356Z AUTO 29004KT 10SM CLR 31/22 A2990 RMK AO2 SLP126 T03110222 10350 20306 53003
KBLU 202352Z AUTO VRB06KT 10SM CLR 24/03 A3023 RMK AO2 SLP141 T02390033 10250 20217 58010 TSNO
KBLV 202358Z AUTO 21009KT 10SM CLR 34/23 A2997 RMK AO2 SLP147 T03390229 10366 20339 56013 $
KBMC 210015Z AUTO 18010KT 10SM CLR 34/10 A2996 RMK AO1 T03360098
KBMG 202353Z 19004KT 10SM CLR 31/24 A2999 RMK AO2 SLP147 T03110239 10328 20306 55009
KBMI 202356Z COR 25008KT 10SM FEW048 33/26 A2996 RMK AO2 SLP150 T03280256 10339 20311 58003
KBML 202352Z AUTO 00000KT 9SM CLR 23/19 A2984 RMK AO2 SLP099 60001 T02280194 10289 20228 58011
KBMQ 202353Z AUTO 12008KT 10SM CLR 36/16 A3001 RMK AO2 SLP140 T03610161 10378 20339 56021
KBMT 210035Z AUTO 10SM CLR 32/24 A3001 RMK AO2 LTG DSNT E T03210237
KBNA 202353Z 28004KT 10SM FEW055 BKN250 32/22 A3003 RMK AO2 SLP159 T03170217 10361 20317 56015
KBNL 210035Z AUTO 00000KT 10SM CLR 26/25 A3002 RMK AO2
KBNO 202353Z AUTO 25010KT 10SM CLR 29/M02 A3007 RMK AO2 SLP149 T02941022 10294 20239 58016
KBNW 210035Z AUTO 05011KT 10SM CLR 30/26 A2995 RMK AO2
KBOI 202353Z 32009G20KT 10SM CLR 33/04 A2996 RMK AO2 SLP115 T03280039 10333 20278 58019
KBOK 202356Z AUTO 30011G18KT 10SM CLR 18/13 A3015 RMK AO2 SLP222 T01830128 10194 20167 58009
KBOS 202354Z VRB05KT 10SM FEW025 SCT075 BKN130 BKN200 OVC320 31/19 A2981 RMK AO2 SLP095 T03110189 10333 20306 55005 $
KBOW 210035Z AUTO 17003KT 10SM CLR 24/24 A3005 RMK AO2 LTG DSNT SW-N FZRANO
KBPG 210035Z AUTO 16010KT 10SM BKN095 BKN120 35/14 A3003 RMK AO2 T03520136
KBPI 210030Z AUTO 08015KT 10SM VCTS SCT100 19/12 A3021 RMK AO2 LTG DSNT NE RAB2357E06 TSB2359E24 P0000 T01940122
KBPK 202353Z AUTO 19003KT 10SM CLR 32/24 A3003 RMK AO2 SLP155 T03220239 10344 20317 56009
KBPT 202353Z 20006KT 10SM CLR 32/25 A3000 RMK AO2 LTG DSNT E SLP160 60000 T03220250 10356 20300 55010
KBQK 210035Z AUTO 21005KT 10SM CLR 27/22 A3005 RMK AO2 LTG DSNT SW
KBQP 210015Z AUTO 00000KT CLR 31/27 A3001 RMK AO2 T03070265 PWINO
KBQX 210015Z AUTO 17008KT 110V180 10SM CLR 31/31 A3003 RMK A01
KBRD 202353Z AUTO 21010KT 7SM CLR 28/18 A2997 RMK AO2 SLP143 T02780183 10289 20261 56018 $
KBRL 202353Z AUTO VRB04KT 10SM VCTS CLR 33/28 A2992 RMK AO2 LTG DSNT W-N SLP123 T03330278 10350 20333 55007
KBRO 202353Z 14013KT 10SM CLR 31/23 A2999 RMK AO2 SLP154 T03110233 10344 20311 56016
KBTA 210015Z AUTO 16004KT 10SM CLR 32/26 A2991 RMK AO2 T03170255
KBTL 202353Z 29005KT 10SM CLR 28/21 A2996 RMK AO2 SLP138 T02830211 10300 20278 58003
KBTM 202353Z AUTO 28015G24KT 10SM CLR 30/M03 A2999 RMK AO2 SLP098 T03001033 10317 20289 58012
KBTP 210035Z AUTO 21003KT 10SM CLR 23/21 A3001 RMK AO1
KBTR 202353Z 03005KT 10SM CLR 34/22 A2998 RMK AO2 SLP151 T03390222 10361 20339 56018
KBTV 202354Z 00000KT 10SM FEW080 FEW120 26/17 A2984 RMK AO2 SLP102 T02610167 10300 20261 51002
KBUF 202354Z 25009KT 7SM FEW030 FEW140 23/20 A2992 RMK AO2 SLP127 MDT CU DSNT S 60000 T02330200 10244 20167 55001
KBUR 202353Z 16008KT 140V200 10SM CLR 31/14 A2992 RMK AO2 SLP115 T03110139 10322 20267 58020 $
KBUU 210015Z AUTO 00000KT 10SM CLR 28/23 A2997 RMK AO2 T02800226
KBUY 202354Z AUTO 18004KT 10SM CLR 32/22 A2997 RMK AO2 SLP141 T03220217 10361 20322 55009 TSNO
KBVE 202351Z AUTO 00000KT 10SM CLR 32/23 A3002 RMK AO2 SLP164 T03220233 10333 20317 55012 $
KBVI 202347Z 19003KT 10SM SCT055 25/23 A3000
KBVN 210015Z AUTO 11008G15KT 10SM CLR 32/24 A2992 RMK AO2 T03220237
KBVO 202353Z AUTO 14007G16KT 10SM CLR 35/22 A2996 RMK AO2 SLP134 T03500222 10389 20350 56012
KBVS 210035Z AUTO 28005KT 9SM CLR 21/12 A3012 RMK A01
KBVU 210035Z AUTO 12005KT 10SM 37/13 A2989 RMK AO2
KBVX 210035Z AUTO 00000KT 10SM VCTS BKN050 BKN080 32/24 A3001 RMK AO1 TSB28
KBVY 202353Z 06005KT 10SM CLR 26/21 A2982 RMK AO2 SLP093 T02560211 10317 20256 55003
KBWD 210035Z AUTO 12008KT 10SM -RA CLR 35/16 A2998 RMK AO2 P0003
KBWG 202353Z AUTO 28007KT 10SM CLR 32/23 A3002 RMK AO2 SLP158 T03220233 10344 20322 56013
KBWI 202354Z 28006KT 10SM FEW200 BKN250 33/21 A2989 RMK AO2 SLP121 T03280211 10367 20328 55006
KBWP 210010Z AUTO 15004KT 10SM CLR 27/18 A2992 RMK AO1
KBWW 210035Z AUTO 18009G16KT 10SM TS CLR 19/16 A2975 RMK AO2 LTG DSNT ALQDS
KBXA 210035Z AUTO 00000KT 10SM CLR 31/26 A3002 RMK AO2 T03140260
KBXK 210035Z AUTO 13006KT 10SM CLR 39/14 A2981 RMK AO1
KBYG 210030Z AUTO 34020G28KT 8SM -TSRA BKN110 22/12 A3002 RMK AO2 PK WND 34028/0008 LTG DSNT ALQDS TSB30 P0006 T02170117 $
KBYI 202353Z AUTO 28008G14KT 10SM CLR 30/03 A2999 RMK AO2 SLP110 T03000028 10306 20250 58018
KBYL 210015Z AUTO 32003KT 10SM CLR 29/23 A3007 RMK AO1
KBYS 202355Z AUTO 18012G17KT 160V220 10SM CLR 39/00 A2990 RMK AO2 SLP068 WND DATA ESTMD T03891001 10344 20248 403940248 58026 $
KBYY 210020Z AUTO 18008KT 10SM CLR 31/24 A3001 RMK AO2 T03140243
KBZN 202356Z 23012G25KT 200V270 10SM CLR 34/M02 A2988
KC07 210034Z AUTO 07006KT 10SM TS SCT060 OVC080 11/06 A3057 RMK AO2 LTG DSNT ALQS P0001
KC09 210035Z AUTO 00000KT 10SM OVC049 28/25 A2995 RMK AO2 T02790254
KC29 210035Z AUTO 36003KT 10SM CLR 27/23 A2998 RMK AO1 T02700231
KC35 210035Z AUTO 36004KT 10SM CLR 26/22 A2998 RMK AO2 T02600215
KC62 210035Z AUTO 23003KT 10SM OVC049 A2998 RMK AO2
KC75 210035Z AUTO 00000KT 10SM BKN055 30/27 A2993 RMK AO2 T02980272
KCAD 210035Z AUTO 32007KT 10SM CLR 25/16 A2997 RMK AO2 T02530166
KCAE 202356Z 20004KT 10SM SCT060 SCT150 30/22 A2998 RMK AO2 SLP150 T03000222 10361 20300 55001
KCAG 202353Z AUTO 22009KT 10SM CLR 28/07 A3015 RMK AO2 SLP134 T02830072 10328 20283 58015
KCAK 202351Z 29003KT 10SM SCT050 BKN250 29/21 A2999 RMK AO2 SLP142 T02890206 10322 20289 56002
KCAO 202355Z AUTO 22011G18KT 10SM CLR 34/07 A3008 RMK AO2 SLP105 T03390067 10350 20322 56022
KCAR 202354Z AUTO 26003KT 10SM CLR 23/18 A2977 RMK AO2 SLP080 T02280178 10283 20228 56012
KCAV 210035Z AUTO 07008KT 9SM FEW043 FEW060 28/25 A2996 RMK AO2 PWINO
KCBE 210010Z AUTO 26005KT 10SM CLR 31/18 A3001 RMK AO1
KCBF 210035Z AUTO 06005KT 10SM CLR 32/27 A2992 RMK AO2
KCBG 210036Z AUTO 21003KT 10SM CLR 29/19 A2996 RMK AO2
KCBK 210015Z AUTO 18007KT 10SM CLR 35/17 A2992 RMK AO2
KCBM 202358Z AUTO 00000KT 10SM CLR 33/25 A3001 RMK AO2 SLP163 T03260245 10349 20306 57012 TSNO $
KCCA 210035Z AUTO 00000KT 9SM CLR 31/26 A3001 RMK AO2
KCCO 210035Z AUTO 30004KT 10SM CLR 30/24 A3005 RMK AO2 T03020244
KCCR 202353Z 24009KT 10SM CLR 31/11 A2995 RMK AO2 SLP128 T03110111 10322 20244 56015
KCCU 210033Z AUTO 27004KT 10SM SCT100 BKN120 15/03 A3069 RMK AO2 LTG DSNT ALQS
KCCY 210035Z AUTO 00000KT 10SM CLR 28/26 A2999 RMK AO2
KCDA 210035Z AUTO 26006KT 10SM CLR 22/17 A2988 RMK AO2 T02150166
KCDC 202353Z AUTO 21010KT 10SM CLR 29/10 A3014 RMK AO2 SLP119 T02890100 10311 20272 57020
KCDD 210032Z AUTO 00000KT 10SM CLR 22/14 A2996 RMK AO2
KCDH 210015Z AUTO 00000KT 10SM CLR 34/24 A3000 RMK AO2
KCDI 210033Z AUTO 00000KT 7SM CLR 24/23 A3000 RMK AO2 T02420230
KCDJ 202352Z AUTO 18004KT 34/28 A2995 RMK AO1 SLP124 T03390278 10356 20333 56011
KCDN 210035Z AUTO 00000KT BKN120 28/21 A3000 RMK AO2
KCDR 202353Z AUTO 15014KT 10SM CLR 33/13 A2992 RMK AO2 SLP098 T03330133 10344 20317 56029
KCDS 202353Z AUTO 18011KT 10SM FEW110 37/14 A2996 RMK AO2 SLP115 T03670144 10383 20350 56022
KCDW 202353Z 32009G22KT 8SM -RA SCT110 27/21 A2991 RMK AO2 RAB45 SLP132 P0000 60000 T02720206 10344 20272 53012
KCEC 210024Z AUTO 33007KT 10SM CLR 17/13 A3017 RMK AO2 T01670133
KCEF 202358Z 15003KT 10SM FEW070 BKN140 BKN220 25/19 A2983 RMK AO2A SLP106 60001 T02480188 10326 20248 55007
KCEU 202354Z AUTO 28003KT 10SM CLR 31/22 A3002 RMK AO2 SLP152 T03060222 10350 20306 56005
KCEW 202353Z AUTO 12003KT 10SM BKN060 29/23 A3003 RMK AO2 LTG DSNT W SLP167 60000 T02890228 10361 20289 53010
KCEY 210015Z AUTO 21004KT 10SM CLR 30/25 A3003 RMK AO1
KCEZ 202353Z AUTO 13004KT 10SM VCTS CLR 22/15 A3017 RMK AO2 WSHFT 2240 LTG DSNT ALQDS TSE33 SLP148 T02220150 10333 20217 50001
KCFD 210035Z AUTO 12010KT 10SM CLR 34/21 A3000 RMK AO2 T03390212
KCFE 210035Z AUTO 00000KT 10SM CLR 29/20 A2998 RMK AO2 T02850196
KCFS 210035Z AUTO 21004KT 10SM SCT050 SCT060 27/21 A2992 RMK AO2 T02650207
KCFV 202352Z AUTO 15009KT 10SM CLR 34/23 A2997 RMK AO2 SLP138 T03440228 10361 20344 $
KCGC 210035Z AUTO 11004KT 10SM TS SCT019 OVC027 25/23 A3007 RMK AO2 LTG DSNT N THRU S
KCGE 210030Z AUTO VRB03KT 10SM CLR 29/23 A2992 RMK A01
KCGF 202345Z 24005KT 15SM SKC 29/19 A2996
KCGI 202353Z AUTO 21004KT 10SM CLR 31/24 A2999 RMK AO2 SLP152 T03060244 10344 20306 56012
KCGS 210028Z AUTO 22003KT 10SM SCT075 BKN090 33/20 A2991 RMK AO1 T03300203
KCGZ 202356Z AUTO VRB05KT 10SM CLR 37/17 A2986 RMK AO2 SLP091 T03720172 10378 20328 56025 $
KCHA 202353Z 31003KT 10SM SCT050 BKN250 31/23 A3002 RMK AO2 SLP156 T03110228 10344 20311 56014
KCHD 202347Z 26007KT 10SM CLR 38/15 A2983
KCHK 210015Z AUTO 17010KT 10SM CLR 36/18 A2993 RMK AO2 T03650176
KCHO 202353Z 22003KT 10SM CLR 32/19 A2994 RMK AO2 SLP128 T03220194 10367 20322 56007
KCHS 202356Z 21007KT 10SM FEW045 SCT085 SCT250 28/23 A3002 RMK AO2 SLP163 T02830233 10333 20283 53004
KCIC 210035Z AUTO 17006KT 10SM CLR 34/05 A2990 RMK AO1
KCID 202352Z 06012KT 9SM SCT033 SCT042 30/27 A2994 RMK AO2 SLP131 T03000272 10333 20300 55002 $
KCIN 210035Z AUTO 03011KT 5SM HZ BKN024 BKN048 29/26 A2993 RMK AO2
KCIR 210035Z AUTO 21003KT 10SM CLR 31/24 A3000 RMK AO2 T03050242
KCIU 202356Z AUTO 33009KT 10SM CLR 22/16 A2990 RMK AO2 SLP143 6//// T02170156 10289 20217 58002 PNO $
KCJR 210035Z AUTO 00000KT 10SM CLR 28/24 A2993 RMK AO2 T02770239
KCKB 202353Z 29003KT 9SM SCT085 28/20 A3003 RMK AO2 SLP150 T02830200 10311 20278 55004
KCKC 210033Z AUTO 00000KT 10SM CLR 21/12 A2998 RMK AO2
KCKF 210035Z AUTO 00000KT 10SM CLR 35/22 A3001 RMK AO2 T03510216
KCKI 210035Z AUTO 17004KT 10SM CLR 27/21 A3001 RMK AO2
KCKM 210035Z AUTO 00000KT 10SM 33/27 A3001 RMK A01
KCKN 210035Z AUTO 00000KT 10SM CLR 26/18 A2995 RMK AO2
KCKP 210035Z AUTO 11010KT 10SM SCT120 29/25 A2992 RMK AO2 LTG DSNT SE AND S T02860246
KCKV 202352Z AUTO 24003KT 10SM CLR 31/23 A3002 RMK AO2 SLP159 T03060228 10339 20306 56015
KCKZ 210035Z AUTO 03008KT 10SM FEW047 SCT085 BKN110 24/20 A2996 RMK AO2
KCLE 202351Z 25003KT 10SM FEW050 BKN250 29/19 A2997 RMK AO2 SLP141 T02940194 10317 20289 56010 $
KCLI 210015Z AUTO 30005KT 10SM CLR 28/15 A2995 RMK AO2
KCLK 210035Z AUTO 17009KT 10SM CLR 36/10 A2996 RMK AO2
KCLL 202353Z 13009KT 10SM CLR 36/19 A2998 RMK AO2 SLP145 T03610189 10378 20339 56017
KCLM 202353Z AUTO 28005KT 10SM OVC037 17/13 A3016 RMK AO2 SLP212 T01670128 10178 20161 58003
KCLS 210035Z AUTO 29005KT 10SM BKN065 21/13 A3014 RMK AO2
KCLT 202352Z 17007KT 10SM FEW060 FEW140 SCT250 31/22 A2999 RMK AO2 SLP147 T03110217 10356 20311 55007
KCLW 210035Z AUTO 00000KT 10SM CLR 29/23 A3003 RMK AO2
KCMA 202355Z 26010KT 10SM CLR 24/16 A2993 RMK AO2 SLP144 T02440161 10272 20239 58017
KCMD 210035Z AUTO 00000KT 10SM CLR 30/24 A3007 RMK AO2 T03020240
KCMH 202351Z 29009KT 10SM SCT080 28/23 A2999 RMK AO2 SLP147 T02830228 10317 20283 56005
KCMI 202353Z 23005KT 10SM SKC 31/26 A2996
KCMR 210035Z AUTO 23005KT 10SM CLR 19/13 A3028 RMK AO2
KCMX 202353Z AUTO 26007KT 10SM CLR 23/16 A2994 RMK AO2 SLP133 T02330161 10256 20228 55002
KCMY 210015Z AUTO 36003KT 10SM CLR 27/22 A2999 RMK AO2 T02650220
KCNB 210035Z AUTO 00000KT 10SM CLR 28/20 A2993 RMK AO2 T02820200
KCNC 210035Z AUTO 22005KT 10SM CLR 33/25 A2992 RMK AO2
KCNI 210015Z AUTO 30003KT 10SM CLR 30/23 A3007 RMK AO2
KCNK 202355Z AUTO 16007KT 10SM CLR 37/19 A2988 RMK AO2 SLP098 T03670194 10394 20367 56018
KCNM 202353Z AUTO 16007KT 10SM CLR 34/13 A3001 RMK AO2 SLP100 T03390133 10356 20311 56024
KCNO 202353Z 25014KT 10SM FEW200 33/13 A2991 RMK AO2 SLP123 T03330128 10367 20300 56021
KCNU 202352Z AUTO 18012KT 10SM CLR 35/21 A2997 RMK AO2 SLP134 T03500211 10378 20350 56012
KCNW 202355Z 19006KT 10SM SCT080 37/18 A2996
KCNY 210010Z AUTO 32025G31KT 10SM VCTS BKN100 33/09 A2997 RMK AO2 PK WND 31031/0010 LTG DSNT ALQDS TSE04 T03280094
KCOD 202356Z AUTO 22007KT 10SM CLR 21/12 A3005 RMK AO2 WSHFT 2245 LTG DSNT SE TSE08RAE43 SLPNO P0001 6//// T02060122 50001
KCOE 202356Z AUTO 24013G17KT 10SM CLR 26/06 A3001 RMK AO2 SLP162 T02560061 10267 20233 57009
KCOF 202358Z AUTO 24007KT 10SM CLR 26/24 A3005 RMK AO2 RAB2258E12DZB12E21 SLP180 P0001 60013 T02590235 10295 20250 50003 $
KCOM 210035Z AUTO 11009KT 10SM CLR 35/15 A2999 RMK AO2 T03490146
KCON 202351Z AUTO 00000KT 10SM CLR 26/19 A2985 RMK AO2 SLP105 T02610194 10322 20261 55001
KCOQ 210035Z AUTO 24005KT 10SM CLR 27/14 A2996 RMK AO2
KCOS 202354Z 15010KT 10SM FEW080 SCT150 BKN250 31/12 A3016 RMK AO2 SLP111 OCNL LTGICCG DSNT NW CB DSNT NW MOV NE BLDG CU NE T03060122 10333 20294 56015
KCOT 202353Z AUTO 14013G21KT 10SM FEW100 38/14 A2992 RMK AO2 SLP121 T03830144 10400 20356 56020
KCOU 202354Z 21005KT 10SM CLR 35/23 A2998 RMK AO2 SLP142 T03500228 10372 20344 56009
KCPC 210025Z AUTO 17004KT 10SM CLR 29/23 A2999 RMK AO2 T02870231
KCPK 210015Z AUTO 00000KT 10SM CLR 27/23 A2996 RMK AO2 T02710225
KCPR 202353Z 22008KT 10SM CLR 34/07 A2999 RMK AO2 SLP074 T03390067 10350 20300 56024
KCPS 202353Z 17005KT 10SM CLR 35/22 A2995 RMK AO2 SLP137 T03500217 10383 20350 56012
KCPT 210035Z AUTO 15008KT 10SM CLR 35/18 A2999 RMK AO2
KCPU 210015Z AUTO 32011KT 10SM CLR 32/08 A2997 RMK AO2 T03220084
KCPW 210033Z AUTO 00000KT 10SM SCT070 12/05 A3070 RMK AO2 LTG DSNT S THRU W
KCQB 210015Z AUTO 16008KT 10SM CLR 34/22 A2997 RMK AO2 T03420223
KCQC 202353Z AUTO 25009KT 10SM CLR 24/10 A3029 RMK AO2 SLP162 60000 T02390100 10300 20222 58014
KCQF 210035Z AUTO 17005KT 10SM BKN055 30/26 A3001 RMK AO2
KCQM 210036Z AUTO 00000KT 10SM CLR 25/17 A2996 RMK AO2
KCQT 202347Z AUTO 26004KT 10SM CLR 27/17 A2991 RMK AO2 SLP127 T02720172 10317 20272 58017
KCQW 210035Z AUTO 22004KT 10SM CLR 29/ A2998 RMK AO2
KCQX 210001Z AUTO 23006KT 5SM BR BKN004 24/24 A2987 RMK AO2 T02440239
KCRE 202353Z 21012KT 10SM CLR 28/24 A2999 RMK AO1 SLP157 T02830239 10306 20283 55005
KCRG 202353Z 17004KT 10SM CLR 28/22 A3004 RMK AO2 LTG DSNT W AND NW SLP173 T02780222 10317 20278 51011 $
KCRP 202351Z 14015G21KT 10SM FEW055 FEW250 32/24 A2998 RMK AO2 SLP150 T03170239 10356 20317 56015
KCRQ 202353Z AUTO 23008KT 10SM CLR 24/19 A2994 RMK AO2 SLP135 T02440189 10250 20233 58017
KCRS 202353Z AUTO 11011KT 10SM CLR 34/22 A3000 RMK AO2 SLP152 T03440222 10367 20344 56016
KCRW 202354Z 26005KT 10SM SCT100 SCT250 29/19 A3003 RMK AO2 SLP157 T02940194 10333 20294 55005
KCRX 210015Z AUTO 00000KT 10SM CLR 31/25 A3003 RMK AO2
KCSG 202351Z 35008KT 10SM CLR 31/21 A3001 RMK AO2 SLP155 T03110211 10367 20306 53000
KCSM 202353Z 18015KT 10SM CLR 37/13 A2998 RMK AO2 SLP123 T03670133 10383 20361 56018
KCSQ 210035Z AUTO 19004KT 10SM CLR 31/26 A2995 RMK AO2
KCSV 202353Z AUTO 00000KT 10SM CLR 27/22 A3011 RMK AO2 SLP173 T02720222 10311 20272 56014
KCTB 202356Z AUTO 26017G30KT 10SM CLR 30/00 A2989 RMK AO2 PK WND 27037/2312 SLP089 T03000000 10333 20278 55003 TSNO
KCTJ 210015Z AUTO 31003KT 10SM CLR 27/22 A3010 RMK AO2 T02680219
KCTY 210035Z AUTO 33003KT 10SM SCT024 BKN047 OVC055 26/25 A3011 RMK AO2 LTG DSNT E AND SE T02610247
KCTZ 210025Z AUTO 00000KT 10SM CLR 28/24 A2998 RMK AO2 T02770241
KCUB 202353Z AUTO 23004KT 10SM CLR 30/23 A3000 RMK AO2 SLP154 T03000233 10356 20294 55002
KCUH 210035Z AUTO 17004G14KT 10SM CLR 35/21 A2995 RMK AO2 T03450211
KCUL 210035Z AUTO 21005KT 10SM CLR 30/25 A2997 RMK AO2 T02950248
KCUT 202353Z AUTO 17008G17KT 140V210 10SM CLR 29/11 A3008 RMK AO2 SLP107 T02940111 10311 20283 56022
KCVB 210015Z AUTO 13009G16KT 10SM SCT080 37/15 A2997 RMK AO2 T03730149
KCVC 210015Z AUTO 00000KT 10SM CLR 30/23 A3001 RMK AO2
KCVG 202352Z 24006KT 9SM FEW240 BKN300 31/23 A3000 RMK AO2 SLP148 60000 T03060233 10322 20300 56007
KCVH 210030Z AUTO 25016KT 10SM CLR 25/11 A2998 RMK AO1
KCVN 202356Z AUTO 19013KT 10SM CLR 34/11 A3009 RMK AO2 SLP140 T03440111 10356 20322 56019
KCVO 210035Z 34005KT 10SM CLR 24/11 A3013 RMK AO1
KCVS 202358Z AUTO 20011KT 10SM SCT100 35/10 A3009 RMK AO2 SLP123 T03450103 10358 20318 57021 $
KCVW 210020Z AUTO 28004KT 10SM FEW100 30/25 A3000 RMK A01
KCVX 210035Z AUTO 23006KT 10SM CLR 24/17 A2996 RMK AO2 T02380172
KCWA 202346Z 27006KT 10SM SCT250 27/18 A3000
KCWC 210035Z AUTO 14009KT 10SM CLR 36/19 A2996 RMK AO2 T03620192
KCWF 202350Z 22006KT 10SM SCT050 31/23 A3000
KCWI 202356Z AUTO 05008KT 10SM SCT029 29/26 A2996 RMK AO2 SLP156 T02940261 10311 20289 55002
KCWN 202358Z AUTO 20009G15KT 10SM BKN210 27/07 A3018 RMK AO2 LTG DSNT SW SLPNO T02700074 10292 20262 57014 $
KCWV 210035Z AUTO 00000KT 10SM CLR 24/23 A3003 RMK AO2 T02430230
KCXE 210015Z AUTO 00000KT 10SM CLR 29/23 A2996 RMK AO1 T02890225
KCXO 202353Z 11005KT 10SM CLR 33/23 A3000 RMK AO2 SLP154 T03330228 10356 20328 56016
KCXP 210035Z AUTO 27011G24KT 10SM CLR 30/M06 A3010 RMK AO2
KCXU 210035Z AUTO 00000KT 5SM CLR 25/24 A3001 RMK AO1 T02450238
KCXW 210015Z AUTO 00000KT 10SM 32/24 A2998 RMK A01
KCXY 202356Z 24003KT 10SM CLR 31/19 A2990 RMK AO2 SLP124 T03060189 10339 20306 55000
KCYS 202353Z 19008KT 10SM CLR 28/08 A3016 RMK AO2 SLP118 60000 T02780083 10333 20256 56009
KCZL 210035Z AUTO 00000KT 10SM CLR 29/23 A3003 RMK AO2 T02930228
KCZT 210035Z AUTO 15009G19KT 10SM SCT100 37/15 A2990 RMK AO2
KCZZ 202352Z AUTO 22012G18KT 200V260 30/16 A2997 RMK AO1 SLP113 T03000161 10344 20294 56011
KD07 202356Z AUTO 16020G31KT 34/17 A2981 RMK AO1 PK WND 16035/2321 SLP074 T03440167 10372 20311 56035
KD25 210035Z AUTO 00000KT 10SM CLR 25/16 A2999 RMK AO2 T02490159
KD39 210034Z AUTO 17004KT 10SM CLR 27/21 A2997 RMK AO2 T02660206
KD50 210035Z AUTO 15010G18KT 10SM VCTS BKN110 26/15 A2984 RMK AO2 LTG DSNT ALQDS
KD55 210035Z AUTO 11010KT 10SM CLR 23/19 A2994 RMK AO2
KD60 210035Z AUTO 08016G22KT 10SM CLR 24/23 A2988 RMK AO2
KD95 210033Z AUTO 27005KT 10SM CLR 27/20 A2995 RMK AO2 T02720196
KDAA 202358Z AUTO 15004KT 10SM CLR 31/23 A2990 RMK AO2 SLP128 T03140233 10361 20314 57006
KDAB 202353Z 20004KT 10SM FEW017 BKN300 26/23 A3004 RMK AO2 SLP171 CB DSNT W T02560233 10311 20256 58001
KDAG 202350Z AUTO 23012G19KT 10SM CLR 39/M03 A2985 RMK AO2 SLP076 T03941033 10417 20339 56023
KDAL 202353Z 14011KT 10SM FEW075 36/21 A2996 RMK AO2 SLP137 T03560206 10372 20350 56015 $
KDAN 202353Z AUTO 17003KT 10SM CLR 29/23 A2996 RMK AO2 SLP134 T02940233 10339 20294 56012
KDAW 202351Z AUTO 00000KT 10SM FEW048 SCT065 23/20 A2984 RMK AO2 SLP099 60004 T02330200 10322 20228 55003
KDAY 202356Z 24006KT 8SM FEW065 SCT080 BKN210 28/24 A3001 RMK AO2 SLP152 60006 T02830239 10294 20233 56010
KDBN 210015Z AUTO 17009KT 10SM SCT060 30/23 A3003 RMK AO2 LTG DSNT S
KDBQ 202353Z 06004KT 10SM FEW024 28/24 A2998 RMK AO2 SLP144 T02830239 10300 20272 56004
KDCA 202352Z 19007KT 10SM FEW060 BKN250 33/25 A2990 RMK AO2 SLP125 T03280250 10367 20328 56007
KDCM 210035Z AUTO 16004KT 10SM CLR 28/20 A3001 RMK AO2
KDCU 202353Z AUTO 34005KT 10SM CLR 32/24 A3003 RMK AO2 SLP161 60000 T03170244 10350 20317 56013
KDDC 202352Z AUTO 19011KT 10SM CLR 37/12 A2994 RMK AO2 SLP099 T03720122 10389 20361 56020
KDDH 202354Z AUTO 00000KT 10SM OVC110 23/18 A2989 RMK AO2 SLP116 T02330183 10289 20228 55005
KDEC 202354Z 22007KT 10SM CLR 32/24 A2995 RMK AO2 SLP134 T03220239 10344 20311 56009
KDED 210015Z AUTO 25003KT 10SM CLR 25/22 A3005 RMK AO2 LTG DSNT W AND NW
KDEH 210035Z AUTO 00000KT 10SM CLR 27/23 A2998 RMK AO2
KDEN 202353Z 17008KT 10SM FEW100 BKN110 BKN220 26/13 A3009 RMK AO2 WSHFT 2258 LTG DSNT SE RAE34 TSE40 SLP108 OCNL LTGICCG DSNT SE TS DSPTD CB DSNT SE MOV E P0001 60001 T02560133 10350 20222 58014 $
KDEQ 202353Z AUTO 22004KT 10SM CLR 34/24 A2998 RMK AO2 SLP146 T03390239 10356 20333 56015
KDET 202353Z 27004KT 10SM BKN060 29/19 A2993 RMK AO2 SLP129 T02940194 10311 20289 56008
KDEW 202353Z AUTO 24017KT 10SM CLR 26/02 A3000 RMK AO2 SLP146 T02560022 10267 20233 58006
KDFI 202353Z AUTO 20004KT 10SM OVC043 A2996 RMK AO2 SLPNO 60000 58007 $
KDFW 202353Z 15013KT 10SM FEW080 36/20 A2995 RMK AO2 SLP131 T03610200 10378 20350 56017 $
KDGW 202353Z AUTO 16016G24KT 10SM CLR 32/12 A2999 RMK AO2 PK WND 16028/2331 SLP084 T03170117 10367 20317 56020
KDHN 202353Z 02003KT 10SM CLR 34/23 A3004 RMK AO2 SLP165 T03390233 10356 20333 53000
KDHT 202353Z AUTO 22012G16KT 10SM CLR 36/07 A3004 RMK AO2 SLP103 T03610072 10378 20344 56023
KDIJ 202356Z AUTO 17011KT 10SM CLR 24/13 A3016 RMK AO2 SLP148 60002 T02440128 10278 20172 58014
KDIK 210030Z AUTO 04015G19KT 10SM VCTS BKN110 22/17 A2982 RMK AO2 PK WND 15026/0009 LTG DSNT ALQDS T02170172
KDKB 210015Z AUTO 00000KT 10SM OVC047 28/25 A2998 RMK AO2 T02770250
KDKK 202353Z AUTO 23008KT 10SM FEW046 FEW055 24/22 A2993 RMK AO2 SLP132 T02440222 10272 20217 53002 $
KDKR 210010Z AUTO 00000KT 10SM FEW060 30/24 A3003 RMK AO2
KDKX 210015Z AUTO 00000KT 10SM CLR 27/23 A3001 RMK A01
KDLF 202358Z 14012KT 10SM FEW050 37/17 A2992 RMK AO2A SLP116 T03720169 10376 20339 403760247 57022
KDLH 202355Z 29006KT 10SM CLR 28/16 A2996 RMK AO2 SLP142 T02780156 10289 20267 56010
KDLL 210015Z AUTO 31003KT 10SM CLR 27/20 A2998 RMK AO2 T02660201
KDLN 202353Z AUTO 25014G23KT 6SM HZ CLR 29/02 A2993 RMK AO2 PK WND 22026/2329 SLP077 T02940017 10333 20283 56019
KDLP 210015Z AUTO 16005KT 10SM CLR 31/25 A3003 RMK A01
KDLS 202353Z AUTO 29013G22KT 10SM CLR 26/08 A3004 RMK AO2 PK WND 30026/2313 SLP171 T02560083 10272 20233 58010
KDLZ 210036Z AUTO 00000KT 10SM BKN060 BKN070 OVC090 27/21 A3001 RMK AO2
KDMA 202358Z AUTO 17010KT 10SM CLR 34/18 A2996 RMK AO2 SLP099 T03370178 10355 20319 57015 $
KDMH 202354Z AUTO 34/21 A2990 RMK AO1 SLP123 T03440206 10372 20344 55004
KDMN 210031Z AUTO 17020G35KT 10SM TS FEW050 BKN060 OVC090 25/16 A3011 RMK AO2 PK WND 17035/0026 LTG DSNT E AND S TSB25 PRESRR T02500161
KDMO 201853Z AUTO 24007KT 10SM CLR 35/26 A3005 RMK AO2 SLP164 T03500256
KDMW 210030Z AUTO 29004KT 10SM SCT048 A2995 RMK AO2
KDNL 210014Z AUTO VRB03KT 10SM BKN060 BKN095 30/21 A3003 RMK AO2 TSE08 PRESRR T03000211
KDNS 210035Z AUTO 07020G28KT 4SM -RA FEW038 SCT055 BKN075 22/20 A2993 RMK AO2
KDNV 210015Z AUTO 24005KT 10SM SCT049 30/25 A2994 RMK AO2 T03010247
KDOV 202358Z AUTO 19007KT 10SM CLR 31/27 A2988 RMK AO2 SLP121 T03080267 10343 20308 55007 $
KDPA 202352Z 28003KT 7SM OVC049 29/25 A2995 RMK AO2 SLP136 60000 T02890250 10300 20278 56004
KDPG 202350Z 16016G21KT 10SM FEW100 SCT130 BKN160 BKN220 34/09 A2996 RMK SLP081 TCU DSNT NE T03360087 NOSPECI
KDPL 210030Z AUTO 15003KT 10SM CLR 28/24 A2998 RMK AO2
KDQH 210015Z AUTO 00000KT 10SM CLR 25/20 A3005 RMK AO2 LTG DSNT SE
KDRA 202355Z AUTO 23017G25KT 10SM CLR 37/02 A2994 RMK AO2 PK WND 24029/2327 SLP081 T03720022 10383 20344 58024
KDRI 210035Z AUTO 06007KT 030V090 10SM RA SCT050 BKN070 BKN080 A3003 RMK AO2 LTG DSNT S
KDRM 210035Z AUTO 28007KT 10SM CLR 23/16 A2989 RMK AO2 T02340160
KDRO 210034Z AUTO 35011KT 310V040 10SM -RA OVC100 21/14 A3021 RMK AO2 WSHFT 0014 LTG DSNT W-NE RAB20 P0002 T02060139
KDRT 202353Z AUTO 14010KT 10SM CLR 37/14 A2992 RMK AO2 SLP112 T03720144 10378 20344 56022
KDSM 202354Z 28004KT 10SM BKN055TCU BKN250 35/23 A2991 RMK AO2 SLP115 TCU SE T03500228 10378 20333 56007
KDSV 202354Z AUTO 15004KT 10SM FEW026 23/19 A2993 RMK AO2 SLP139 60050 T02330194 10244 20194 55009
KDTA 210015Z AUTO 22010G14KT 10SM CLR 32/09 A3002 RMK AO1
KDTL 210033Z AUTO 19003KT 10SM CLR 27/18 A2999 RMK AO2
KDTN 202353Z AUTO 00000KT 10SM SCT060 SCT110 36/22 A2999 RMK AO2 SLP153 T03560222 10367 20344 56014
KDTO 202353Z 13006KT 10SM CLR 36/18 A2996 RMK AO2 SLP134 T03610183 10367 20350 56017
KDTS 202353Z AUTO 01005KT 10SM FEW039 SCT070 BKN110 28/24 A3002 RMK AO2 RAB19E48 TSB04E19 SLP165 P0010 60039 T02830244 10344 20267 53007
KDTW 202353Z 20007KT 10SM SCT045 SCT065 BKN250 29/21 A2995 RMK AO2 SLP135 T02890211 10311 20283 55006
KDUA 210015Z AUTO 14007KT 10SM CLR 35/21 A2999 RMK AO2
KDUB 210015Z AUTO 00000KT 10SM SCT120 16/11 A3024 RMK AO2 LTG DSNT SE
KDUC 210015Z AUTO 10SM 35/21 A2997 RMK AO2 T03480211
KDUG 202356Z AUTO 11009KT 10SM BKN110 27/16 A3011 RMK AO2 LTG DSNT S AND SW SLP130 6//// T02670161 10289 20267 55010
KDUH 210034Z AUTO 23003KT 10SM CLR 27/21 A2995 RMK AO2 T02740212
KDUJ 202353Z AUTO 22006KT 10SM SCT100 23/19 A3000 RMK AO2 SLP146 60011 T02280194 10294 20211 55005
KDUX 210035Z AUTO 15014G17KT 10SM CLR 34/10 A3003 RMK AO2 T03400104
KDVK 210015Z AUTO 00000KT 10SM CLR 30/23 A3005 RMK AO2
KDVL 210003Z AUTO 11011KT 10SM -RA FEW043 BKN110 24/19 A2992 RMK AO2 WSHFT 2343 P0000
KDVN 202352Z AUTO 04010KT 10SM CLR 31/26 A2995 RMK AO2 SLP133 T03060256 10328 20300 56008
KDVO 210035Z AUTO 22009G16KT 10SM CLR 26/10 A2996 RMK AO2
KDVP 210029Z AUTO 10009KT 7SM CLR 27/18 A2998 RMK AO2 T02720181
KDVT 202353Z VRB03G16KT 10SM SCT090 38/16 A2983 RMK AO2 LTG DSNT E SLP072 T03780161 10394 20322 56030
KDWH 202353Z 10007KT 10SM FEW060 SCT100 34/22 A2999 RMK AO2 LTG DSNT S SLP153 T03440217 10361 20333 56014
KDXR 202353Z 29008KT 260V330 10SM -RA FEW090 FEW120 28/22 A2991 RMK AO2 RAB52 SLP124 P0000 60000 T02830217 10322 20278 53004
KDXX 210034Z AUTO 12005KT 10SM CLR 29/20 A2992 RMK AO2
KDYA 210035Z AUTO 00000KT 10SM 30/25 A3001 RMK AO2 T02990247
KDYB 210035Z AUTO 00000KT 10SM CLR 26/23 A3003 RMK AO1
KDYL 210003Z AUTO 35007G17KT 10SM BKN049 BKN060 27/18 A2994 RMK AO2 LTG DSNT E T02720183
KDYS 202358Z AUTO 12012KT 10SM FEW090 37/18 A2997 RMK AO2 SLP094 T03690179 10378 20344 57023
KDYT 210033Z AUTO 23007KT 10SM CLR 29/20 A2992 RMK AO2
KDZB 210015Z AUTO 13008G14KT 10SM CLR 35/16 A2998 RMK AO2 T03540163
KE11 210015Z AUTO 15009KT 10SM CLR 34/12 A3004 RMK AO2 T03410120
KE38 210035Z AUTO 13006KT 10SM CLR 29/12 A3019 RMK AO2 T02910122
KE80 210015Z AUTO 20014KT 10SM CLR 31/09 A3012 RMK AO2 LTG DSNT NE AND E T03080088
KEAN 210015Z AUTO 09012G21KT 10SM CLR 25/16 A3002 RMK AO2 LTG DSNT SE AND S T02480163
KEAR 202356Z AUTO 09010KT 10SM CLR 32/26 A2991 RMK AO2 SLP106 T03170261 10322 20300 56024
KEAT 202355Z AUTO 30020G24KT 10SM CLR 27/04 A2997 RMK AO2 PK WND 30026/2346 SLP141 T02670044 10267 20239 58011
KEAU 202356Z 31006KT 10SM CLR 28/19 A2998 RMK AO2 SLP146 T02830194 10300 20267 58006
KEBA 210035Z AUTO 00000KT 10SM CLR 30/24 A3002 RMK AO2 T02960244
KEBG 210015Z AUTO 15015G20KT 10SM CLR 36/17 A2995 RMK AO2 T03580171
KEBS 210035Z AUTO 04006KT 10SM BKN035 OVC050 29/24 A2995 RMK AO2
KECG 202354Z 14004KT 10SM CLR 29/25 A2996 RMK AO2 SLP146 T02890250 10322 20289 56008
KECP 202353Z 15004KT 6SM BR FEW025 SCT075 28/24 A3002 RMK AO2 LTG DSNT E SLP175 60019 T02780239 10339 20267 53003
KECS 210035Z AUTO 15015G22KT 10SM CLR 33/07 A2993 RMK AO2
KECU 210015Z AUTO 18013KT FEW070 34/16 A3006 RMK AO2
KEDC 210035Z AUTO 17006KT 35/19 A2997 RMK AO2
KEDE 210025Z AUTO 18009KT 10SM CLR 30/24 A2997 RMK AO2 T03010238
KEDJ 210030Z AUTO 00000KT 10SM CLR 25/24 A3002 RMK AO1
KEDN 210035Z AUTO 00000KT 10SM CLR 28/25 A3002 RMK AO2 T02760252
KEDU 210010Z AUTO 17006KT 10SM CLR 33/14 A2991 RMK AO1
KEDW 202358Z 23020G28KT 60SM FEW180 FEW230 36/03 A2990 RMK AO2A PK WND 22030/40 SLP098 T03600027 10372 20328 57020
KEED 202356Z AUTO 20010KT 10SM CLR 43/12 A2979 RMK AO2 SLP046 T04280117 10433 20383 56030
KEEN 202356Z AUTO 00000KT 10SM CLR 24/18 A2987 RMK AO2 SLPNO T02440183 10311 20244 55003
KEEO 202353Z AUTO 00000KT 10SM FEW120 26/14 A3018 RMK AO2 LTG DSNT SE AND S RAE06 SLP131 P0000 60006 T02560139 10294 20217 56010
KEET 202353Z AUTO 00000KT 10SM CLR 29/23 A3004 RMK AO2 SLP165 T02940233 10344 20278 56015
KEFD 202350Z 16009KT 10SM FEW050 SCT250 33/23 A3003
KEFK 210035Z AUTO 00000KT 10SM CLR 18/17 A2987 RMK AO2 T01800169
KEFT 210035Z AUTO 00000KT 10SM CLR 27/21 A2998 RMK AO2
KEGE 202350Z 26009KT 10SM SCT110 28/08 A3022
KEGI 202355Z 18005KT 10SM FEW030 SCT050 SCT150 BKN250 28/24 A3002 RMK AO2A CB 20NW MOV SW SLP165 60003 T02770235 10351 20277 55001 $
KEGV 210015Z AUTO 32004KT 10SM CLR 25/12 A2999 RMK AO2 T02510123
KEHA 210028Z AUTO 17008KT 34/12 RMK AO1 /PK WND 14 000 T03390117
KEHC 210015Z AUTO 16004KT 10SM CLR 33/25 A3002 RMK A01
KEHO 210025Z AUTO 00000KT 10SM CLR A3001 RMK AO2
KEHR 202356Z AUTO 22005KT 10SM CLR 31/24 A2999 RMK AO2 SLP159 T03060244 10350 20306 56012
KEHY 210015Z AUTO 25014KT 10SM VCTS CLR 28/03 A3019 RMK AO2 LTG DSNT E
KEIK 210032Z AUTO 15009G16KT 10SM CLR 29/10 A3007 RMK AO2 LTG DSNT W T02910099
KEIR 210015Z AUTO 23005KT 10SM CLR 30/25 A3004 RMK A01
KEKM 202352Z 33005KT 10SM FEW034 28/22 A2996 RMK AO2
KEKN 202351Z AUTO 33003KT 10SM CLR 26/19 A3009 RMK AO2 SLP176 T02610189 10300 20261 55001 TSNO
KEKO 202356Z AUTO 29012KT 10SM CLR 34/M07 A3004 RMK AO2 SLP111 T03391072 10350 20294 58017
KEKQ 202356Z AUTO 27009KT 10SM CLR 30/25 A3007 RMK AO2 SLP187 T03000250 10322 20300 55010
KEKS 210015Z AUTO 23012KT 10SM CLR 30/01 A3001 RMK A01
KEKY 202356Z AUTO 00000KT 10SM CLR 28/24 A3005 RMK AO2 SLP184 60000 T02780244 10339 20278 56012
KELA 210015Z AUTO 18006KT 10SM CLR 30/25 A3000 RMK AO2 T03020250
KELD 202353Z AUTO 09003KT 10SM CLR 33/26 A3001 RMK AO2 SLP160 T03280256 10356 20328 56012
KELK 210015Z AUTO 16009G14KT 10SM CLR 36/15 A2996 RMK AO2 T03600147
KELM 202353Z 00000KT 10SM CLR 22/21 A2993 RMK AO2 SLP130 60037 T02220211 10289 20206 55010 $
KELN 202353Z AUTO 32024G33KT 10SM CLR 23/07 A3004 RMK AO2 PK WND 32036/2315 SLP165 T02280067 10239 20206 58006
KELO 210033Z AUTO 00000KT 10SM CLR 24/13 A2996 RMK AO2
KELP 202351Z 07013G22KT 10SM TS SCT070CB SCT120 BKN250 30/16 A3006 RMK AO2 WSHFT 2337 LTG DSNT E TSB35 SLP106 OCNL LTGICG E TS E MOV NW CB NW-NE AND DSNT ALQDS MOV NW T03000161 10333 20283 55016
KELY 202353Z AUTO VRB04KT 10SM FEW095 SCT110 32/09 A3012 RMK AO2 LTG DSNT NW-E SLP081 T03170089 10333 20272 58017
KELZ 202356Z AUTO 00000KT 10SM CLR 23/21 A3000 RMK AO2 SLP144 60018 T02330206 10294 20211 55008
KEMM 210015Z AUTO 24018G22KT 10SM 27/05 A3021 RMK AO2
KEMP 202353Z AUTO 16008KT 10SM CLR 36/21 A2994 RMK AO2 SLP125 T03560206 10378 20356 56015
KEMT 202345Z 21009G14KT 10SM CLR 32/16 A2992
KEMV 210035Z AUTO 00000KT 10SM CLR 27/23 A2997 RMK AO2
KEND 202358Z AUTO 17012KT 10SM CLR 38/16 A2993 RMK AO2 SLP120 60000 T03780163 10391 20367 403910237 57017 $
KENL 210035Z AUTO 20006KT 10SM CLR 32/25 A2996 RMK AO2 T03200251
KENV 202356Z AUTO 14012KT 10SM CLR 36/10 A2993 RMK AO2 SLP079 T03560100 10367 20317 56023
KENW 202353Z 15006KT 10SM CLR 26/21 A2997 RMK AO2 SLP144 T02560206 10306 20256 53001
KEOE 210035Z AUTO 17005KT 10SM CLR 29/22 A3002 RMK AO2
KEOK 210035Z AUTO 23010KT 10SM CLR 34/26 A2992 RMK AO2
KEPH 202353Z AUTO 23015G21KT 10SM CLR 27/03 A2996 RMK AO2 SLP139 T02720028 10283 20250 58007
KEQA 210035Z AUTO 16008KT 10SM CLR 35/20 A2995 RMK AO2
KEQY 202353Z AUTO 00000KT 10SM CLR 28/23 A2999 RMK AO2 SLP153 60007 T02780233 10328 20244 55005
KERI 202351Z AUTO 25009KT 10SM CLR 27/20 A2994 RMK AO2 SLP134 T02720200 10289 20261 55002
KERV 210035Z AUTO 17008KT 10SM SCT090 35/19 A3001 RMK AO2 T03450188
KERY 210035Z AUTO 31005KT 7SM CLR 21/16 A2994 RMK AO2 T02120160
KESC 202356Z AUTO 05005KT 10SM FEW070 28/19 A2991 RMK AO2 SLP143 T02780194 10311 20278 53002
KESF 202353Z AUTO 00000KT 10SM CLR 33/26 A3000 RMK AO2 SLP156 T03330261 10361 20328 56015 TSNO
KESN 202345Z 20008KT 10SM SKC 32/23 A2995
KEST 202352Z AUTO 08006KT 10SM CLR 27/24 A2999 RMK AO2 SLP145 T02720239 10300 20272 56010
KETB 210015Z AUTO 34005KT 10SM CLR 26/21 A2997 RMK AO2
KETH 210036Z AUTO 14004KT 10SM CLR 27/20 A2993 RMK AO2
KETN 210035Z AUTO 14005KT 10SM CLR 34/19 A2999 RMK AO2 T03410185
KEUF 202358Z AUTO 34005KT BKN065 31/22 A3001 RMK AO2 SLP157 T03110222 10361 20311 53004
KEUG 202354Z 32005KT 10SM FEW050 25/11 A3011 RMK AO2 SLP194 T02500106 10256 20172 56018
KEUL 202356Z AUTO 34006KT 10SM CLR 33/08 A2993 RMK AO2 SLP113 T03330078 10333 20283 56019
KEVB 202347Z 24005KT 10SM BKN030 25/22 A3005
KEVM 210034Z AUTO 27004KT 10SM CLR 26/08 A2998 RMK AO2 T02550084
KEVU 210015Z AUTO 18007KT 10SM CLR 33/23 A2993 RMK AO2
KEVV 202354Z 23009KT 10SM CLR 33/22 A2999 RMK AO2 SLP149 T03330217 10361 20333 56013
KEVW 202353Z AUTO 25017KT 10SM CLR 28/10 A3021 RMK AO2 PK WND 25026/2325 SLP121 T02780100 10300 20250 56013
KEWB 202353Z 22008KT 10SM SCT110 26/22 A2984 RMK AO2 SLP102 T02560217 10333 20256 58006
KEWK 202356Z AUTO 15013KT 10SM CLR 37/18 A2994 RMK AO2 SLP116 T03670183 10400 20367 56015
KEWN 202354Z 18005KT 10SM CLR 28/22 A2999 RMK AO2 SLP155 T02830222 10339 20283 55006
KEWR 202351Z 29008KT 10SM FEW060 SCT100 BKN160 OVC250 32/19 A2988 RMK AO2 SLP118 OCNL LTGIC DSNT SW-DSNT W CB DSNT SW-DSNT W MOV SE T03220194 10367 20322 53003
KEXX 210025Z AUTO 00000KT 10SM CLR 27/24 A2999 RMK AO2 T02720240
KEYE 202353Z AUTO 22005KT 10SM CLR 30/24 A2997 RMK AO2 SLP140 T03000239 10317 20294 56007
KEYW 202353Z 00000KT 10SM FEW033 31/25 A3006 RMK AO2 SLP178 T03110250 10322 20306 53003
KEZF 210035Z AUTO 00000KT 10SM CLR 30/25 A2990 RMK AO2 T02980245
KEZM 210015Z AUTO 17007KT 10SM SCT060 31/17 A3004 RMK AO2 LTG DSNT SE T03080166
KEZS 210035Z AUTO 00000KT 10SM CLR 29/17 A2995 RMK AO2 T02890165
KF00 210015Z AUTO 15007KT 10SM CLR 33/21 A2999 RMK AO2
KF05 210015Z AUTO 16011KT 10SM CLR 38/11 A2994 RMK AO1 T03750113
KF17 210035Z AUTO 00000KT M1/4SM HZ VV000 34/27 A3002 RMK AO2 T03390266
KF44 210035Z AUTO 14003KT 10SM CLR 33/20 A2999 RMK AO2
KF46 210015Z AUTO 13008G16KT 10SM CLR 34/21 A2999 RMK AO2 T03380210
KF70 210020Z AUTO 21011KT 10SM CLR 29/13 A2994 RMK AO1
KFAF 202358Z AUTO 16005KT 10SM CLR 31/24 A2992 RMK AO2 SLP135 T03120241 10361 20312 55008
KFAM 202356Z AUTO 18009KT 10SM CLR 33/24 A3002 RMK AO2 SLP154 T03280244 10356 20328 56010
KFAR 202353Z 17004KT 10SM CLR 30/19 A2991 RMK AO2 SLP123 T03000189 10317 20289 56020
KFAT 202353Z 31005KT 10SM FEW150 36/03 A2990 RMK AO2 SLP122 MTNS OBSC FU DSNT N-E-SE T03610033 10361 20289 58020
KFAY 202353Z 19004KT 10SM CLR 33/23 A2996 RMK AO2 SLP139 T03280233 10361 20328 55007
KFBG 202356Z AUTO 19004KT 10SM CLR 32/21 A2996 RMK AO2 SLP146 T03160214 10357 20316 55006 $
KFBL 210034Z AUTO 00000KT 10SM CLR 28/22 A2999 RMK AO2
KFBR 210035Z AUTO 26015G24KT 10SM CLR 30/08 A3021 RMK AO2 LTG DSNT S T03020075
KFCH 210015Z AUTO 30010KT 10SM CLR 35/03 A2990 RMK A01
KFCI 202356Z AUTO 16003KT 10SM CLR 31/23 A2994 RMK AO2 SLP151 T03110233 10361 20311 55006
KFCM 202353Z 00000KT 10SM CLR 30/20 A2997 RMK AO2 SLP144 T03000200 10317 20267 58013
KFCS 202358Z AUTO 17004KT 10SM CLR 29/13 A3012 RMK AO2 LTG DSNT SW SLP134 T02930132 10327 20289 403330180 57016 $
KFDK 202348Z 24005KT 10SM SCT055 33/21 A2994
KFDR 202353Z AUTO 16009KT 10SM CLR 38/17 A2992 RMK AO2 SLP109 T03780167 10394 20361 56020
KFDW 210035Z AUTO 10SM CLR 28/22 A3000 RMK AO1
KFDY 202353Z AUTO 23006KT 10SM OVC070 27/21 A2997 RMK AO2 SLP138 T02720211 10311 20272 57002 TSNO
KFEP 210015Z AUTO 00000KT 10SM CLR 28/25 A2999 RMK AO2 LTG DSNT SW T02800245
KFET 210015Z AUTO 05007KT 10SM CLR 31/23 A2991 RMK AO2 T03110234
KFEW 202358Z AUTO 18005KT 10SM BKN100 28/08 A3017 RMK AO2 SLP133 T02780082 10315 20252 58009 $
KFFA 210025Z AUTO 00000KT 10SM CLR 28/23 A2997 RMK AO2 T02750225
KFFC 202353Z AUTO 00000KT 10SM CLR 28/24 A3004 RMK AO2 SLP165 T02780239 10344 20278 55001
KFFL 210035Z AUTO 04007G12KT 10SM BKN060 BKN075 32/26 A2991 RMK AO2 PWINO
KFFM 210034Z AUTO 16003KT 10SM CLR 27/21 A2993 RMK AO2
KFFO 202358Z 24004KT 10SM BKN090 29/25 A2999 RMK AO2A SLP152 60007 T02910249 10304 20242 57009
KFFT 202353Z AUTO 23006KT 10SM CLR 31/23 A3001 RMK AO2 SLP153 T03110228 10333 20306 58001
KFFX 210033Z AUTO 30004KT 10SM CLR 26/20 A2995 RMK AO2 T02570197
KFFZ 202147Z 28010KT 40SM SCT100 38/17 A2990
KFGN 210034Z AUTO 15004KT 10SM CLR 22/14 A2994 RMK AO2
KFGX 210015Z AUTO 23003KT 10SM SCT042 30/23 A3004 RMK AO2 T03040229
KFHB 210015Z AUTO 17005KT 10SM VCTS CLR 29/25 A3004 RMK AO1 LTG DSNT W
KFHR 202353Z AUTO 23009KT 10SM OVC075 19/12 A3013 RMK AO2 SLP203 T01940122 10228 20183 58004
KFHU 202358Z 28005KT 10SM VCSH OVC060 25/15 A3016 RMK AO2A SLP145 SH E AND S T02510154 10295 20241 55004
KFIG 202354Z AUTO 21006KT 10SM BKN100 23/22 A2999 RMK AO2 SLP147 60005 T02280217 10317 20222 51002
KFIN 210035Z AUTO 22003KT 10SM CLR 26/23 A3005 RMK AO2 LTG DSNT W T02600229
KFIT 202352Z AUTO 33005KT 10SM CLR 28/19 A2985 RMK AO2 SLP106 60000 T02830194 10328 20283 55005
KFKA 210032Z AUTO 03005KT 10SM CLR 26/21 A3001 RMK AO2 T02570214
KFKL 210035Z AUTO 28005KT 10SM SCT090 26/19 A3000 RMK AO1
KFKN 210015Z AUTO 17004KT 10SM CLR 28/23 A2995 RMK AO2
KFKR 210015Z AUTO 00000KT 10SM SCT055 SCT070 OVC100 30/27 A3000 RMK AO2 T03010269
KFKS 210015Z AUTO 00000KT 10SM CLR 23/21 A2995 RMK AO2 T02320207
KFLD 202353Z AUTO 32005KT 10SM CLR 28/19 A2996 RMK AO2 SLP140 T02780194 10306 20272 55001
KFLG 202357Z VRB06KT 10SM CLR 18/12 A3030 RMK AO2 SLP173 60013 T01830122 10233 20150 56017
KFLL 202353Z 00000KT 10SM FEW025 SCT050 OVC250 28/25 A3004 RMK SLP172 60023 T02780250 10322 58001
KFLO 202353Z AUTO 22004KT 10SM CLR 31/23 A2998 RMK AO2 SLP149 T03110233 10339 20311 55007
KFLP 210035Z 00000KT 10SM CLR 33/21 A3000 RMK AO1
KFLY 210035Z AUTO 17005KT 10SM 27/11 A3024 RMK AO2 LTG DSNT NE AND NW T02690109
KFME 210030Z AUTO 00000KT 10SM SCT070 28/23 A2993 RMK AO1
KFMH 210015Z AUTO 24010G15KT 9SM CLR 25/23 A2986 RMK AO2 FZRANO
KFMM 210035Z AUTO 08008KT 10SM CLR 32/08 A3002 RMK AO2 T03220084
KFMN 210000Z 21013KT 10SM SCT100 32/09 A3007 RMK AO2 WSHFT 2340 LTG DSNT N AND S T03220089
KFMY 210007Z 23005KT 10SM TS CLR 30/25 A3003 RMK AO2 LTG DSNT E AND SE TSB01 T03000250
KFNB 202353Z AUTO 13005KT 10SM CLR 33/25 A2991 RMK AO2 LTG DSNT W AND NW SLP116 T03280250 10361 20322 55009
KFNL 202356Z AUTO 22007KT 10SM FEW120 31/13 A3008 RMK AO2 LTG DSNT W SLP115 T03110133 10344 20278 56013
KFNT 202353Z 25006KT 10SM CLR 28/21 A2994 RMK AO2 SLP132 T02780206 10289 20261 55006
KFOA 210035Z AUTO 20007KT 10SM CLR 32/23 A2997 RMK AO2 T03230234
KFOD 210035Z AUTO 05005KT 10SM SCT120 28/23 A2998 RMK AO1
KFOE 202353Z 17007KT 10SM CLR 36/23 A2994 RMK AO2 SLP123 T03610228 10378 20361 56013
KFOK 202353Z 23007KT 9SM CLR 27/23 A2990 RMK AO2 SLP123 T02670228 10317 20267 55004
KFOT 210015Z AUTO 30014G19KT 10SM CLR 19/11 A3014 RMK AO1
KFOZ 210032Z AUTO 00000KT 10SM CLR 24/17 A2997 RMK AO2
KFPK 210035Z AUTO 00000KT 10SM SCT029 27/21 A2995 RMK AO2 T02660214
KFPR 202353Z 16004KT 9SM -RA FEW090 SCT110 27/25 A3005 RMK AO2 RAB41 SLP175 P0000 60000 T02670250 10328 20267 55004
KFQD 210025Z AUTO 00000KT 10SM CLR 29/23 A3002 RMK AO2 T02920230
KFRG 202353Z 26005KT 10SM CLR 28/23 A2989 RMK AO2 SLP120 T02780233 10333 20278 53002
KFRI 202358Z AUTO 18008KT 10SM CLR 38/19 A2989 RMK AO2 SLP107 T03780185 10396 20364 57016
KFRM 202356Z AUTO 08005KT 10SM CLR 27/23 A2999 RMK AO2 SLP152 T02720228 10294 20272 56010
KFRR 210035Z AUTO 33003KT 10SM BKN070 31/19 A2995 RMK AO1
KFSD 202356Z 12010KT 10SM FEW150 FEW250 30/22 A2995 RMK AO2 SLP130 60000 T03000217 10311 20283 56019
KFSE 210035Z AUTO 00000KT 10SM CLR 25/18 A2997 RMK AO2
KFSI 202355Z 16007KT 10SM FEW070 37/18 A2994 RMK AO2A SLPNO WND DATA/ALSTG ESTMD $
KFSM 202353Z 27006KT 10SM FEW060 36/22 A2998 RMK AO2 LTG DSNT E SLP146 T03610222 10367 20344 56013
KFSO 210015Z AUTO 12003KT 10SM CLR 20/20 A2983 RMK AO2 T02020195
KFST 202353Z AUTO 14016G21KT 10SM CLR 33/12 A3003 RMK AO2 SLP118 T03280122 10344 20317 56018
KFSW 210035Z AUTO 00000KT 10SM CLR 33/27 A2994 RMK AO2
KFTG 210035Z AUTO 24004KT 10SM CLR 32/06 A3010 RMK AO2 LTG DSNT SW
KFTK 202358Z 22004KT 10SM FEW180 BKN200 30/23 A3000 RMK AO2A SLP154 T03030230 10330 20303 56010
KFTN 210015Z AUTO 12011G21KT 10SM SCT095 38/14 A2991 RMK A01
KFTW 202353Z 16010KT 10SM CLR 37/19 A2996 RMK AO2 SLP132 T03670194 10378 20350 56017
KFTY 202353Z 32005KT 10SM CLR 31/22 A3003 RMK AO2 SLP156 60000 T03110222 10333 20311 55003
KFUL 202353Z 21009KT 10SM CLR 27/18 A2991 RMK AO2 SLP126 T02720178 10311 20272 56019
KFVE 202353Z AUTO 00000KT 10SM FEW080 SCT110 22/16 A2978 RMK AO2 SLP079 T02170156 10256 20217 57013
KFVX 210035Z AUTO 22003KT 10SM CLR 30/20 A2994 RMK AO2 T03000200
KFWA 202354Z 00000KT 10SM SCT035 BKN070 BKN250 29/24 A2997 RMK AO2 RAB2257E07 SLP141 P0000 60000 T02940239 10311 20239 56007
KFWB 210035Z AUTO 00000KT 10SM CLR 32/23 A3005 RMK AO2
KFWC 210035Z AUTO 00000KT 10SM CLR 31/24 A2996 RMK AO1 T03060239
KFWN 202353Z AUTO 23003KT 10SM -RA CLR 22/21 A2993 RMK AO2 SLP131 P0008 60009 T02170211 10322 20217 50012
KFWS 202350Z 15004KT 10SM FEW070 37/18 A2998
KFWZ 210035Z AUTO 31006KT 10SM VCTS SCT070 BKN100 OVC110 21/08 A3025 RMK AO2 LTG DSNT W THRU NE
KFXE 202353Z 00000KT 10SM SCT045 BKN100 28/24 A3004 RMK AO2 LTG DSNT NE-SE SLP176 60018 T02830239 10322 20256 56005
KFXY 210035Z AUTO 08004KT 10SM CLR 28/22 A2998 RMK AO2
KFYE 210015Z AUTO 00000KT 10SM 33/25 A3002 RMK A01
KFYG 202155Z AUTO 00000KT 10SM CLR 35/23 A2997 RMK AO2
KFYJ 210035Z AUTO 16004KT 10SM CLR 30/21 A2995 RMK AO2 T03040213
KFYM 210015Z AUTO 00000KT 10SM CLR 31/22 A3004 RMK A01
KFYV 202353Z 23005KT 10SM CLR 32/23 A3005 RMK AO2 SLP159 T03170233 10333 20317 56010
KFZG 210015Z AUTO 15005KT 10SM SCT060 SCT070 SCT120 28/23 A3006 RMK AO2 LTG DSNT SE T02760232
KFZY 202354Z AUTO 25003KT 10SM CLR 23/17 A2989 RMK AO2 SLP118 60005 T02280172 10250 20206 55002
KGAD 202356Z AUTO 00000KT 10SM CLR 27/26 A3004 RMK AO2 RAB2259E12 SLP183 P0000 60000 T02720256 10328 20272 56009
KGAF 210035Z AUTO 10006KT 7SM CLR 25/17 A2994 RMK AO2
KGAG 202353Z AUTO 18013G20KT 10SM CLR 38/13 A2995 RMK AO2 SLP108 T03780128 10394 20372 56020
KGAI 202356Z AUTO 30004KT 10SM BKN065 BKN080 31/22 A2994 RMK AO2 SLP156 6//// T03060222 10344 20306 55006
KGAO 210015Z AUTO 15003KT 10SM CLR 30/24 A3001 RMK AO2 LTG DSNT W T02950240
KGBG 210035Z AUTO 00000KT 10SM SCT049 30/27 A2994 RMK AO2 LTG DSNT W T02950268
KGCC 202353Z AUTO 18009G16KT 10SM SCT120 35/06 A2989 RMK AO2 LTG DSNT N SLP059 T03500061 10378 20344 56024
KGCD 210035Z AUTO 28005G14KT 10SM CLR 30/M02 A3005 RMK AO2 T02961025
KGCK 202354Z 18015KT 10SM CLR 36/14 A2993 RMK AO2 SLP094 T03560144 10372 20356 56021
KGCM 210035Z AUTO 16007KT 10SM CLR 32/22 A3000 RMK AO2
KGCN 202354Z 22014G23KT 10SM FEW120 21/14 A3029 RMK AO2 SLP172 T02060139 10289 20206 55005
KGDB 210031Z AUTO 07004KT 10SM CLR 29/21 A2995 RMK AO2 T02900212
KGDJ 210035Z AUTO 11008KT 10SM CLR 37/18 A2998 RMK AO2 T03650176
KGDP 202351Z AUTO VRB05KT 10SM CLR 28/15 A3020 RMK AO2 SLP144 60098 T02780150 10289 20200 56019
KGDV 210008Z AUTO 04019G24KT 10SM CLR 33/17 A2975 RMK AO2 PK WND 04026/0004 WSHFT 2343 $
KGED 202354Z AUTO 23005KT 10SM CLR 31/23 A2992 RMK AO2 SLP131 T03060228 10356 20306 56003
KGEG 202353Z 23017G21KT 10SM FEW085 FEW120 FEW160 BKN280 26/05 A3001 RMK AO2 PK WND 22026/2330 SLP146 60000 T02560050 10261 20228 58007
KGEU 202348Z 19004KT 10SM FEW080 SCT150 SCT200 40/16 A2983
KGEV 210030Z AUTO 27006KT 10SM CLR 25/18 A3016 RMK AO2 T02520176
KGEY 210002Z AUTO 34012KT 9SM -RA SCT085 OVC110 24/13 A3004 RMK AO2 P0000 T02390133 $
KGEZ 202353Z AUTO 22004KT 10SM CLR 30/24 A2998 RMK AO2 SLP145 T03000244 10322 20283 55006
KGFA 202358Z AUTO 28019G30KT 10SM CLR 33/M04 A2982 RMK AO2 PK WND 27030/50 SLP071 T03331041 10353 20289 56009 $
KGFK 202353Z 00000KT 10SM FEW120 BKN250 28/18 A2993 RMK AO2 SLP134 T02830178 10300 20267 56009
KGFL 202353Z AUTO 00000KT 10SM OVC100 26/17 A2986 RMK AO2 SLP107 T02560172 10300 20256 50007
KGGE 210035Z AUTO 20004KT 10SM CLR 26/26 A3003 RMK AO2
KGGG 202353Z 14003KT 10SM FEW044 34/22 A2999 RMK AO2 SLP149 T03440222 10361 20333 56015
KGGI 210035Z AUTO 04009KT 10SM CLR 30/26 A2994 RMK AO2 T02950255
KGGP 210035Z AUTO 00000KT 10SM OVC035 27/24 A2997 RMK AO2
KGGW 202353Z AUTO 08022G30KT 10SM CLR 33/08 A2977 RMK AO2 PK WND 08031/2325 SLP069 6//// T03280078 10361 20328
KGHB 210015Z AUTO 00000KT 10SM CLR 30/25 A3005 RMK A01
KGHG 210035Z AUTO VRB04KT 10SM CLR 27/20 A2982 RMK AO2
KGHW 210034Z AUTO 16003KT 10SM CLR 27/21 A2997 RMK AO2
KGIC 210035Z AUTO 35011KT 10SM CLR 26/07 A3003 RMK AO1
KGIF 210019Z AUTO 00000KT 10SM CLR 25/22 A3006 RMK AO2 T02500222
KGJT 210006Z 18007KT 10SM -RA FEW050 OVC110 28/12 A3007 RMK AO2 LTG DSNT NE P0000 T02830117
KGKJ 202353Z AUTO 28005KT 10SM SCT075 BKN095 26/20 A2999 RMK AO2 SLP144 60000 T02610200 10294 20261 53002 TSNO
KGKT 210035Z AUTO 00000KT 10SM CLR 28/19 A3003 RMK
KGKY 202353Z 14007KT 10SM CLR 36/20 A2997 RMK AO2 SLP137 T03560200 10372 20344 57016 $
KGLD 202353Z AUTO 17008KT 10SM CLR 34/17 A2994 RMK AO2 SLP087 T03440167 10356 20328 57022
KGLE 210035Z AUTO 12009KT 10SM CLR 34/17 A2999 RMK AO2 T03370173
KGLH 202353Z AUTO 00000KT 10SM CLR 34/24 A3000 RMK AO2 SLP163 T03440239 10356 20333 56013
KGLR 202353Z AUTO 30004KT 10SM CLR 26/14 A2995 RMK AO2 SLP136 T02610144 10283 20261 53003
KGLS 202352Z AUTO 18011KT 10SM CLR 31/26 A3002 RMK AO2 SLP166 T03110256 10339 20311 56013
KGLW 210010Z AUTO 00000KT 10SM CLR 31/22 A3003 RMK AO2 T03060220
KGLY 210035Z AUTO 21003KT 9SM CLR 33/25 A2998 RMK AO2
KGMJ 210035Z AUTO 19005KT 10SM CLR 33/23 A3002 RMK AO2
KGMU 202353Z 01004KT 10SM CLR 33/18 A3002 RMK AO2 SLP152 T03330178 10356 20333 55005
KGNA 202356Z AUTO 25004KT 16/13 A2990 RMK AO1 SLP123 T01560133 10183 20150 58006
KGNB 210040Z AUTO 00000KT 10SM -RA SCT075 SCT095 BKN120 18/11 A3039 RMK AO2 LTG DSNT N AND NW T01800105
KGNC 210015Z AUTO 16009KT 10SM CLR 34/11 A3005 RMK AO2 T03400106
KGNR 202356Z AUTO 00000KT 22/17 A2982 RMK AO1 SLP092 T02170172 10272 20217 56008
KGNT 210035Z AUTO 24008KT 10SM CLR 25/09 A3024 RMK AO2 T02450090
KGNV 210014Z 01009KT 1SM +TSRA BR FEW007 BKN015 OVC028 23/22 A3014 RMK AO2 LTG DSNT ALQDS PRESRR P0111 T02280222
KGOK 202353Z AUTO 17009KT 10SM BKN100 36/19 A2994 RMK AO2 SLP125 T03610189 10394 20361 56015
KGON 202356Z 23009KT 7SM CLR 26/22 A2985 RMK AO2 SLP108 T02560217 10294 20239 55005
KGOV 210035Z AUTO 27003KT 10SM CLR 24/16 A2996 RMK AO2 T02410162
KGPC 210035Z AUTO 00000KT 10SM CLR 28/25 A2999 RMK AO2
KGPH 210035Z AUTO 19005KT 10SM CLR 33/23 A2994 RMK AO2
KGPI 202355Z 27013KT 6SM HZ CLR 29/05 A2991 RMK AO2 PK WND 27026/2304 SLP113 T02940050 10311 20267 55003
KGPM 202350Z 14007KT 10SM SKC 36/17 A2998
KGPT 202353Z 26004KT 10SM FEW060 28/26 A3000 RMK AO2 TSE2254 SLP158 60000 T02830256 10350 20283 55005
KGPZ 202356Z AUTO 00000KT 10SM CLR 27/17 A2998 RMK AO2 SLP148 T02720167 10278 20261 56014
KGRB 202353Z AUTO 28003KT 10SM CLR 29/21 A2994 RMK AO2 SLP133 T02940211 10306 20278 55000
KGRD 202356Z AUTO 11010G18KT 4SM +RA OVC070 27/22 A3001 RMK AO2 RAB20 SLP153 P0003 60003 T02670217 10350 20267 55003
KGRF 202358Z AUTO 19009KT 10SM SCT045 BKN070 22/14 A3013 RMK AO2 SLP206 T02150135 10223 20181 58006 $
KGRI 202353Z 10008KT 10SM CLR 32/26 A2992 RMK AO2 SLP115 T03170256 10328 20300 56022
KGRK 202358Z AUTO 14011KT 10SM CLR 36/16 A2997 RMK AO2 SLP136 T03610163 10379 20346 57021
KGRN 210015Z AUTO 16011G14KT 10SM CLR 32/17 A2996 RMK AO2 T03150167
KGRR 202353Z 20008KT 10SM SCT037 SCT220 28/21 A2995 RMK AO2 SLP135 T02780211 10300 20272 55003
KGRY 210015Z AUTO 00000KT 10SM CLR 29/24 A3005 RMK A01
KGSB 202358Z AUTO 17003KT 10SM CLR 30/24 A2995 RMK AO2 SLP144 T03030238 10349 20302 55010 $
KGSH 202353Z AUTO 30006KT 10SM FEW036 BKN050 29/22 A2996 RMK AO2 SLP139 T02890222 10306 20272 55005
KGSO 202354Z 21006KT 10SM SCT065 OVC250 32/21 A2999 RMK AO2 SLP141 T03220206 10356 20322 55008
KGSP 202353Z 05003KT 10SM CLR 31/19 A3000 RMK AO2 SLP144 T03110194 10350 20311 55006
KGTB 202358Z COR 26003KT 10SM CLR 22/15 A2988 RMK AO2 SLP115 60000 T02240152 10249 20206 55003 COR 0024
KGTF 202353Z 27019G30KT 10SM CLR 33/M08 A2983 RMK AO2 PK WND 29033/2334 SLP066 T03281078 10361 20294 56012
KGTR 202350Z 01004KT 10SM SKC 36/24 A2998
KGTU 201950Z 18012G16KT 10SM SCT050 36/19 A3005
KGUC 202356Z AUTO 20004KT 10SM CLR 22/08 A3031 RMK AO2 SLP182 60000 T02170083 10289 20211 58010
KGUL 210015Z AUTO 09003KT 10SM 29/24 A3006 RMK A01
KGUP 202353Z AUTO 24015G18KT 10SM SCT120 23/13 A3023 RMK AO2 LTG DSNT SE SLP086 60007 T02280133 10272 20167 56020
KGUS 202358Z AUTO 28003KT 10SM SCT041 BKN065 29/25 A2996 RMK AO2 CIG 050 RWY05 SLP142 T02890248 10312 20277 58002
KGUY 202353Z AUTO 19014G18KT 10SM CLR 37/10 A2996 RMK AO2 SLP088 T03720100 10389 20361 58018
KGVE 210015Z AUTO 00000KT 10SM CLR 30/21 A2993 RMK AO1 T02960214
KGVL 202353Z AUTO 30005KT 10SM CLR 31/19 A3006 RMK AO2 SLP161 T03060194 10339 20306 55004
KGVT 210015Z AUTO 16005KT 10SM CLR 35/20 A3000 RMK AO2
KGWB 210015Z AUTO 00000KT 10SM SCT044 27/22 A2998 RMK AO2
KGWO 202353Z AUTO 00000KT 10SM CLR 32/24 A3001 RMK AO2 SLP159 T03220244 10361 20322 56012
KGWR 210035Z AUTO 13004KT 10SM CLR 27/22 A2991 RMK A01
KGWW 210040Z AUTO 00000KT 10SM CLR 27/25 A2997 RMK AO2 T02650254
KGXA 202355Z AUTO 27013G21KT 10SM CLR 35/M03 A2996 RMK AO2 SLP070 WND DATA ESTMD T03451032 10322 20187 403650187 57018
KGXF 202358Z 27008KT 10SM FEW100 FEW150 FEW250 40/15 A2980 RMK AO2A LTG DSNT SE-S SLPNO T03960149 10398 20349 57028
KGXY 202356Z AUTO 29004KT 10SM CLR 32/12 A3004 RMK AO2 LTG DSNT NE SLP122 T03220117 10356 20278 56018
KGYB 210035Z AUTO 13004KT 10SM SCT075 SCT110 35/18 A2998 RMK AO2 T03460184
KGYH 202347Z 00000KT 10SM CLR 32/19 A3001
KGYI 210015Z AUTO 14007KT 10SM CLR 35/20 A2999 RMK AO2 T03450196
KGYL 210036Z AUTO 12004KT 10SM CLR 29/24 A2997 RMK AO2 T02880236
KGYR 202347Z 22006KT 10SM FEW080 FEW150 SCT250 39/17 A2982
KGYY 202345Z 08005KT 10SM BKN060 27/21 A2996
KGZH 202353Z AUTO 00000KT 10SM CLR 29/26 A3002 RMK AO2 SLP162 T02940256 10356 20294 53001
KGZL 210015Z AUTO 20005KT 10SM 35/15 A3000 RMK AO2
KGZN 210000Z AUTO 13009KT 10SM CLR 35/18 A3000 RMK AO2
KGZS 210015Z AUTO 33003KT 10SM CLR 32/24 A3003 RMK A01
KHAE 210015Z AUTO 22006KT 10SM CLR 35/20 A2995 RMK AO2 LTG DSNT N
KHAF 210035Z AUTO 32010G14KT 7SM BKN012 15/12 A3003 RMK AO2
KHAI 210035Z AUTO 33003KT 10SM CLR 27/21 A2996 RMK AO2 T02660207
KHAO 202353Z AUTO 26007KT 9SM CLR 31/23 A2999 RMK AO2 SLP151 60003 T03060233 10322 20267 56008
KHBE 210015Z AUTO 00000KT 7SM CLR 29/24 A2999 RMK AO2
KHBG 202353Z AUTO 03003KT 10SM CLR 34/22 A3001 RMK AO2 SLP158 T03390222 10356 20339 56012
KHBI 210030Z AUTO 00000KT 10SM CLR 29/25 A3001 RMK AO2 T02900246
KHBR 202353Z AUTO 22009G18KT 10SM CLR 38/15 A2996 RMK AO2 SLP123 T03780150 10400 20367 56018
KHBV 210015Z AUTO 16013G18KT 10SM CLR 36/17 A2996 RMK AO2 T03550166
KHCD 210034Z AUTO 11004KT 10SM CLR 28/22 A2998 RMK AO2 T02760223
KHCO 210034Z AUTO 00000KT 10SM CLR 24/19 A2993 RMK AO2
KHDC 210015Z AUTO 00000KT 10SM CLR 33/21 A3000 RMK AO2 LTG DSNT SW
KHDE 210015Z AUTO 09008KT 10SM CLR 31/25 A2990 RMK AO2 T03110249
KHDN 210035Z AUTO 21007KT 10SM CLR 28/05 A3019 RMK AO1
KHDO 202351Z AUTO 13007KT 10SM CLR 37/17 A2996 RMK AO2 SLP126 T03720167 10394 20350 56022 $
KHEF 202356Z AUTO 19004KT 10SM CLR 32/23 A2990 RMK AO2 SLP133 6//// T03170228 10356 20317 56008 PNO $
KHEI 210032Z AUTO 32007KT 2SM TSRA SCT025 BKN075 OVC090 19/16 A2993 RMK AO2 PK WND 31047/2355 WSHFT 2340 LTG DSNT ALQDS RAB2356 TSB2354 P0036 T01940161
KHEQ 210035Z AUTO 08004KT 10SM CLR 35/16 A2997 RMK AO2
KHEY 202358Z AUTO 00000KT 10SM FEW055 31/24 A3000 RMK AO2 SLP158 T03100239 10349 20310 53000
KHFD 202353Z 00000KT 10SM FEW060 26/21 A2983 RMK AO2 RAE13 SLP099 P0000 60000 T02610211 10339 20256 56006
KHFF 210031Z AUTO 26003KT 10SM FEW120 27/24 A2999 RMK AO2 SHRAE03 SLP168 $
KHFJ 210010Z AUTO 21003KT 10SM CLR 32/22 A3003 RMK AO2
KHFY 210035Z AUTO 23004KT 10SM CLR 29/24 A2999 RMK AO2 T02900235
KHGR 202353Z 30005KT 10SM CLR 31/20 A2994 RMK AO2 SLP139 T03060200 10350 20306 55002
KHHF 210015Z AUTO 19008KT 10SM SCT100 37/13 A2995 RMK AO2 T03720131
KHHG 210015Z AUTO 25005KT 10SM SCT043 SCT055 SCT065 28/24 A2997 RMK AO2 T02840240
KHHR 202353Z 25012KT 10SM CLR 25/18 A2993 RMK AO2 SLP134 T02500183 10272 20244 57018
KHHV 210015Z AUTO VRB06KT 10SM FEW032 SCT042 31/23 A3005 RMK A01
KHHW 210015Z AUTO 15004KT 10SM CLR 34/21 A3000 RMK AO2 T03440212
KHIB 202353Z AUTO 27004KT 10SM CLR 26/15 A2996 RMK AO2 SLP144 T02610150 10272 20256 56014
KHIE 202352Z AUTO 00000KT 10SM FEW050 24/15 A2985 RMK AO2 RAB10E20 SLP105 P0000 60000 T02390150 10283 20233 56005
KHIF 202358Z AUTO 14013KT 10SM CLR 32/11 A3002 RMK AO2 SLP097 T03230113 10334 20307 57018
KHII 210015Z AUTO 17010G16KT 10SM CLR 42/12 A2978 RMK AO2
KHIO 202353Z 03008KT 10SM OVC047 22/13 A3012 RMK AO2 SLP199 T02220128 10233 20189 57013
KHJH 210015Z AUTO 13004KT 10SM CLR 35/23 A2988 RMK AO2 T03460229
KHJO 202353Z AUTO 31007KT 10SM SCT120 36/03 A2990 RMK AO2 SLP126 T03610033 10361 20289 58022
KHKA 202353Z AUTO 12004KT 10SM FEW050 32/25 A3001 RMK AO2 SLP160 T03220250 10350 20322 56009
KHKS 202353Z 00000KT 10SM CLR 34/23 A3002 RMK AO2 SLP156 T03440228 10361 20333 56014
KHKY 202353Z 25004KT 10SM CLR 31/18 A3001 RMK AO2 SLP138 T03110183 10344 20311 55008
KHLC 202353Z AUTO 19010KT 10SM CLR 39/14 A2988 RMK AO2 SLP084 T03890139 10406 20372 58019
KHLG 202353Z 20005KT 10SM FEW035 23/21 A3001 RMK AO2 SLP157 60024 T02330211 10311 20228 55005
KHLN 202353Z 30014G22KT 10SM CLR 34/02 A2987 RMK AO2 PK WND 27026/2331 SLP088 T03390017 10367 20300 53002
KHLR 202358Z AUTO 15008KT 10SM SCT085 37/17 A2995 RMK AO2 SLP129 T03650171 10377 20346 57020
KHLX 210015Z AUTO 00000KT 10SM CLR 27/16 A3011 RMK AO2 T02700157
KHMN 202358Z 17006KT 10SM CLR 27/18 A3011 RMK AO2A PK WND 19042/05 LTG DSNT NE-E DZB27E30RAB30E40 TSE27 SLP130 P0000 60000 T02710175 10342 20270 55015 $
KHMP 210015Z AUTO 00000KT 10SM SCT028 SCT044 BKN120 29/23 A3004 RMK AO2 T02850230
KHMZ 210015Z AUTO 27004KT 10SM CLR 27/20 A2999 RMK AO2 T02700195
KHNB 202356Z AUTO 20004KT 10SM CLR 30/25 A3000 RMK AO2 SLP153 T03000250 10333 20300 55012
KHND 202356Z 22009KT 10SM CLR A2991 RMK AO2 SLPNO 6//// $
KHNR 210035Z AUTO 00000KT 10SM SCT110 29/27 A2997 RMK AO2
KHNZ 210030Z AUTO 00000KT 10SM CLR 27/22 A2997 RMK AO2 T02680215
KHOB 210035Z AUTO 14014KT 10SM FEW090 33/10 A3006 RMK AO2
KHOE 210015Z AUTO 16007KT 10SM VCTS CLR 23/22 A3006 RMK AO2 LTG DSNT SE
KHON 202355Z AUTO 12011KT 10SM CLR 31/21 A2988 RMK AO2 SLP107 T03110211 10328 20289 58031
KHOP 202358Z AUTO 23005KT 10SM CLR 31/24 A3002 RMK AO2 SLP161 T03070239 10334 20307 55014
KHOT 202353Z AUTO 20005KT 10SM FEW046 34/24 A3001 RMK AO2 SLP154 T03390239 10361 20339 56013
KHOU 202353Z 17009KT 10SM FEW060 SCT250 32/24 A3000 RMK AO2 LTG DSNT SW AND W SLP163 CB DSNT SW W T03220239 10367 20322 55010
KHPN 202356Z 26004KT 10SM FEW025 SCT060 29/19 A2989 RMK A02 SLP114
KHQG 210015Z AUTO 18011KT 10SM CLR 36/11 A2996 RMK AO2 T03590113
KHQI 210015Z AUTO 10SM CLR 30/25 A3004 RMK A01
KHQM 202353Z AUTO 23010KT 7SM CLR 19/13 A3017 RMK AO2 SLP220 T01890128 10194 20161 58003
KHQU 210015Z AUTO 26003KT 10SM CLR 31/24 A3004 RMK AO2 T03070244
KHQZ 202350Z 11006KT 10SM SCT050 34/21 A2999
KHRI 202353Z AUTO 26017G22KT 10SM CLR 29/03 A2998 RMK AO2 SLP147 T02890033 10306 20244 58017
KHRJ 210025Z AUTO 00000KT 10SM CLR 30/23 A2998 RMK AO2 T02980225
KHRL 202352Z 13016KT 10SM CLR 34/22 A2996 RMK AO2 SLP144 T03390217 10383 20339 56014
KHRO 202353Z AUTO 18003KT 10SM CLR 32/23 A3006 RMK AO2 SLP160 T03170228 10344 20317 56010
KHRT 202354Z 11005KT 10SM SCT140 30/23 A3001 RMK LTG DSNT N SLP164 60005 T02970234 10328 20257 55007 $
KHRX 210015Z AUTO 18013G17KT 10SM CLR 35/10 A3006 RMK AO2 T03490100
KHSA 202355Z 21004KT 7SM SCT050 32/26 A3000
KHSB 210015Z AUTO 21003KT 10SM CLR 31/26 A2999 RMK AO2 T03110255
KHSD 210015Z AUTO 18012KT 10SM CLR 37/16 A2995 RMK A01
KHSE 202351Z AUTO 22005KT 10SM CLR 28/23 A2999 RMK AO2 SLP155 T02780228 10311 20278 56009 TSNO
KHSG 210010Z AUTO 29018G34KT 5SM -RA OVC100 18/14 A3009 RMK AO2 LTG DSNT ALQS T01800139
KHSI 202353Z AUTO 11012KT 10SM CLR 33/23 A2992 RMK AO2 SLP109 T03280233 10344 20306 58019
KHSP 210010Z AUTO 29008KT 10SM CLR 23/13 A3019 RMK AO2
KHST 210028Z AUTO 00000KT 10SM CLR 28/26 A3005 RMK AO2 LTG DSNT NE AND NW RAB20 SLP179
KHSV 202353Z 34006KT 10SM FEW060 BKN250 34/23 A3003 RMK AO2 SLP158 T03390228 10367 20333 56012 $
KHTL 202353Z AUTO 35008KT 10SM CLR 27/17 A2995 RMK AO2 SLP136 T02720167 10300 20272 53004
KHTO 210015Z AUTO 22007KT 10SM CLR 26/23 A2986 RMK AO2 T02600230
KHTS 202351Z 23003KT 10SM CLR 29/23 A3002 RMK AO2 SLP155 T02940228 10328 20294 56004
KHUA 202358Z AUTO 35005KT 9SM FEW050 32/23 A3002 RMK AO2 SLP159 T03160230 10353 20316 56011
KHUF 202353Z 23005KT 10SM CLR 32/24 A2997 RMK AO2 SLP141 T03170244 10339 20300 56007
KHUL 202353Z AUTO 00000KT 10SM SCT075 23/19 A2976 RMK AO2 SLP076 T02280194 10300 20228 55009 TSNO
KHUM 202347Z 20003KT 7SM SCT050 28/24 A3001
KHUT 202352Z 19012KT 10SM CLR 38/16 A2991 RMK AO2 SLP098 T03830156 10406 20372 56019
KHVE 210015Z AUTO 32005G16KT 10SM CLR 36/05 A3001 RMK AO2
KHVN 202353Z 21009KT 8SM FEW110 27/23 A2984 RMK AO2 SLP104 T02720233 10322 20272 58010
KHVR 202353Z AUTO 25007KT 10SM CLR 35/M02 A2974 RMK AO2 SLP050 T03501017 10367 20333 56021
KHVS 210035Z AUTO 19003KT 10SM CLR 26/23 A2999 RMK AO2
KHWD 202354Z 25009KT 10SM CLR 21/11 A3002 RMK AO2 SLP175 T02060111 10217 20178 58014
KHWO 202353Z 00000KT 10SM CLR 30/23 A3006 RMK AO2 LTG DSNT NE AND E SLP179 60000 T03000228 10344 20294 58002
KHWV 202356Z AUTO 22006KT 9SM CLR 28/25 A2988 RMK AO2 SLP117 T02780250 10328 20278 55005
KHWY 210015Z AUTO 00000KT 10SM CLR 29/21 A2991 RMK AO2 T02930209
KHXD 210035Z AUTO VRB05KT 10SM CLR 28/24 A3003 RMK AO2
KHYA 202356Z 23014KT 8SM CLR 26/23 A2984 RMK AO2 SLP105 T02610228 10311 20261 56006
KHYI 210035Z AUTO 16011KT 10SM CLR 35/17 A2998 RMK AO1
KHYR 202353Z AUTO 24006KT 10SM CLR 28/16 A2999 RMK AO2 SLP151 T02780156 10294 20272 58006
KHYS 202356Z AUTO 19014KT 10SM CLR 38/14 A2988 RMK AO2 SLP094 T03830144 10400 20378 56022
KHYW 210035Z AUTO 18005KT 7SM CLR 27/23 A3001 RMK AO2
KHYX 210035Z AUTO 21006KT 10SM CLR 27/21 A2992 RMK AO2
KHZD 210015Z AUTO 20003KT 10SM CLR 32/25 A3002 RMK A01
KHZE 210035Z AUTO 13015KT 10SM VCTS FEW044 SCT075 BKN100 26/16 A2982 RMK AO2 LTG DSNT SE-SW
KHZL 210015Z AUTO 00000KT 10SM 21/20 A3001 RMK AO2
KHZR 210015Z AUTO 00000KT 10SM CLR 32/24 A3000 RMK AO2 LTG DSNT S T03210242
KHZX 210032Z AUTO 21004KT 10SM CLR 27/17 A2997 RMK AO2
KHZY 202353Z AUTO 27006KT 10SM CLR 27/21 A2997 RMK AO2 SLP140 T02720206 10300 20272 56003 TSNO
KI16 210015Z AUTO 10SM CLR 25/22 A3013 RMK AO2 T02500218
KI19 210028Z AUTO 00000KT 10SM SCT065 OVC080 28/24 A3002 RMK AO2 T02820235
KI23 210033Z AUTO 00000KT 10SM SCT070 SCT110 26/25 A3001 RMK AO1
KI35 210015Z AUTO 00000KT 7SM CLR 26/20 A3008 RMK AO1
KI63 210015Z AUTO 22007KT 10SM CLR 33/25 A2994 RMK AO2 LTG DSNT NW T03310247
KI67 210035Z AUTO 00000KT 10SM CLR 30/21 A2998 RMK AO1
KI68 210035Z AUTO 25004KT 10SM SCT075 SCT085 28/23 A3000 RMK AO2
KI69 210036Z AUTO 23003KT 10SM SCT080 30/23 A3002 RMK AO2 T02980234
KI75 210015Z AUTO 21006KT 10SM CLR 33/25 A2993 RMK AO2 T03310248
KIAB 210023Z 17011KT 10SM CLR 36/18 A2993 RMK SLP120
KIAD 202352Z 22003KT 10SM SCT070 BKN140 BKN250 31/21 A2991 RMK AO2 SLP124 T03110211 10339 20311 56007
KIAG 202353Z 23008KT 9SM CLR 24/19 A2991 RMK AO2 SLP123 60000 T02440194 10250 20178 55001
KIAH 202353Z 17007KT 10SM SCT055 SCT250 34/23 A2999 RMK AO2 LTG DSNT SW SLP155 CB DSNT SW T03390228 10361 20339 56013
KIBM 210015Z AUTO 10004KT 10SM SCT080 31/13 A3007 RMK AO2 T03100131
KICL 210035Z AUTO 18004KT 10SM CLR 32/28 A2992 RMK AO2 PWINO
KICR 202353Z AUTO 14018G23KT 10SM CLR 35/17 A2989 RMK AO2 SLP097 T03500167 10372 20333 58027
KICT 202353Z 14011KT 10SM FEW095 37/18 A2992 RMK AO2 SLP111 T03670183 10394 20367 56016
KIDA 202353Z 18014KT 10SM CLR 31/06 A3001 RMK AO2 SLP115 FU ALQDS 60001 T03110056 10311 20228 58020
KIDI 210035Z AUTO 24005KT 7SM SCT041 BKN055 OVC085 22/22 A3005 RMK A01
KIDP 210015Z AUTO 15011KT 10SM CLR 34/23 A2996 RMK AO2 T03390228
KIEN 202352Z AUTO 14011KT 10SM CLR 33/17 A2994 RMK AO2 SLP099 T03280172 10339 20306 56028
KIER 210015Z AUTO 00000KT 10SM CLR 33/24 A3000 RMK AO2 T03310241
KIFA 210035Z AUTO 05009KT 10SM CLR 29/24 A2997 RMK AO2 T02910243
KIFP 210015Z 18007KT 10SM CLR 42/12 A2976 RMK AO2
KIGM 202351Z AUTO 12019G27KT 080V150 10SM SCT090 33/15 A3002 RMK AO2 PK WND 12027/2350 SLP089 T03330150 10356 20306 58020
KIGQ 210035Z AUTO 07004KT 10SM OVC050 27/21 A2996 RMK AO2 T02670205
KIGX 202356Z AUTO 00000KT 10SM CLR 29/23 A2998 RMK AO2 SLP144 T02890228 10350 20289 55009
KIIB 210035Z AUTO 05007KT 10SM CLR 28/24 A2997 RMK AO2 T02750237
KIIY 210015Z AUTO 26003KT 10SM CLR 32/23 A3000 RMK AO2
KIJD 202352Z AUTO 00000KT 6SM BR CLR 24/23 A2986 RMK AO2 RAE17 SLP109 P0003 60004 T02440228 10333 20239 54000
KIJX 210015Z AUTO 22005KT 10SM CLR 33/25 A2994 RMK AO2 LTG DSNT NW T03270248
KIKG 210015Z AUTO 10015G20KT 10SM CLR 34/25 A2997 RMK AO2 T03350247
KIKK 210015Z AUTO 01004KT 10SM SCT039 BKN047 29/25 A2995 RMK AO2 T02870247
KIKT 210015Z AUTO VRB04KT 10SM CLR 29/24 A3004 RMK A01
KIKV 210035Z AUTO 05004KT 10SM FEW060 32/27 A2992 RMK AO2
KIKW 210034Z AUTO 23003KT 10SM SCT049 SCT060 28/21 A2991 RMK AO2 T02810205
KILE 202356Z AUTO 15011KT 10SM CLR 37/19 A2997 RMK AO2 SLP148 6//// T03670189 10383 20344 56021 PNO $
KILG 202351Z 25005KT 10SM CLR 32/23 A2990 RMK AO2 SLP125 T03170228 10339 20317 55002
KILM 202353Z 20007KT 10SM CLR 28/23 A2999 RMK AO2 SLP155 T02830228 10317 20283 55005
KILN 202354Z AUTO 22003KT 7SM FEW070 28/26 A3001 RMK AO2 SLP148 60013 T02830256 10300 20217 57006
KIML 202353Z AUTO 33006KT 10SM CLR 37/16 A2990 RMK AO2 SLP081 T03670161 10383 20333 56023
KIMM 210015Z AUTO 02006G11KT 3SM TS FEW003 BKN025 OVC050 25/23 A3007 RMK AO2
KIMS 210033Z AUTO 24003KT 10SM CLR 29/21 A3003 RMK AO1
KIMT 202354Z AUTO 34008KT 10SM CLR 28/14 A2993 RMK AO2 SLP131 T02830144 10311 20283 55000
KIND 202354Z 21007KT 10SM FEW034 SCT160 BKN250 30/24 A2997 RMK AO2 SLP141 T03000244 10322 20283 56008 $
KINF 210035Z AUTO 20004KT 10SM TSRA SCT037 BKN055 OVC110 23/23 A3007 RMK AO2 LTG DSNT ALQS P0002
KINJ 210035Z AUTO 09006KT 10SM CLR 35/21 A2998 RMK AO2 T03510214
KINK 202353Z AUTO 15015G20KT 10SM CLR 36/11 A2999 RMK AO2 SLP105 T03560111 10367 20333 56022
KINL 202355Z AUTO 31005KT 10SM CLR 23/13 A2996 RMK AO2 SLP143 T02330128 10261 20233 58005
KINS 202358Z AUTO 10013KT 10SM CLR 36/05 A2992 RMK AO2 SLP077 T03610053 10365 20311 57027 $
KINT 202354Z 23003KT 10SM CLR 33/18 A3000 RMK AO2 SLP145 T03280178 10350 20328 55008
KINW 202356Z AUTO 27017KT 10SM CLR 32/11 A3008 RMK AO2 LTG DSNT N-E SLP106 T03170111 10350 20289 56017
KIOB 210035Z AUTO 22004KT 10SM CLR 28/23 A3005 RMK AO2
KIOW 202352Z AUTO 36007KT 10SM CLR 34/25 A2993 RMK AO2 SLP128 T03390250 10350 20317 55008
KIPJ 210055Z AUTO 00000KT 10SM CLR 29/21 A3001 RMK AO2 T02870213
KIPL 202353Z AUTO 16004KT 10SM OVC100 42/17 A2973 RMK AO2 SLP067 T04170167 10422 20367 56032
KIPT 202354Z 32003KT 10SM CLR 27/21 A2991 RMK AO2 SLP125 T02670206 10339 20261 52013
KIRK 202355Z AUTO 23006KT 10SM CLR 33/26 A2996 RMK AO2 SLP138 T03330256 10350 20333 56011
KIRS 210034Z AUTO 00000KT 10SM BKN065 27/22 A2996 RMK AO2 T02670223
KISM 210014Z 01004KT 10SM -RA FEW048 OVC110 23/23 A3004 RMK AO2 LTG DSNT W TSE08 P0000
KISN 202352Z AUTO 06022G32KT 10SM CLR 31/09 A2982 RMK AO2 PK WND 04033/2332 SLPNO 60009 T03060089 10339 20233 57013
KISO 202356Z 16005KT 10SM CLR 31/23 A2998 RMK AO2
KISP 202356Z 23006KT 10SM FEW070 BKN160 OVC250 27/24 A2987 RMK AO2 SLP114 T02720244 10333 20272 55004
KISQ 210035Z AUTO 31004KT 10SM CLR 24/16 A2993 RMK AO2 T02360158
KISW 202354Z AUTO 33005KT 10SM CLR 28/19 A2999 RMK AO2 SLP150 T02830194 10311 20272 56002
KITH 202356Z 19004KT 10SM SCT025 BKN035 22/21 A2994 RMK AO2 SLP130 6//// T02220211 10261 20200 55009
KITR 202353Z AUTO 12008KT 10SM CLR 34/16 A3000 RMK AO2 SLP092 T03440161 10356 20311 56018
KIWA 202347Z 29006G15KT 20SM SCT150 38/16 A2985
KIWD 202356Z AUTO 26007KT 10SM CLR 26/17 A2997 RMK AO2 SLP145 T02610172 10272 20250 56008
KIWI 202353Z AUTO 22004KT 10SM FEW110 24/18 A2983 RMK AO2 SLP100 T02390183 10300 20239 55003
KIXA 210035Z AUTO 17004KT 10SM CLR 28/22 A2996 RMK AO2
KIXD 202353Z 16010KT 10SM CLR 34/24 A2996 RMK AO2 SLP131 T03440239 10361 20339 56014
KIYA 210010Z AUTO 00000KT 10SM SCT050 SCT065 BKN080 29/24 A3001 RMK AO2 LTG DSNT E SE AND W
KIZA 210035Z AUTO 26011KT 10SM CLR 25/13 A2996 RMK AO2
KIZG 202354Z AUTO 00000KT 10SM SCT065 26/21 A2983 RMK AO2 SLP099 T02610211 10317 20256 55001
KJAC 202351Z 00000KT 10SM VCSH SCT100 21/14 A3019
KJAN 202354Z COR 00000KT 10SM FEW050 SCT250 34/22 A3001 RMK AO2 SLP158 T03390217 10361 20339 56015
KJAQ 210015Z AUTO 34008G14KT 300V010 10SM CLR 32/10 A3000 RMK AO1 T03170103
KJAS 210015Z AUTO 00000KT 10SM CLR 34/24 A3003 RMK AO2 T03360244
KJAU 210015Z AUTO 00000KT 10SM CLR 27/23 A3009 RMK A01
KJAX 202356Z 00000KT 10SM FEW045 FEW080 SCT150 BKN250 28/24 A3005 RMK AO2 LTG DSNT NW SLP175 FRQ LTGIC DSNT W-NW CB DSNT W-NW T02830239 10333 20283 51020
KJBR 210019Z AUTO 18006KT 10SM CLR 33/26 A3000 RMK AO2 T03280256
KJCA 210015Z AUTO 00000KT 10SM CLR 29/22 A3002 RMK AO2
KJCT 202351Z AUTO 19008G16KT 10SM BKN090 36/16 A2999 RMK AO2 SLP114 T03610156 10367 20333 56023 TSNO
KJDD 210015Z AUTO 13004KT 10SM CLR 33/23 A3000 RMK AO2
KJDN 202348Z AUTO 34010KT 37/07 A2975 RMK AO1 SLP050 T03720067 10389 20339 56014
KJEF 202353Z 26005KT 10SM CLR 36/22 A2996 RMK AO2 SLP129 T03610217 10367 20344 56011
KJER 202353Z AUTO 27010G17KT 10SM CLR 31/05 A3000 RMK AO2 SLP119 T03060050 10328 20267 56020
KJES 202010Z AUTO 00000KT BKN050 OVC070 27/22 A3003 RMK AO2 PWINO
KJFK 202351Z 25006KT 10SM FEW060 BKN170 BKN250 29/24 A2988 RMK AO2 SLP119 CB DSNT NW T02940239 10344 20283 53001
KJFX 210035Z AUTO 00000KT 10SM CLR 31/26 A3003 RMK AO2 PWINO
KJFZ 210015Z AUTO 32003KT 10SM CLR 25/16 A3014 RMK AO2 T02510162
KJGG 210015Z AUTO 00000KT 10SM CLR 32/24 A2995 RMK AO1
KJHN 210015Z AUTO 17011G18KT 10SM CLR 35/13 A2995 RMK AO2 T03510130
KJHW 210035Z AUTO 29004KT 10SM CLR 24/18 A2999 RMK AO1
KJKA 210015Z AUTO 14006KT 10SM CLR 27/26 A3002 RMK AO2 T02700257
KJKJ 210034Z AUTO 16003KT 10SM CLR 28/21 A2993 RMK AO2
KJKL 202353Z AUTO 32003KT 10SM CLR 29/21 A3006 RMK AO2 SLP163 T02890211 10322 20289 55008
KJLN 202353Z 22008KT 10SM CLR 34/22 A3001 RMK AO2 SLP148 T03440222 10367 20344 56011
KJMR 210034Z AUTO 00000KT 10SM CLR 26/16 A2998 RMK AO2
KJMS 202356Z AUTO 15006KT 10SM CLR 29/19 A2990 RMK AO2 SLP119 T02890189 10317 20283 56017
KJNX 210040Z AUTO 00000KT 10SM CLR 26/24 A2997 RMK AO2
KJOT 210015Z AUTO 34003KT 10SM OVC045 30/25 A2995 RMK AO2 T02960254
KJQF 202350Z 17004KT 10SM CLR 31/21 A3002
KJRB 210035Z 28008KT 250V340 10SM FEW050 SCT110 31/22 A2989 RMK AO2 LTG DSNT S TSB11E26 SLP299 P0002 PWINO FZRANO RVRNO
KJSO 210035Z AUTO 17003KT 10SM CLR 32/22 A3004 RMK AO2 T03270221
KJST 210024Z AUTO 27006KT 3SM -RA BR SCT005 OVC022 22/21 A3007 RMK AO2 WSHFT 2341 P0020 T02170211
KJSV 210035Z AUTO 00000KT 10SM CLR 36/21 A3000 RMK AO2
KJTC 210015Z AUTO 30003KT 10SM SCT120 24/11 A3027 RMK AO2 LTG DSNT NE AND W
KJVL 202345Z 33005KT 10SM FEW030 SCT200 28/22 A2996
KJVW 210035Z AUTO 00000KT 9SM 30/26 A3001 RMK AO2
KJWG 210015Z AUTO 17007KT 10SM CLR 37/18 A2997 RMK AO2 T03700184
KJWN 210015Z AUTO 00000KT 10SM CLR 31/24 A3000 RMK A01
KJWY 210015Z AUTO 13006KT 10SM CLR 34/22 A2999 RMK AO2 T03410216
KJXI 210015Z AUTO 00000KT 10SM CLR 34/22 A3001 RMK AO2 T03350221
KJXN 202356Z 26006KT 10SM CLR 28/21 A2995 RMK AO2 SLP135 T02830206 10294 20261 56006
KJYG 210035Z AUTO 09005KT 10SM CLR 27/22 A2997 RMK AO2
KJYL 210015Z AUTO 00000KT 10SM CLR 26/23 A3004 RMK AO2 LTG DSNT S T02600232
KJYM 210035Z AUTO 00000KT 10SM CLR 26/21 A2998 RMK AO2
KJYO 210015Z AUTO 00000KT 10SM SCT060 BKN075 BKN095 32/25 A2993 RMK AO2
KJYR 210035Z AUTO 10008KT 10SM CLR 32/27 A2991 RMK AO2
KJZI 210035Z AUTO 20006KT 10SM CLR 28/25 A3002 RMK AO2
KK88 210015Z AUTO 14009KT 10SM CLR 33/22 A2999 RMK AO1 T03250218
KKLS 202356Z AUTO 28008KT 10SM FEW033 22/13 A3016 RMK AO2 SLP216 60001 T02170128 10217 20167 58009
KKY8 210015Z AUTO 22005KT 10SM CLR 30/24 A2999 RMK AO1
KL18 210015Z AUTO 22005KT 10SM CLR 27/15 A2995 RMK AO2
KL35 210015Z AUTO 24007G15KT 10SM CLR 24/M01 A3027 RMK AO2
KLAA 202353Z AUTO 04006KT 10SM CLR 36/16 A2993 RMK AO2 SLP076 T03610156 10372 20317 56025
KLAF 202354Z 20003KT 10SM SCT047 OVC055 29/26 A2994 RMK AO2 SLP134 T02940261 10311 20289 56008
KLAL 202350Z 07007KT 10SM VCSH SCT050 BKN080 24/24 A3007
KLAM 210035Z AUTO 21012G16KT 10SM CLR 26/06 A3028 RMK AO2 T02550055
KLAN 202353Z 29005KT 10SM CLR 28/20 A2995 RMK AO2 SLP135 T02830200 10294 20261 56005
KLAR 210004Z AUTO 12012KT 10SM TS FEW090 SCT120 23/11 A3021 RMK AO2 LTG DSNT SW AND NW TSB04 T02330111
KLAS 202356Z 17008KT 10SM FEW120TCU BKN150 BKN200 37/12 A2987 RMK AO2 SLP085 TCU SE T03670117 10372 20317 58029
KLAW 202353Z AUTO 15009KT 10SM CLR 37/19 A2995 RMK AO2 SLP127 T03670189 10378 20356 56017
KLAX 202353Z 27013KT 10SM FEW010 FEW100 23/19 A2993 RMK AO2 SLP133 T02330189 10267 20233 58018 $
KLBB 202353Z 18008KT 10SM SCT090 BKN160 33/13 A3004 RMK AO2 SLP118 T03330128 10350 20317 56021
KLBE 202350Z 24008KT 10SM SCT025 BKN045 24/23 A3004
KLBF 202353Z AUTO 12012KT 10SM CLR 33/20 A2991 RMK AO2 SLP095 T03330200 10344 20294 58026
KLBL 202356Z AUTO 19013KT 10SM CLR 37/13 A2996 RMK AO2 SLP104 T03670133 10378 20356 58021
KLBO 210035Z AUTO 22006KT 10SM CLR 34/16 A3004 RMK AO2 PWINO
KLBT 202354Z AUTO 21003KT 10SM CLR 30/25 A2996 RMK AO2 SLP145 T03000250 10339 20300 55007
KLBX 202353Z AUTO 18007KT 10SM CLR 30/24 A3001 RMK AO2 LTG DSNT N AND W SLP163 T03000239 10356 20294 56015
KLCG 210015Z AUTO 11007KT 10SM CLR 28/22 A2992 RMK AO2 T02790219
KLCH 202353Z AUTO 20003KT 10SM CLR 29/24 A3000 RMK AO2 LTG DSNT E-SW SLP166 60003 T02890244 10356 20278 58007
KLCI 202356Z AUTO 00000KT 10SM OVC120 23/22 A2985 RMK AO2 SLP118 6//// T02330217 10294 20222 55002 PNO $
KLCK 210015Z AUTO 20005KT 10SM BKN075 27/24 A2999 RMK AO2 T02700242
KLCQ 210015Z AUTO 11004KT 10SM -VCTSRA SCT085 SCT120 25/23 A3005 RMK AO2 LTG DSNT NE THRU S
KLDJ 210035Z AUTO 29014KT 26/21 A2991 RMK AO2 P0005 T02600206 PWINO
KLDM 210035Z AUTO 23005KT 10SM BKN090 OVC120 22/20 A2995 RMK AO2 T02160195
KLEB 202353Z VRB03KT 10SM BKN110 26/19 A2985 RMK AO2 SLP097 60000 T02610189 10306 20233 55003
KLEE 202353Z 20007KT 10SM CLR 25/23 A3006 RMK AO2 LTG DSNT ALQDS SLP176 T02500228 10339 20250 50008
KLEW 202356Z AUTO 00000KT 10SM CLR 25/22 A2981 RMK AO2 SLP106 T02500217 10300 20250 55001
KLEX 202354Z 27004KT 8SM CLR 31/22 A3003 RMK AO2 SLP158 T03110222 10333 20311 56006
KLFI 202358Z 19009KT 10SM BKN150 31/23 A2994 RMK AO2A SLP145 T03120231 10341 20312 55008
KLFK 202353Z AUTO 11005KT 10SM CLR 33/23 A3000 RMK AO2 SLP154 T03280228 10350 20322 56017
KLFT 202353Z 22006KT 10SM CLR 31/24 A3000 RMK AO2 SLP159 T03060239 10356 20300 56011
KLGA 202351Z 29009KT 10SM FEW060 SCT170 BKN250 33/20 A2987 RMK AO2 SLP115 CB DSNT NW MOV SE T03280200 10367 20322 53006
KLGB 202353Z 18007KT 10SM CLR 28/14 A2991 RMK AO2 SLP128 T02830144 10283 20261 58023
KLGC 210015Z AUTO 00000KT 10SM CLR 29/26 A3004 RMK AO2 T02870255
KLGD 210035Z AUTO 33009KT 10SM CLR 27/06 A3003 RMK AO1
KLGU 202351Z AUTO 16011KT 10SM CLR 34/12 A2998 RMK AO2 SLP088 T03390122 10356 20306 56019
KLHB 210015Z AUTO 13005KT 10SM CLR 35/21 A2998 RMK AO2 T03500207
KLHM 210035Z AUTO 24004KT 10SM CLR 35/M01 A2989 RMK AO1
KLHQ 202353Z AUTO 24007KT 10SM CLR 27/23 A3001 RMK AO2 SLP155 60007 T02670233 10294 20261 50001
KLHW 202358Z 00000KT 10SM FEW040 SCT080 BKN160 24/21 A3000 RMK AO2A SLP162 60002 T02390207 10340 20219 55015 $
KLHX 202353Z AUTO 09008KT 10SM CLR 36/12 A2999 RMK AO2 SLP079 T03610117 10367 20317 56026
KLHZ 210025Z AUTO 00000KT 10SM CLR 27/23 A3000 RMK AO2
KLIC 202355Z AUTO 07005KT 10SM CLR 32/12 A3009 RMK AO2 LTG DSNT W AND NW SLP101 T03170122 10339 20294 56019
KLIT 202353Z 17006KT 10SM FEW250 33/24 A3000 RMK AO2 SLP157 T03330244 10356 20333 56013
KLJF 210032Z AUTO 00000KT 10SM CLR 28/21 A2997 RMK AO2
KLKR 210035Z AUTO 18004KT 9SM CLR 29/24 A3000 RMK AO2
KLKU 210015Z AUTO 00000KT 10SM CLR 29/20 A2993 RMK AO2
KLKV 202356Z AUTO VRB05KT 10SM CLR 28/01 A3012 RMK AO2 SLP169 6//// T02830006 10283 20228 58016 PNO $
KLLJ 202355Z AUTO 25013G24KT 10SM CLR 32/M12 A3000 RMK AO2 PK WND 24026/2304 SLP091 T03171122 10333 20256 57009
KLLQ 202353Z AUTO 00000KT 10SM CLR 33/26 A3000 RMK AO2 SLP156 T03280261 10361 20311 56013
KLMO 210034Z AUTO 00000KT 10SM CLR 30/08 A3009 RMK AO2 T03000084
KLMT 202353Z 28013KT 10SM CLR 28/01 A3010 RMK AO2 SLP157 T02780011 10283 20211 58016
KLNA 210015Z AUTO 11003KT 10SM CLR 27/27 A3006 RMK AO2 LTG DSNT SE THRU W T02720266
KLNC 210035Z AUTO 12008KT 10SM CLR 34/22 A2999 RMK AO2 T03410217
KLND 202353Z AUTO 32010KT 10SM VCTS FEW120 30/08 A3005 RMK AO2 LTG DSNT SW-NW SLP100 60000 T03000083 10350 20283 55000
KLNK 202354Z 14006KT 10SM CLR 34/23 A2991 RMK AO2 SLP113 T03390233 10356 20328 56014
KLNL 210035Z AUTO 31005KT 10SM CLR 25/12 A3001 RMK AO2 T02470124
KLNN 210015Z AUTO 26004KT 10SM CLR 26/19 A2994 RMK AO1 T02620192
KLNP 210015Z AUTO 36004KT 10SM CLR 26/17 A3016 RMK AO2
KLNR 202356Z AUTO 01003KT 10SM CLR 28/22 A2996 RMK AO2 SLP135 T02830222 10317 20283 55001
KLNS 202353Z 28006KT 8SM CLR 31/22 A2991 RMK AO2 SLP123 T03060222 10344 20306 55001
KLOL 202353Z AUTO VRB03KT 10SM CLR 33/M14 A3001 RMK AO2 SLP124 T03331144 10339 20278 58020 TSNO
KLOM 210015Z AUTO 27003KT 10SM SCT055 BKN065 BKN085 29/22 A2992 RMK AO1
KLOR 202358Z AUTO 00000KT 10SM CLR 29/25 A3001 RMK AO2 SLP143 T02910253 10343 20291 53001
KLOT 210015Z AUTO 31004KT 10SM OVC049 28/24 A2996 RMK AO2 T02810237
KLOU 202353Z 23006KT 10SM CLR 32/23 A3000 RMK AO2 SLP152 T03220228 10344 20322 55008
KLOZ 202353Z AUTO 10SM CLR 30/21 A3006 RMK AO2 SLP165 T03000211 10328 20300 55009
KLPC 210025Z AUTO 29012KT 10SM BKN013 18/13 A3000 RMK AO2
KLPR 202353Z AUTO 00000KT 10SM CLR 27/19 A2997 RMK AO2 SLP142 T02670194 10300 20267 56007
KLQK 210035Z AUTO 32005KT 7SM CLR 28/23 A3002 RMK AO2 T02840228
KLRD 202356Z 12015G20KT 10SM CLR 38/17 A2991 RMK AO2 SLP126 T03830167 10406 20367 56018 $
KLRF 202355Z AUTO 18004KT 10SM CLR 35/24 A3000 RMK AO2 SLP156 T03460240 10366 20346 56013
KLRO 210035Z AUTO 20005KT 10SM CLR 28/24 A3002 RMK AO2
KLRU 210015Z AUTO 13005KT 10SM CLR 31/11 A3010 RMK AO2 LTG DSNT NE E AND W T03070105
KLRY 210035Z AUTO 18006KT 10SM CLR 34/23 A3000 RMK AO2
KLSE 202353Z 36008KT 10SM CLR 30/23 A2996 RMK AO2 SLP135 T03000228 10311 20289 58006
KLSF 202358Z AUTO 31004KT 10SM FEW140 SCT170 29/23 A2999 RMK AO2 SLP158 T02940228 10359 20294 53004
KLSV 202358Z AUTO 19009KT 10SM CLR 38/11 A2984 RMK AO2 SLP077 T03750107 10377 20318 57032 $
KLTS 202358Z AUTO 15012KT 10SM CLR 37/16 A2994 RMK AO2 SLP120 T03670163 10381 20362 57021
KLUA 210035Z AUTO 25004KT 10SM SCT070 29/21 A2996 RMK AO2
KLUD 210015Z AUTO 15007KT 10SM SCT075 36/19 A2998 RMK AO2 T03550185
KLUF 202358Z 19004KT 10SM CLR 39/16 A2980 RMK AO2A SLP075 T03910163 10392 20346 57030 $
KLUK 202353Z 25008KT 10SM CLR 31/23 A2999 RMK AO2 SLP149 60001 T03060233 10322 20283 55005
KLUL 210035Z AUTO 00000KT 10SM CLR 32/23 A3002 RMK AO2 T03180226
KLUM 210015Z AUTO 27004KT 10SM CLR 28/20 A2999 RMK AO2 T02770199
KLUX 210035Z AUTO 16003KT 10SM SCT075 30/21 A3000 RMK AO2
KLVJ 202353Z AUTO 18007KT 10SM CLR 33/23 A3003 RMK AO2 LTG DSNT W AND NW SLP166 T03280233 10378 20328 55008
KLVK 202353Z 21009KT 10SM CLR 28/09 A2997 RMK AO2 SLP147 T02830094 10289 20222 57013
KLVL 210015Z AUTO 00000KT 10SM CLR 29/23 A2996 RMK AO1 T02880227
KLVM 202353Z AUTO 20007KT 10SM CLR 34/04 A2989 RMK AO2 SLP071 T03390039 10361 20322 58017
KLVN 210034Z AUTO 00000KT 10SM CLR 27/22 A2998 RMK AO2
KLVS 202353Z AUTO 17015KT 10SM CLR 29/06 A3024 RMK AO2 SLP116 T02940056 10306 20278 58019
KLWA 210035Z AUTO 00000KT 10SM CLR 26/21 A2997 RMK AO2 T02580205
KLWB 210015Z AUTO 33004KT 10SM CLR 26/18 A3010 RMK AO2 T02570177
KLWC 202352Z AUTO 16007KT 10SM CLR 36/22 A2993 RMK AO2 SLP125 T03610222 10378 20356 56014 TSNO
KLWD 202353Z AUTO 22008KT 10SM CLR 33/27 A2994 RMK AO2 SLP128 T03280267 10339 20322 56010
KLWM 202354Z 00000KT 10SM CLR 28/20 A2986 RMK AO2 SLP110 T02830200 10333 20278 53005
KLWS 202356Z 34015G22KT 10SM CLR 31/02 A2995 RMK AO2 SLP131 T03110022 10317 20272 58015
KLWT 202354Z AUTO 36005KT 10SM CLR 34/01 A2987 RMK AO2 SLP064 T03390006 10344 20306 56014
KLWV 202353Z AUTO 23009KT 10SM CLR 32/24 A2997 RMK AO2 SLP145 T03220239 10356 20322 55010
KLXL 210032Z AUTO 21003KT 10SM CLR 27/18 A2997 RMK AO2
KLXN 210015Z AUTO 09008KT 10SM CLR 31/25 A2991 RMK AO2 T03070245
KLXT 202353Z AUTO 20008KT 10SM CLR 35/24 A2997 RMK AO2 SLP136 T03500239 10361 20344 56012
KLXV 202353Z AUTO 30006KT 10SM -RA FEW043 BKN070 OVC085 14/08 A3049 RMK AO2 LTG DSNT E AND SE AND W SLP173 P0000 60002 T01440078 10217 20139 56005
KLXY 210015Z AUTO 12009G18KT 100V170 10SM CLR 34/20 A2998 RMK AO2 T03400202
KLYH 202354Z 20005KT 10SM CLR 29/22 A2998 RMK AO2 SLP140 T02940217 10344 20294 55008
KLYV 210019Z AUTO 11008KT 10SM CLR 28/20 A2996 RMK AO2
KLZU 202345Z 29006KT 10SM CLR 31/21 A3004 RMK ATIS Q ; RWY 25 ; VISUALS ; JW
KLZZ 210035Z AUTO 13006KT CLR 36/19 A2998 RMK AO2 T03550185 PWINO
KM04 210015Z AUTO 00000KT 10SM CLR 32/25 A3002 RMK A01
KM08 210015Z AUTO 00000KT 10SM CLR 32/23 A3003 RMK A01
KM21 210035Z AUTO 00000KT 10SM CLR 30/23 A3001 RMK AO2 T02980232
KM25 210055Z AUTO 00000KT 10SM CLR 32/24 A3003 RMK AO2 PWINO
KM30 210015Z AUTO 20004KT 10SM CLR 32/25 A3001 RMK AO2 T03190250
KM33 210015Z AUTO 00000KT 10SM CLR 32/23 A3005 RMK A01
KM75 210015Z AUTO 08013G20KT 10SM CLR 34/08 A2975 RMK A01
KM91 201925Z AUTO VRB03KT 10SM FEW047 SCT060 SCT065 32/22 A3009 RMK A01
KMAE 202353Z AUTO 28007KT 10SM SCT110 35/08 A2991 RMK AO2 SLP127 T03500083 10356 20283 58019
KMAF 202353Z 15010KT 10SM CLR 36/12 A3002 RMK AO2 SLP114 T03560117 10367 20333 56022
KMAI 202353Z AUTO 20005KT 10SM CLR 29/24 A2999 RMK AO2 WSHFT 2248 RAE10 SLP153 P0007 60009 T02940244 10356 20278 50003
KMAN 210035Z AUTO 36010KT 10SM CLR 33/03 A2992 RMK A01
KMAO 210035Z AUTO 19007KT 7SM CLR 27/22 A3000 RMK AO2
KMAW 210055Z AUTO 21005KT 10SM CLR 33/23 A3001 RMK AO2
KMBG 202352Z AUTO 15019G26KT 10SM CLR 33/18 A2980 RMK AO2 PK WND 14026/2333 SLP077 T03280178 10339 20311 58036
KMBL 202356Z AUTO 27006KT 10SM CLR 24/20 A2995 RMK AO2 SLP152 T02390200 10278 20239 53002
KMBO 210035Z AUTO 00000KT 10SM CLR 29/25 A3002 RMK AO2 PWINO
KMBS 202353Z 23009KT 10SM CLR 29/22 A2992 RMK AO2 SLP127 T02890217 10311 20289 55003
KMCB 202353Z AUTO 00000KT 10SM CLR 33/23 A3002 RMK AO2 SLP158 T03280228 10356 20322 56013 TSNO
KMCC 210015Z AUTO 21006KT 10SM CLR 34/09 A2991 RMK AO2
KMCD 210013Z AUTO 26005KT 10SM CLR 22/18 A2990 RMK AO2 T02220179
KMCE 202353Z AUTO 29007KT 10SM CLR 34/07 A2990 RMK AO2 SLP124 T03390072 10344 20278 58018
KMCF 202358Z AUTO 05009KT 10SM CLR 30/26 A3004 RMK AO2 LTG DSNT NE-SE SLP175 60005 T03020258 10327 20268 53005 $
KMCI 202353Z 20008KT 10SM CLR 34/24 A2995 RMK AO2 SLP129 T03440239 10361 20339 56012
KMCJ 210035Z AUTO 18005KT 10SM CLR 31/24 A2998 RMK AO1
KMCK 202353Z AUTO 16008KT 10SM CLR 38/13 A2987 RMK AO2 SLP082 T03830128 10400 20333 56023
KMCN 202353Z 26004KT 10SM CLR 33/19 A2999 RMK AO2 SLP150 T03330194 10367 20333 55002 $
KMCO 210020Z VRB03KT 9SM -RA FEW050 SCT110 BKN150 23/22 A3004 RMK AO2 TSE19 TS DSIPTD CB DSNT W P0002 T02330222
KMCW 202353Z AUTO 08004KT 10SM CLR 28/23 A3001 RMK AO2 SLP148 T02780228 10300 20278 55004
KMCX 210035Z AUTO 00000KT 10SM BKN029 BKN039 OVC070 29/27 A2995 RMK AO2 T02850266
KMDD 210015Z AUTO 17012G18KT 10SM CLR 36/12 A3003 RMK AO2 T03550115
KMDH 202352Z 19007KT 10SM CLR 31/24 A2999 RMK AO2 SLP152 T03110244 10339 20311 56010
KMDJ 210015Z AUTO 17007KT 10SM CLR 30/25 A3003 RMK A01
KMDQ 210035Z AUTO 00000KT 10SM CLR 28/23 A3004 RMK AO2
KMDS 210035Z AUTO 14008KT 10SM CLR 27/20 A2994 RMK AO2
KMDT 202356Z 25004KT 9SM FEW050 BKN250 30/22 A2990 RMK AO2 SLP122 T03000217 10328 20300 53000 $
KMDW 202353Z 11006KT 10SM FEW035 BKN050 28/22 A2995 RMK AO2 SLP134 T02780217 10317 20278 51003
KMDZ 210015Z AUTO 27005KT 10SM CLR 26/18 A3000 RMK AO2 T02630180
KMEB 202352Z AUTO 21005KT 10SM CLR 31/24 A2998 RMK AO2 SLP148 T03060244 10344 20306 55007 TSNO
KMEH 202356Z AUTO VRB04KT 10SM CLR 23/02 A3012 RMK AO2 SLP187 T02280022 10239 20189 58008
KMEI 202358Z AUTO 35004KT 10SM CLR 33/24 A3001 RMK AO2 SLP158 T03280244 10361 20328 56012
KMEM 210028Z 11006KT 10SM -RA FEW055 SCT080 BKN100 30/27 A3002 RMK AO2 TSE27 P0002 T03000272
KMER 202345Z 33010KT 10SM SKC 37/11 A2991
KMEV 210015Z AUTO 30014G22KT 9SM CLR 29/00 A3010 RMK AO2
KMEZ 210035Z AUTO 00000KT 10SM SCT100 33/25 A3004 RMK AO2
KMFD 202352Z 25008KT 10SM CLR 27/22 A3000 RMK AO2 SLP148 T02720217 10311 20272 56005
KMFE 202353Z 13019KT 10SM CLR 36/19 A2995 RMK AO2 SLP140 T03560194 10400 20356 56013
KMFI 202354Z AUTO 30008KT 10SM CLR 27/18 A2999 RMK AO2 SLP150 T02720178 10294 20267 56002 TSNO
KMFR 202353Z 28008G17KT 10SM CLR 31/07 A3001 RMK AO2 SLP152 T03060067 10311 20228 57020
KMFV 210015Z AUTO 18004KT 10SM BKN090 29/24 A2994 RMK AO2 T02850235
KMGC 210035Z AUTO 03003KT 10SM OVC055 25/21 A2997 RMK AO2
KMGE 202358Z 32007KT 10SM FEW050 FEW110 SCT250 32/21 A3004 RMK AO2A SLP162 T03150206 10334 20315 55004 $
KMGG 210034Z AUTO 00000KT 10SM CLR 29/21 A2998 RMK AO2 T02850213
KMGJ 202354Z AUTO 23007KT 10SM -RA FEW040 SCT110 22/21 A2990 RMK AO2 PRESRR SLP121 P0008 60020 T02220206 10333 20217 50010 TSNO
KMGM 202353Z 02006KT 10SM CLR 30/22 A3002 RMK AO2 SLP164 T03000222 10367 20300 53000
KMGN 210033Z AUTO 28005KT 10SM CLR 22/18 A2993 RMK AO2 T02250185
KMGR 210015Z AUTO 12005KT 5SM -RA SCT009 BKN042 OVC060 26/22 A3003 RMK AO2 LTG DSNT SE
KMGW 202353Z VRB04KT 7SM FEW033 BKN075 OVC095 26/21 A3004 RMK AO2 SLP160 T02610206 10317 20261 53001
KMGY 202353Z AUTO 25005KT 10SM BKN080 30/23 A2999 RMK AO2 SLP147 60022 T03000233 10300 20222 56009
KMHE 202353Z AUTO 13011KT 10SM CLR 31/23 A2990 RMK AO2 SLP116 T03060233 10322 20300 56025
KMHK 202352Z 18009KT 10SM CLR 39/18 A2989 RMK AO2 SLP108 T03890183 10411 20372 56016
KMHL 210035Z AUTO 20003KT 10SM CLR 34/26 A2997 RMK AO2
KMHR 202345Z 22005G11KT 10SM SKC 34/11 A2990 RMK PRESFR
KMHS 202356Z AUTO 00000KT 10SM CLR 29/07 A3006 RMK AO2 SLP166 T02890067 10306 20244 58015
KMHT 202353Z 29005KT 10SM BKN140 BKN250 28/15 A2983 RMK AO2 SLP109 T02830150 10333 20283 55001
KMHV 210000Z AUTO 29020G26KT 10SM CLR 34/02 A2995 RMK A01
KMIA 202353Z 04003KT 10SM SCT027CB SCT055 BKN200 BKN300 30/22 A3005 RMK AO2 LTG DSNT NE SLP175 CB SE MOV E 60000 T03000222 10322 20289 56000 $
KMIB 202356Z AUTO 06008KT 10SM SCT140 28/18 A2985 RMK AO2 SLP107 60000 T02760183 10315 20275 56029 $
KMIC 202353Z 29005KT 10SM CLR 30/15 A2996 RMK AO2 SLP142 T03000150 10306 20272 56015
KMIE 202353Z 31004KT 10SM CLR 31/23 A2999 RMK AO2 SLP141 T03060233 10322 20267 55004
KMIS 210020Z AUTO 18004KT 10SM CLR 34/25 A3004 RMK A01
KMIV 202354Z AUTO 00000KT 9SM CLR 29/25 A2990 RMK AO2 SLP121 T02890250 10344 20289 55007
KMIW 202353Z AUTO 07007KT 10SM CLR 31/26 A2994 RMK AO2 SLP128 T03060261 10350 20306 55004
KMJQ 210035Z AUTO 10003KT 10SM CLR 27/21 A2997 RMK AO2
KMJX 202356Z AUTO 25006KT 10SM CLR 33/22 A2989 RMK AO2 SLP126 T03280217 10367 20328 53002
KMKC 202354Z 20010KT 10SM CLR 35/23 A2993 RMK AO2 SLP124 T03500233 10367 20350 57012
KMKE 202352Z 13005KT 10SM FEW031 BKN200 BKN250 26/21 A2996 RMK AO2 SLP140 T02560211 10283 20250 55003
KMKG 202355Z 29003KT 10SM FEW020 SCT190 25/19 A2995 RMK AO2 SLP140 T02500194 10272 20250 56003
KMKJ 210015Z AUTO 00000KT 10SM CLR 26/17 A3015 RMK AO2 T02630173
KMKL 202353Z AUTO 33004KT 10SM CLR 34/22 A3003 RMK AO2 SLP163 T03390217 10356 20339 56010
KMKN 210015Z AUTO 13005KT 10SM CLR 35/18 A2999 RMK AO2 T03490175
KMKO 202353Z AUTO 17004KT 10SM CLR 34/23 A3000 RMK AO2 SLP151 T03390228 10350 20333 56011
KMKS 210015Z AUTO 22005KT 10SM SCT026 27/24 A3002 RMK AO2
KMKT 202356Z AUTO 06005KT 10SM CLR 29/22 A2999 RMK AO2 SLP150 T02890217 10294 20272 56015
KMKY 210035Z AUTO 00000KT 10SM CLR 29/24 A3006 RMK AO1 LTG DSNT NE
KMLB 202353Z 00000KT 10SM -RA FEW065 SCT095 BKN120 25/23 A3004 RMK AO2 SLP172 P0001 60046 T02500233 10294 20233 58005
KMLC 202353Z AUTO 17004KT 10SM CLR 34/24 A3000 RMK AO2 SLP148 T03390239 10356 20339 56013
KMLE 210015Z AUTO 11004KT 10SM SCT120 34/26 A2990 RMK AO2 T03360260
KMLF 210003Z AUTO 19012KT 10SM CLR 33/11 A3006 RMK AO2 LTG DSNT NW T03280111
KMLI 202352Z 02003KT 10SM SCT060 33/25 A2992 RMK AO2 SLP126 T03330250 10344 20317 56007
KMLJ 210015Z AUTO 00000KT 10SM CLR 31/23 A3000 RMK AO2
KMLP 202353Z AUTO VRB05G16KT 10SM CLR 17/02 A3016 RMK AO2 SLP122 T01720017 10189 20167 58005 TSNO
KMLS 202353Z AUTO 20010KT 10SM CLR 36/04 A2977 RMK AO2 SLP050 T03610044 10400 20361 58013
KMLT 202353Z AUTO 00000KT 10SM CLR 24/19 A2978 RMK AO2 SLP086 T02390194 10306 20239 56012 TSNO
KMLU 202353Z 06003KT 10SM CLR 35/22 A3000 RMK AO2 SLP158 T03500222 10372 20333 56014
KMMH 210015Z AUTO 29014KT 10SM CLR 29/00 A3023 RMK AO2 T02891003
KMMI 210035Z AUTO 00000KT 10SM 28/23 A3005 RMK
KMMK 202353Z AUTO 27003KT 10SM FEW042 28/21 A2985 RMK AO2 RAB22E42 SLP105 P0000 60000 T02830211 10328 20283 56003 TSNO
KMML 202356Z AUTO 11009KT 10SM CLR 29/21 A2995 RMK AO2 SLP138 T02890211 10300 20267 58025
KMMT 202358Z 00000KT 10SM SCT150 SCT250 29/24 A2999 RMK AO2A SLP156 60005 T02900239 10324 20248 55002 $
KMMU 202355Z 31010G21KT 10SM RA SCT060 SCT100 BKN120 28/21 A2992
KMMV 202353Z AUTO 30004KT 10SM BKN050 23/10 A3013 RMK AO2 SLP200 T02330100 10244 20194 58015
KMNE 210015Z AUTO 08003KT 10SM SCT049 34/24 A3001 RMK AO2 T03380236
KMNH 210031Z AUTO 32006KT 10SM VCTS SCT090 22/11 A3028 RMK AO2 LTG DSNT E W AND NW
KMNI 210035Z AUTO 30016G20KT 190V330 10SM CLR 28/25 A3001 RMK AO2
KMNM 202356Z AUTO 00000KT 10SM CLR 29/19 A2992 RMK AO2 SLP140 T02940189 10300 20267 55003 $
KMNN 202353Z AUTO 28007KT 10SM BKN060 28/20 A3000 RMK AO2 SLP152 60000 T02780200 10300 20278 55003
KMNV 210015Z AUTO 00000KT 10SM CLR 29/24 A3003 RMK A01
KMNZ 210015Z AUTO 13007KT 10SM CLR 36/16 A3000 RMK AO2 T03620158
KMOB 202356Z 01004KT 10SM FEW045 SCT060 SCT250 34/22 A3001 RMK AO2 SLP159 TCU DSNT SE T03390222 10356 20339 55007
KMOD 202353Z 31010KT 10SM CLR 34/12 A2990 RMK AO2 SLP125 T03440117 10350 20272 58018
KMOP 210035Z AUTO 29004KT 10SM CLR 29/17 A2993 RMK AO2 T02870172
KMOR 210015Z AUTO 00000KT 10SM CLR 30/20 A3004 RMK A01
KMOT 202354Z 07008KT 10SM CLR 28/18 A2986 RMK AO2 SLP106 60003 T02830178 10339 20261 56025
KMOX 210033Z AUTO 14006KT 10SM CLR 28/21 A2993 RMK AO2
KMPO 202353Z AUTO 27005KT 10SM FEW060 SCT080 19/19 A3000 RMK AO2 RAE24 SLP147 P0003 60064 T01940194 10289 20189 53005
KMPV 202351Z AUTO 00000KT 10SM CLR 23/17 A2991 RMK AO2 SLP122 T02280172 10272 20228 51002
KMPZ 202355Z AUTO 04035G49KT 1 1/4SM +RA SCT008 SCT021 OVC046 28/19 A2991 RMK AO2 T02770192 10372 20277
KMQB 210035Z AUTO 21004KT 10SM CLR 30/27 A2995 RMK AO2 LTG DSNT NW T03020265
KMQE 202356Z AUTO 20009KT 27/20 A2984 RMK AO1 SLP111 T02720200 10322 20272 55006
KMQI 210025Z AUTO 22012KT 10SM CLR 28/23 A2998 RMK AO2 T02800229
KMQJ 210029Z AUTO 23006KT 10SM CLR 29/23 A2999 RMK AO1
KMQS 210015Z AUTO 00000KT 10SM CLR 29/22 A2994 RMK AO2
KMQY 202356Z 28006KT 10SM CLR 33/22 A3003 RMK AO2 SLP042 T03280217 10350 20328 55015
KMRB 202353Z 29005KT 9SM CLR 32/18 A2993 RMK AO2 SLP128 T03170183 10361 20317 55003
KMRC 210015Z AUTO 00000KT 10SM CLR 32/23 A3001 RMK A01
KMRF 202356Z AUTO 09011KT 10SM FEW070 29/13 A3016 RMK AO2 LTG DSNT NW SLP156 T02890128 10306 20261 56016
KMRH 202358Z AUTO 22007KT 10SM CLR 28/24 A2999 RMK AO2 SLP156 T02780244 10300 20278 56008 TSNO
KMRJ 210015Z AUTO 36003KT 10SM CLR 28/24 A3000 RMK AO2
KMRN 202105Z AUTO 25003KT 34/14 A3008 RMK AO2 T03420141 PWINO
KMRT 210033Z AUTO 28004KT 10SM SCT065 BKN080 BKN090 27/22 A3001 RMK AO2 T02650223
KMRY 202354Z 25010G18KT 10SM SCT014 17/12 A3007 RMK AO2 SLP195 T01720122 10178 20150 58010
KMSL 202353Z AUTO 00000KT 10SM CLR 33/22 A3004 RMK AO2 SLP164 T03330222 10367 20328 56011
KMSN 202353Z 31003KT 10SM FEW040 BKN210 BKN250 28/23 A2996 RMK AO2 SLP140 T02830228 10306 20278 57001
KMSO 202353Z 30023G28KT 10SM FEW110 31/00 A2994 RMK AO2 PK WND 30030/2336 SLP116 T03060000 10328 20278 55002
KMSP 202353Z 21004KT 10SM FEW300 31/13 A2998 RMK AO2 SLP145 T03110128 10317 20272 58013
KMSS 202353Z AUTO 22006KT 10SM CLR 24/16 A2985 RMK AO2 SLP105 T02390161 10278 20239 55006
KMSY 202353Z 07007KT 10SM FEW050 FEW250 34/22 A2999 RMK AO2 SLP158 T03390217 10356 20333 56016
KMTC 202358Z 26006KT 10SM SCT080 29/20 A2992 RMK AO2A SLP132 T02890202 10309 20290 56010
KMTH 202353Z AUTO 00000KT 10SM CLR 31/24 A3005 RMK AO2 SLP176 T03060244 10328 20306 53005
KMTJ 202353Z AUTO 16019KT 10SM BKN110 24/12 A3020 RMK AO2 PK WND 14028/2330 RAE17 SLP152 P0000 60000 T02390122 10317 20233 55004
KMTN 202345Z 19003KT 10SM SCT200 32/26 A2990
KMTO 202353Z AUTO 23006KT 10SM CLR 32/23 A2996 RMK AO2 SLP137 T03220233 10344 20322 56010
KMTP 202354Z AUTO 22008KT 180V250 27/24 A2987 RMK AO1 SLP113 T02670239 10306 20267 58009
KMTV 210015Z AUTO 00000KT 10SM CLR 27/24 A3001 RMK AO2 T02710243
KMTW 202356Z AUTO 13004KT 10SM CLR 24/20 A2995 RMK AO2 SLP152 T02440200 10300 20244 53001
KMUI 202358Z 29003KT 10SM FEW045 SCT130 BKN250 29/20 A2991 RMK AO2A SLP127 T02940203 10332 20294 53002
KMUO 202358Z AUTO 32015G23KT 10SM CLR 34/05 A2994 RMK AO2 SLP111 T03390051 10340 20298 57021 $
KMUT 210035Z AUTO 06004KT 10SM BKN060 32/27 A2993 RMK AO2
KMVE 210031Z AUTO 16005KT 10SM CLR 28/21 A2993 RMK AO2 LTG DSNT S
KMVH 210015Z AUTO 04004KT 10SM CLR 32/M02 A2991 RMK AO2
KMVL 202354Z AUTO VRB03KT 10SM CLR 22/17 A2987 RMK AO2 SLP112 T02170167 10278 20217 50005
KMVN 202356Z AUTO 21008KT CLR 33/24 A2998 RMK AO2 SLP146 T03280239 10361 20328 56014 PWINO $
KMVY 210018Z 23008KT 3SM BR BKN003 24/23 A2986 RMK AO2 T02440233
KMWA 210015Z AUTO 21005KT 10SM CLR 32/23 A3000 RMK AO2
KMWC 202345Z 13005KT 10SM SKC 27/19 A2996
KMWH 202352Z 26014KT 10SM CLR 28/04 A2998 RMK AO2 SLP146 T02780044 10278 20244 58008
KMWK 210025Z AUTO 00000KT 10SM SCT070 SCT085 30/22 A3003 RMK AO2 P0028 T03000215
KMWL 202353Z AUTO 13009KT 10SM FEW075 36/18 A2995 RMK AO2 SLP127 T03560183 10372 20339 56019
KMWM 210034Z AUTO 09005KT 10SM CLR 27/21 A2997 RMK AO2
KMWN 202349Z 29022KT 1/8SM FG BKN000 11/11 RMK FG BKN000 10144 20114
KMWO 201935Z AUTO 24008KT CLR 27/23 A3003 RMK AO2 T02700232 PWINO
KMWT 202353Z AUTO 00000KT 10SM CLR 32/23 A3001 RMK AO2 SLP149 T03170228 10356 20311 56010
KMXF 202358Z AUTO 36003KT 10SM CLR 29/24 A3002 RMK AO2 SLP167 T02870239 10353 20287 55001
KMXO 210035Z AUTO 05003KT 10SM CLR 29/25 A2996 RMK AO2
KMYF 202353Z 25007KT 10SM CLR 27/17 A2995 RMK AO2 SLP137 T02720172 10283 20256 58018
KMYJ 210035Z AUTO 21004KT 7SM CLR 32/23 A2997 RMK AO2 LTG DSNT N
KMYL 202351Z AUTO 23008G16KT 10SM CLR 27/M01 A3009 RMK AO2 SLP146 T02721011 10278 20239 57012
KMYP 210032Z AUTO 26015G21KT CLR 16/01 A3078 RMK AO2 LTG DSNT NW PWINO
KMYR 202345Z 19011KT 10SM CLR 39/24 A3000
KMYV 202353Z AUTO 00000KT 10SM CLR 34/09 A2990 RMK AO2 SLP128 T03440089 10350 20267 58023
KMYZ 210015Z AUTO 16009KT 10SM SCT100 36/20 A2990 RMK AO2
KMZH 210034Z AUTO 00000KT 10SM CLR 26/18 A2995 RMK AO2
KMZZ 210015Z AUTO 00000KT 7SM SCT049 BKN055 28/24 A2999 RMK AO2
KN03 210035Z AUTO 00000KT 10SM SCT022 BKN027 OVC043 22/20 A2994 RMK AO2
KN38 210015Z AUTO 14004KT 10SM OVC007 21/20 A2999 RMK AO2
KN60 202352Z AUTO 15009KT 27/16 A2986 RMK AO1 PK WND 12028/2331 SLP103 T02670161 10356 20250 56013
KNAK 202354Z AUTO 20005KT 8SM CLR 32/24 A2989 RMK AO2 SLP122 T03220239 10333 20289 55009
KNBC 202356Z 19004KT 10SM FEW050 SCT120 28/24 A3002 RMK AO2 SLP165 60000 T02830239 10339 20278 56000
KNBG 202355Z 19008KT 10SM SCT045 SCT250 31/26 A3000 RMK SLP157 CB DSNT W T03110261 56010
KNBT 202356Z AUTO 19006KT 10SM CLR A2997 RMK AO2 SLP155 6//// 57010 PNO $
KNCA 202356Z AUTO 17006KT 10SM CLR 28/24 A2998 RMK AO2 SLP153 T02780239 10322 20278 56008
KNDZ 202356Z 17006KT 10SM FEW045 SCT060 SCT110 BKN250 31/26 A3001 RMK AO2 SLP147 OCNL LTGICCG DSNT NE-E CB DSNT NE-E T2 SET T03060256 10367 20306 55000 $
KNEL 210000Z AUTO 28004KT 8SM CLR 31/21 A2989 RMK AO2 SLP119 T03110211 10356 20311 55008 $
KNEW 202353Z COR 36003KT 10SM FEW050 34/24 A3000 RMK AO2 SLP152 T03440239 10344 20322 56013
KNFE 202356Z AUTO 00000KT 10SM CLR 31/22 A2995 RMK AO2 SLP144 T03060222 10361 20306 55006
KNFG 202355Z 25006KT 7SM FEW150 21/14 A2993 RMK AO2 SLP133 T02110139 10239 20206 58016 $
KNFL 202356Z 31006KT 10SM BKN120 34/M31 A3001 RMK AO2 SLP132 FU BKN120 FU ALQDS T03441306 10350 20283 58024
KNFW 202352Z 15011KT 10SM CLR 37/17 A2996 RMK AO2 SLP129 T03670172 10378 20356 57018 $
KNGP 202356Z 13016KT 10SM FEW022 FEW250 32/26 A2999 RMK AO2 SLP154 T03170256 10344 20317 56017 $
KNGU 202359Z 22005KT 9SM BKN280 32/22 A2996 RMK AO2 SLP144 T03170217 10356 20311 55007
KNHK 202352Z 20007KT 10SM BKN300 28/23 A2991 RMK AO2 SLP130 T02830233 10344 20283 56006
KNID 202356Z 17009KT 130V190 10SM FEW220 BKN280 39/M06 A2986 RMK AO2 SLP085 T03891056 10394 20328 58030
KNIP 202353Z 09007KT 10SM FEW035 FEW070 BKN250 30/23 A3004 RMK AO2 SLP166 CB DSNT SW AND NW T2 SET 60000 T03000228 10344 20283 50009 $
KNJK 202356Z VRB05KT 10SM FEW070 FEW160 SCT220 42/13 A2975 RMK AO2 SLP089 T04170133 10417 20367 56031
KNJM 202357Z AUTO 21007KT 10SM CLR 25/24 A3000 RMK AO2 SLP161 T02500239 10272 20250 56008 $
KNKT 202354Z 19006KT 10SM SCT200 28/23 A2999 RMK AO2 SLP151 T02780228 10322 20278 56009 $
KNKX 202355Z 20006KT 10SM FEW150 29/16 A2994 RMK AO2 SLP133 T02940156 10306 20289 58017 $
KNLC 202356Z 03009KT 7SM FEW080 FEW200 37/08 A2990 RMK AO2 SLP125 FU FEW080 RH/18 T03670083 10367 20294 58022
KNMM 202356Z 03003KT 10SM FEW045 BKN250 33/22 A3002 RMK AO2 SLP171 T03330217 10361 20333 56010 $
KNOG 202356Z AUTO 14018KT 10SM CLR A2998 RMK AO2 SLPNO 10006 20006 55005 $
KNOW 210015Z AUTO 27007KT 10SM SCT043 OVC050 15/12 A3015 RMK AO2 T01520118
KNPA 202356Z 21006KT 10SM SCT040 BKN100 BKN250 27/23 A3001 RMK AO2 RAE07 TSE2259 SLP163 T2 SET P0000 60011 T02720233 10344 20244 53000 $
KNQA 202350Z 00000KT 10SM FEW050 BKN150 34/24 A3001
KNQI 202356Z 13012G21KT 10SM FEW060 SCT250 33/25 A2997 RMK AO2 SLP146 T03280250 10383 20328 55010
KNQX 202353Z 08004KT 10SM SCT029 BKN220 30/25 A3005 RMK AO2 SLP176 T03000250 10328 20300 53004 $
KNRB 202352Z 16007KT 10SM FEW025 SCT150 SCT250 28/24 A3004 RMK AO2 SLP171 CB DSNT SW T2 SET T02780239 10317 20278 50010 $
KNRS 202356Z 25008KT 10SM SCT012 SCT050 SCT120 BKN200 23/17 A2996 RMK AO2 SLP144 T02280172 10244 20228 58017 $
KNSE 202356Z 21005KT 10SM SCT035 SCT100 BKN250 28/26 A3001 RMK AO2 RAB28E45 SLP147 CB DSNT NE-E T2 SET P0005 60005 T02830256 10356 20283 56000 $
KNSI 202357Z AUTO 28013KT 10SM CLR 19/19 A2996 RMK AO2 SLP141 T01940194 10217 20194 58020 PWINO $
KNTD 202356Z 27012KT 10SM FEW160 23/15 A2995 RMK AO2 SLP141 T02280150 10244 20222 58018 $
KNTU 202356Z 18003KT 10SM OVC280 29/22 A2995 RMK AO2 SLP143 T02940217 10333 20294 55005
KNUC 202356Z 28008KT 10SM SCT011 21/16 A2997 RMK SLP144 T02110161 10228 20211 58018
KNUI 202353Z AUTO 15004KT 10SM CLR 28/24 A2991 RMK AO2 SLP129 T02830239 10344 20283 55007
KNUQ 202356Z 36013KT 10SM CLR 22/14 A3002 RMK AO2 SLP169 T02220144 10233 20211 58010
KNUW 202356Z 25009KT 10SM FEW025 SCT040 BKN080 BKN160 18/11 A3017 RMK AO2 SLP216 T01830106 10217 20172 58006 $
KNXF 202356Z AUTO 7SM CLR A2993 RMK AO2 SLPNO 57020 $
KNXP 202356Z 22012G17KT 10SM FEW250 39/02 A2993 RMK AO2 SLP092 T03940017 10406 20350 58026
KNY0 202355Z AUTO 36003KT 10SM CLR 22/16 A2990 RMK AO2
KNYC 202351Z AUTO 29006KT 10SM SCT110 32/19 A2991 RMK AO2 SLP120 T03170189 10344 20311 53006
KNYG 202356Z 19006KT 10SM BKN250 32/28 A2990 RMK AO2 SLP127 T03220278 10356 20322 56007
KNYL 202357Z AUTO 21009G18KT 10SM CLR 41/13 A2977 RMK AO2 SLP078 T04110133 10411 20367 56026
KNZY 202352Z 20008KT 10SM FEW011 FEW060 SCT140 SCT200 23/18 A2994 RMK AO2 SLP139 T02330183 10250 20228 58018
KO22 210015Z AUTO 21005KT 1 1/4SM CLR 33/05 A3003 RMK AO1 VSBY 1/2V5
KO69 210015Z AUTO 24009KT 8SM CLR 26/11 A2998 RMK A01
KO86 210010Z AUTO 16009KT 10SM CLR 32/ A3000 RMK AO1
KOAJ 202356Z AUTO 16005KT 10SM CLR 28/24 A2999 RMK AO2 SLP158 T02830244 10333 20283 55006
KOAK 202353Z 25013KT 10SM FEW010 21/13 A3002 RMK AO2 SLP165 T02060128 10217 20178 58015
KOBE 210035Z AUTO 00000KT 10SM CLR 25/23 A3006 RMK AO2 LTG DSNT SE THRU W
KOCF 210011Z AUTO 00000KT 4SM +TSRA BR FEW005 SCT043 BKN055 22/22 A3009 RMK AO2 LTG DSNT ALQDS P0042 $
KOCH 210035Z 15004KT CLR 33/23 A2998 RMK AO1
KOCQ 210015Z AUTO 00000KT 10SM CLR 28/20 A2992 RMK AO1 T02820199
KOCW 210030Z AUTO 17006KT 10SM CLR 29/24 A2997 RMK AO2 T02860237
KODO 202353Z AUTO 19013KT 10SM CLR 34/12 A3004 RMK AO2 SLP120 T03390122 10361 20328 56022
KODX 202353Z AUTO 11009KT 10SM CLR 33/21 A2991 RMK AO2 SLP112 T03280206 10333 20306 56023
KOEB 210034Z AUTO 29003KT 10SM CLR 27/22 A2997 RMK AO2 T02700215
KOEO 210015Z AUTO 00000KT 10SM CLR 28/19 A3001 RMK AO2 T02810192
KOFF 202356Z AUTO 09005KT 10SM CLR 34/25 A2991 RMK AO2 SLP122 T03430248 10346 20328 57012 $
KOFK 202356Z AUTO 09011KT 10SM CLR 31/24 A2993 RMK AO2 SLP119 60000 T03060239 10339 20300 58015
KOFP 202354Z AUTO 22004KT 8SM CLR 33/19 A2993 RMK AO2 SLP134 T03280194 10361 20306 55008
KOGA 210015Z AUTO 07011KT 10SM CLR 35/16 A2993 RMK AO2 T03450162
KOGB 202353Z AUTO 22009KT 10SM FEW049 28/22 A3001 RMK AO2 SLP159 60000 T02830222 10339 20283 53005
KOGD 202353Z 14010KT 10SM CLR 33/12 A2997 RMK AO2 SLP077 T03330117 10350 20322 56021
KOGS 210035Z AUTO 22005KT 10SM CLR 22/14 A2986 RMK AO2 T02190144 TSNO
KOJA 210015Z AUTO 18008KT 10SM CLR 37/14 A2997 RMK AO2
KOJC 202353Z 18008KT 10SM CLR 33/24 A2996 RMK AO2 SLP132 T03280244 10344 20328 56014
KOKB 202352Z AUTO 25009KT 9SM CLR 26/19 A2993 RMK AO2 SLP134 T02610189 10272 20256 58017
KOKC 202352Z 17010KT 10SM FEW080 36/17 A2997 RMK AO2 SLP128 T03610172 10383 20356 58014
KOKK 202356Z AUTO 28003KT 10SM BKN047 OVC060 29/25 A2998 RMK AO2 SLP145 T02940250 10317 20278 58002
KOKM 210015Z AUTO 17017G21KT 10SM CLR 34/23 A2998 RMK AO2 T03420229
KOKV 210015Z AUTO 34004KT 10SM BKN070 30/18 A2996 RMK AO2
KOKZ 210015Z AUTO 00000KT 10SM CLR 33/25 A3000 RMK AO2 LTG DSNT S T03250247
KOLE 210035Z AUTO 30003KT 10SM SCT037 SCT044 22/20 A3000 RMK AO2 LTG DSNT N
KOLF 202353Z AUTO 07024G32KT 10SM CLR 32/07 A2979 RMK AO2 PK WND 07036/2320 SLP076 T03220067 10367 20311 55008
KOLG 210015Z AUTO 22003KT 10SM CLR 27/17 A2996 RMK AO1
KOLM 202354Z 23009KT 10SM OVC065 21/11 A3014 RMK AO2 SLP205 60000 T02110111 10222 20172 58006
KOLS 202354Z AUTO 16005KT 10SM -RA FEW047 SCT060 BKN110 22/21 A3011 RMK AO2 RAE18B39 SLP138 P0000 60013 T02170206 10300 20200 55013
KOLU 202356Z AUTO 14010KT 10SM CLR 33/23 A2992 RMK AO2 SLP116 T03330228 10339 20317 56016
KOLV 202350Z 00000KT 10SM SCT060 SCT080 A3003
KOLY 210010Z AUTO 19006KT 10SM CLR 31/25 A2998 RMK AO2 T03120254
KOLZ 210015Z AUTO 06003KT 10SM CLR 28/25 A2999 RMK AO2
KOMA 202352Z 15008KT 10SM SCT120 BKN180 BKN250 35/23 A2990 RMK AO2 SLP115 T03500233 10367 20339 56010
KOMH 210035Z AUTO 00000KT 10SM CLR 28/21 A2993 RMK AO2
KOMK 202353Z AUTO 22008KT 10SM CLR 30/02 A2989 RMK AO2 SLP115 T03000017 10300 20261 58008
KOMN 202250Z 15005KT 10SM SCT016 28/24 A3004 RMK TCU DSNT S-W LAST
KONA 210032Z AUTO 31004KT 10SM CLR 27/21 A2998 RMK AO2
KONL 210015Z AUTO 10009KT 10SM CLR 30/24 A2993 RMK AO2 T03020236 TSNO
KONM 210015Z AUTO 17013G19KT 10SM CLR 31/09 A3011 RMK AO2 T03050085
KONO 202353Z AUTO 25007KT 10SM CLR 35/01 A2993 RMK AO2 SLP113 T03500006 10356 20289 58018 TSNO
KONP 210015Z AUTO 29006KT 10SM CLR 17/13 A3020 RMK AO2
KONT 202353Z 24015G19KT 10SM FEW180 34/11 A2991 RMK AO2 SLP109 T03390111 10356 20283 56023
KONX 210035Z AUTO 00000KT 10SM CLR 28/24 A2997 RMK AO2 T02830240
KONZ 210033Z AUTO 19006KT 10SM SCT043 SCT050 26/23 A2993 RMK AO2 T02630232
KOOA 210035Z AUTO 04004KT 10SM BKN060 31/25 A2992 RMK AO2 T03130254
KOPF 202353Z 00000KT 10SM FEW034 BKN045 28/24 A3005 RMK AO2 LTG DSNT NE AND E SLP178 60002 T02830239 10328 20272 53001
KOPL 210015Z AUTO 00000KT 10SM CLR 32/24 A2999 RMK AO2 LTG DSNT SE T03220235
KOPN 210015Z AUTO 32008KT 10SM SCT050 BKN060 30/19 A3004 RMK AO2
KOQT 202353Z AUTO 00000KT 10SM CLR 31/22 A3004 RMK AO2 SLP153 T03060217 10339 20306 56017
KOQU 202350Z 25012KT 10SM FEW038 BKN120 27/21 A2984
KORB 210033Z AUTO 00000KT 10SM CLR 22/16 A2994 RMK AO2
KORC 210035Z AUTO 10006KT 10SM CLR 29/24 A2992 RMK AO2
KORD 202351Z 10006KT 10SM SCT045 BKN055 27/21 A2995 RMK AO2 SLP139 T02720211 10311 20272 51003
KORE 202352Z AUTO 32005KT 10SM CLR 27/21 A2986 RMK AO2 SLP109 T02670206 10322 20267 55006 TSNO
KORF 202351Z 19008KT 10SM CLR 31/23 A2995 RMK AO2 SLP140 T03110233 10344 20311 55005
KORG 210015Z AUTO 19004KT 10SM CLR 28/22 A3002 RMK AO2 LTG DSNT E T02800222
KORH 202354Z 26007KT 10SM CLR 26/18 A2989 RMK AO2 SLP113 T02610183 10306 20261 55006
KORL 202353Z 05004KT 10SM VCTS RA FEW060 SCT095 SCT110 23/23 A3005
KORS 210035Z AUTO 00000G11KT 10SM BKN055 OVC065 21/11 A3011 RMK AO2
KOSA 210015Z AUTO 00000KT 10SM CLR 34/22 A3001 RMK AO1 T03410221
KOSC 210033Z AUTO 05007KT 10SM CLR 23/19 A2990 RMK AO2 T02330194
KOSH 202353Z 28004KT 10SM CLR 27/21 A2995 RMK AO2 SLP128 T02720206 10300 20272 55001
KOSU 202353Z 27007KT 10SM SCT070 27/23 A2999 RMK AO2 SLP149 T02720233 10306 20272 56007
KOTG 202356Z AUTO 08008KT 10SM CLR 28/21 A2999 RMK AO2 SLP147 T02830206 10300 20278 56017
KOTH 202356Z 33010KT 10SM CLR 19/12 A3017 RMK AO2 SLP217 6//// T01890117 10200 20156 58009
KOTM 202353Z AUTO 24007KT 10SM CLR 36/23 A2990 RMK AO2 SLP114 T03560233 10383 20350 55010
KOUN 210015Z AUTO 17010KT 10SM CLR 35/19 A2998 RMK AO2
KOVE 202353Z AUTO 18005KT 10SM CLR 35/04 A2991 RMK AO2 SLP127 T03500044 10356 20267 58024
KOVL 210032Z AUTO 12004KT 10SM CLR 27/20 A2995 RMK AO2
KOVS 202353Z AUTO 00000KT 10SM CLR 29/22 A2996 RMK AO2 SLP143 T02890222 10322 20289 55002
KOWA 210034Z AUTO 04004KT 10SM CLR 28/22 A2999 RMK AO2
KOWB 202356Z 22005KT 10SM CLR 31/24 A2999 RMK AO2 SLP161 T03060244 10344 20300 56013
KOWD 202353Z 17006KT 10SM CLR 28/22 A2981 RMK AO2 SLP095 T02830222 10333 20278 55006 $
KOWI 210015Z AUTO 15007KT 9SM CLR 34/25 A2995 RMK AO2 PWINO
KOWP 210015Z AUTO 17006KT 10SM CLR 36/19 A2997 RMK AO2 T03630189
KOWX 210035Z AUTO 20004KT 10SM BKN060 OVC070 26/23 A2999 RMK AO1
KOXB 202353Z AUTO 23008KT 10SM CLR 28/23 A2993 RMK AO2 SLP136 T02830228 10306 20278 55004
KOXC 210025Z 24011G20KT 190V280 10SM BKN100 27/19 A2985
KOXI 210015Z AUTO 00000KT 10SM OVC065 27/24 A2996 RMK AO1
KOXR 202351Z 27014KT 10SM CLR 22/15 A2994 RMK AO2 SLP137 T02170150 10233 20211 58019
KOXV 210035Z AUTO 07006KT 10SM BKN055 BKN070 BKN100 33/25 A2990 RMK AO2
KOZA 210015Z AUTO 16012G19KT 10SM CLR 35/12 A3005 RMK AO2
KOZR 202356Z AUTO 02003KT 10SM CLR 32/22 A3001 RMK AO2 SLP161 T03220223 10349 20322 53000
KOZS 210035Z AUTO 21004KT 10SM CLR 35/16 A3001 RMK AO2
KOZW 210035Z AUTO 24003KT 10SM SCT035 27/21 A2995 RMK AO2 T02690210
KP28 202356Z AUTO 20009G17KT 38/14 A2991 RMK AO1 SLP106 T03830139 10394 20367 56016
KP53 202356Z AUTO 01003KT 23/18 A2993 RMK AO1 SLP135 T02280183 10244 20228 53001
KP58 202351Z AUTO 13005KT 25/21 A2989 RMK AO1 SLP114 T02500206 10256 20222 55007
KP59 202351Z AUTO 34008KT 17/13 A2991 RMK AO1 SLP125 T01720133 10211 20172 55001
KP60 202356Z AUTO VRB03KT 18/12 A3029 RMK AO1 SLP189 T01830122 10194 20150 58018 $
KP68 202353Z AUTO 16010KT 31/08 A3008 RMK AO1 SLP102 T03110078 10328 20289 56015
KP69 202352Z AUTO 00000KT 33/09 A2991 RMK AO1 SLP104 T03330094 10350 20272 56017
KP92 202353Z AUTO 28004KT 32/26 A3000 RMK AO1 SLP157 T03170256 10339 20311 55012 $
KPAE 202353Z VRB04KT 10SM BKN047 21/11 A3014 RMK AO2 SLP203 T02060111 10228 20183 58003
KPAH 202353Z 19003KT 9SM CLR 32/24 A3000 RMK AO2 SLP153 T03220244 10350 20322 56013
KPAM 210008Z AUTO 29008KT 10SM FEW022 FEW100 30/25 A3002 RMK AO2 RAE05DZB05E08 SLP169
KPAN 210035Z AUTO 32009G14KT 10SM SCT100 26/14 A3018 RMK AO2 LTG DSNT N AND E
KPAO 202347Z 31011KT 10SM SKC 26/13 A3001
KPBF 202353Z AUTO 24004KT 10SM CLR 34/23 A3000 RMK AO2 SLP156 T03390228 10356 20333 56014
KPBG 202353Z AUTO VRB04KT 10SM CLR 23/18 A2983 RMK AO2 SLP101 T02280178 10289 20228 58001
KPBH 210035Z AUTO 00000KT 10SM CLR 26/18 A2999 RMK AO2 T02610179
KPBI 202353Z 14004KT 10SM SCT030 SCT055 BKN150 27/24 A3005 RMK AO2 LTG DSNT SE AND S RAE03 SLP175 CB DSNT SE SW P0000 60019 T02670239 10317 20239 58005 $
KPBX 210015Z AUTO 00000KT 10SM CLR 28/21 A3007 RMK AO2 T02800211
KPCD 210035Z AUTO 17006KT 10SM CLR 31/25 A2996 RMK AO2 T03110248 PWINO
KPCM 210035Z AUTO 00000KT 10SM -RA SCT014 SCT060 BKN095 25/24 A3007 RMK AO2
KPCW 210021Z AUTO 21003KT 10SM CLR 29/23 A2994 RMK AO2 $
KPCZ 210015Z AUTO 30004KT 10SM CLR 29/18 A2996 RMK AO2 T02890180
KPDC 210015Z AUTO 36003KT 10SM CLR 29/21 A2996 RMK AO2 T02850212
KPDK 202353Z 32008KT 7SM CLR 31/21 A3003 RMK AO2 SLP150 T03060211 10344 20306 55003
KPDT 202353Z 29013G19KT 10SM CLR 27/03 A3002 RMK AO2 SLP151 T02720033 10283 20239 58012
KPDX 202353Z 36006KT 10SM FEW055 SCT210 BKN260 24/12 A3012 RMK AO2 SLP198 60000 T02390122 10239 20183 58015
KPEA 210035Z AUTO 00000KT 10SM SCT055 32/25 A2992 RMK AO2 T03240245
KPEO 202353Z AUTO 20007KT 10SM CLR 22/18 A2992 RMK AO2 SLP125 60014 T02220183 10261 20189 55011
KPEQ 210015Z AUTO 11015G20KT 10SM CLR 35/11 A2998 RMK AO2 T03530107
KPEX 210034Z AUTO 14003KT 10SM CLR 28/20 A2997 RMK AO2 T02810203
KPEZ 210035Z AUTO 14011G23KT 10SM CLR 36/18 A2995 RMK AO2 T03600182
KPGA 202353Z AUTO 15012KT 10SM CLR 33/12 A3002 RMK AO2 PK WND 12030/2256 SLP093 T03330117 10361 20289 58015 TSNO
KPGD 210023Z AUTO 00000KT 10SM VCTS CLR 29/25 A3006 RMK AO2 LTG DSNT N AND SE AND S T02890250
KPGV 210030Z AUTO 16003KT 10SM CLR 29/22 A2999 RMK AO2
KPHD 202353Z AUTO 00000KT 10SM SCT049 BKN060 27/24 A2999 RMK AO2 SLP147 60021 T02670239 10311 20244 56010
KPHF 202354Z 20011KT 10SM CLR 31/22 A2994 RMK AO2 SLP137 T03110222 10356 20311 55007
KPHL 202354Z 25009KT 10SM FEW050 BKN300 33/21 A2989 RMK AO2 SLP122 T03330211 10350 20333 55001
KPHN 210036Z AUTO 22003KT 10SM CLR 27/20 A2994 RMK AO2
KPHP 202355Z AUTO 18015G22KT 10SM CLR 37/15 A2981 RMK AO2 SLP068 T03670150 10383 20333 58037
KPHT 210015Z AUTO 00000KT 10SM CLR 31/26 A3002 RMK A01
KPHX 202351Z 30008G14KT 10SM FEW080 FEW140 SCT250 38/16 A2981 RMK AO2 SLP072 T03830156 10394 20328 56029
KPIA 202354Z 29004KT 10SM CLR 33/27 A2993 RMK AO2 SLP127 T03330267 10356 20322 57006
KPIB 210035Z 00000KT 10SM CLR 31/26 A3002 RMK AO2 SLP300 PWINO FZRANO RVRNO
KPIE 202353Z COR 30004KT 10SM FEW020 SCT035 31/23 A3004 RMK AO2 LTG DSNT E AND SE SLP171 60000 T03110228 10344 20278 53006
KPIH 202353Z 24012KT 10SM CLR 33/M01 A3001 RMK AO2 SLP108 60001 T03281006 10333 20183 56018
KPIL 202353Z AUTO 12017KT 9SM CLR 32/25 A2998 RMK AO2 SLP152 T03170250 10356 20317 58015
KPIM 210015Z AUTO 30004KT 10SM CLR 29/25 A3005 RMK AO2 LTG DSNT S THRU N T02900246 PWINO
KPIT 202351Z VRB04KT 10SM SCT050 SCT120 BKN250 25/23 A3001 RMK AO2 SLP159 CB DSNT NE 60005 T02500228 10311 20239 53008
KPKB 202353Z 22003KT 10SM BKN055 28/23 A3003 RMK AO2 SLP158 60000 T02830228 10311 20283 56003
KPKD 202353Z AUTO 21009KT 10SM CLR 30/16 A2996 RMK AO2 SLP140 T03000161 10328 20289 56014
KPKV 210015Z AUTO 17008KT 10SM CLR 31/24 A3001 RMK AO2 T03090238
KPLN 202354Z AUTO 29005KT 10SM CLR 26/17 A2992 RMK AO2 SLP127 T02610167 10278 20261 55003
KPLR 210035Z AUTO 00000KT 10SM CLR 25/25 A3005 RMK A01
KPLU 210015Z AUTO 27004KT 10SM SCT042 SCT050 OVC070 22/12 A3014 RMK AO2
KPMD 202353Z AUTO 25015G21KT 10SM CLR 34/02 A2996 RMK AO2 PK WND 22027/2259 SLP113 T03440017 10361 20328 58018
KPMP 210022Z 09003KT 10SM CLR 29/25 A3006 RMK AO2 LTG DSNT E AND SE T02890250
KPMU 210035Z AUTO 00000KT 10SM CLR 32/24 A3003 RMK AO2 T03210242
KPMV 210035Z AUTO 10003KT 10SM CLR 33/27 A2990 RMK AO2 T03260268
KPNA 210015Z AUTO 36011G22KT 5SM VCTSRA SCT070 SCT085 OVC110 16/12 A3024 RMK AO2 LTG DSNT ALQS
KPNC 202353Z AUTO 15013KT 10SM CLR 37/18 A2993 RMK AO2 SLP117 T03670183 10389 20367 56015 TSNO
KPNE 202354Z 26009KT 10SM CLR 33/21 A2991 RMK AO2 LTG DSNT N AND NE SLP126 T03280211 10356 20328 53003
KPNM 210036Z AUTO 00000KT 10SM CLR 29/20 A2997 RMK AO2
KPNS 202353Z 20004KT 10SM FEW120 29/25 A3001 RMK AO2 LTG DSNT NE AND S SLP163 60022 T02940250 10367 20267 51001 $
KPNT 210015Z AUTO 02004KT 10SM SCT037 BKN048 31/28 A2995 RMK AO2 LTG DSNT W T03060283
KPOB 202358Z AUTO 21006KT 10SM CLR 32/22 A2996 RMK AO2 SLP146 60000 T03230216 10356 20323 55005 $
KPOC 202347Z 27010KT 10SM CLR 33/10 A2995
KPOE 202358Z AUTO 27003KT 9SM FEW055 30/23 A3000 RMK AO2 SLP157 T02960230 10346 20291 57012
KPOF 202353Z AUTO 19006KT 9SM CLR 33/26 A2999 RMK AO2 SLP149 T03280256 10339 20328 56010
KPOU 202353Z 18008KT 10SM -RA FEW120 22/19 A2983 RMK AO2 WSHFT 2314 RAB2258 TSB2257E13B15E30 SLP098 P0008 60008 T02220194 10333 20217 58006
KPOV 210019Z AUTO 00000KT 10SM CLR 25/20 A2999 RMK AO2
KPOY 210015Z AUTO 17012G18KT 10SM CLR 20/11 A3001 RMK AO2
KPPA 210015Z AUTO 19012KT 10SM SCT090 36/11 A3003 RMK AO2 T03610112
KPPF 202352Z AUTO 15006KT 10SM CLR 34/22 A2998 RMK AO2 SLP141 T03390222 10361 20339 56012
KPPO 210015Z AUTO 02004KT 10SM SCT047 OVC060 26/23 A2998 RMK AO2 T02640226
KPPQ 210015Z AUTO 24005KT 10SM CLR 34/24 A2996 RMK AO2 LTG DSNT N T03400240
KPQI 202356Z AUTO 00000KT 10SM FEW120 24/18 A2978 RMK AO2 SLP119 T02390183 10283 20233 56011
KPQL 202353Z 20003KT 10SM CLR 32/23 A3000 RMK AO2 SLP161 60000 T03170233 10356 20294 55008
KPQN 210033Z AUTO 12007KT 10SM CLR 28/21 A2996 RMK AO2
KPRB 202353Z AUTO 32009G16KT 10SM CLR 36/03 A2994 RMK AO2 SLP129 T03610033 10367 20233 56021 TSNO
KPRC 202353Z 31014KT 10SM SCT060TCU 23/14 A3018 RMK AO2 SLP147 TCU DSNT ALQDS T02280144 10278 20217 58012
KPRG 210015Z AUTO 22005KT 10SM CLR 30/25 A2997 RMK AO2 T02970249
KPRN 202356Z AUTO 00000KT 10SM CLR 31/23 A3002 RMK AO2 SLP160 T03110233 10356 20306 55003
KPRO 210035Z AUTO 00000KT 10SM CLR 32/29 A2992 RMK AO2 T03180287
KPRS 210035Z AUTO 18007KT 10SM CLR 31/17 A3004 RMK AO2 LTG DSNT E T03120169
KPRX 202356Z AUTO 17006KT 34/23 RMK AO2 SLPNO 6//// T03440228 10361 20333 PWINO $
KPSC 202353Z 25010G18KT 10SM CLR 31/07 A2997 RMK AO2 SLP145 T03060072 10306 20256 58016
KPSF 202354Z AUTO 00000KT 10SM CLR 24/17 A2989 RMK AO2 SLP094 T02390172 10294 20233 56013
KPSK 210015Z AUTO 31003KT 10SM CLR 27/16 A3010 RMK AO2 T02720164
KPSM 202358Z 14004KT 10SM FEW060 BKN140 BKN200 23/19 A2982 RMK AO2A SLP101 T02330192 10317 20233 55000
KPSN 210035Z AUTO 10003KT 10SM CLR 33/23 A3001 RMK AO2 T03310233
KPSO 210035Z AUTO 32012G15KT 10SM SCT095 22/08 A3030 RMK AO2 LTG DSNT SE W AND NW T02200080
KPSP 202353Z 14008KT 10SM CLR 42/13 A2978 RMK AO2 SLP078 T04170133 10422 20361 58033
KPSX 202353Z AUTO 16012KT 10SM CLR 31/24 A3000 RMK AO2 SLP159 T03060244 10328 20306 56012 TSNO
KPTB 210015Z AUTO 00000KT 10SM CLR 29/22 A2995 RMK AO2 T02900223
KPTK 202353Z 25007KT 10SM FEW035 FEW230 28/21 A2994 RMK AO2 SLP131 T02780206 10294 20267 55006
KPTN 210020Z AUTO 25010KT 10SM TSRA FEW010 BKN050 OVC090 25/23 A3003 RMK AO2 LTG DSNT E-SW P0001
KPTS 210035Z AUTO 18005KT 10SM CLR 33/23 A2999 RMK AO2 T03310227
KPTT 210015Z AUTO 19013KT 10SM CLR 36/14 A2993 RMK AO2 T03560139
KPTV 202356Z AUTO VRB06KT 10SM 36/12 A2991 RMK AO2 SLP134 T03560117 10361 20283 56023 $
KPTW 202354Z AUTO 24003KT 7SM CLR 31/22 A2992 RMK AO2 LTG DSNT NE SLP127 T03060217 10328 20306 53001
KPUB 202353Z 11010KT 10SM CLR 36/11 A3000 RMK AO2 SLP077 T03560106 10372 20328 56022
KPUC 202353Z AUTO 16006KT 10SM FEW055 FEW070 BKN100 24/14 A3017 RMK AO2 RAB14E39 SLP135 P0000 60001 T02390139 10339 20239 58005
KPUJ 210015Z AUTO 27003KT 10SM CLR 30/27 A3007 RMK AO2
KPUW 202353Z AUTO 27014G21KT 10SM CLR 26/03 A3005 RMK AO2 SLP162 T02560028 10261 20222 58010
KPVB 210015Z AUTO 01003KT 10SM CLR 28/25 A2999 RMK AO1 T02760252
KPVC 202356Z AUTO 20010KT 10SM FEW060 24/19 A2984 RMK AO2 SLP103 T02390194 10322 20239 55006
KPVD 202351Z 19007KT 10SM FEW065 BKN140 BKN250 28/21 A2984 RMK AO2 RAB22E37 SLP105 P0000 60020 T02780211 10339 20272 56005
KPVE 202305Z AUTO 00000KT 10SM CLR 33/23 A3003 RMK A01
KPVF 210015Z AUTO 28005KT 10SM CLR 30/06 A3006 RMK AO1
KPVG 210035Z AUTO 20005KT 10SM CLR 28/22 A2993 RMK AO1
KPVJ 210035Z AUTO 14006KT 10SM CLR 34/21 A2997 RMK AO2 T03400209
KPVU 202358Z 13004KT 10SM BKN110 BKN180 33/12 A3003
KPVW 210015Z AUTO 18009KT 10SM SCT095 33/12 A3004 RMK AO2 T03310124
KPWA 202353Z 18010KT 10SM CLR 37/17 A2996 RMK AO2 SLP125 T03670172 10383 20361 56014
KPWC 210033Z AUTO 21004KT 10SM CLR 28/18 A2999 RMK AO2
KPWG 202356Z AUTO 17011KT 10SM FEW080 37/19 A2996 RMK AO2 SLP146 T03720189 10389 20356 56021 $
KPWK 202352Z 10004KT 10SM SCT032 BKN055 26/23 A2997 RMK AO2 SLP145 T02610228 10311 20256 51001 $
KPWM 202351Z 19006KT 10SM BKN100 BKN200 24/19 A2982 RMK AO2 SLP098 T02390189 10289 20233 55002
KPWT 202356Z AUTO 25012G20KT 10SM FEW046 22/11 A3012 RMK AO2 SLP215 T02220106 10239 20194 58005
KPXE 210015Z AUTO 24003KT 10SM CLR 32/21 A3000 RMK AO2 T03240207
KPYM 202352Z AUTO 21006KT 10SM CLR 27/17 A2984 RMK AO2 SLP102 T02720172 10333 20272 57006 TSNO
KPYX 210015Z AUTO 18008G16KT 10SM CLR 37/12 A2997 RMK AO2 T03660122
KPZQ 210034Z AUTO 00000KT 7SM CLR 23/17 A2992 RMK AO2 T02290167
KRAC 202353Z AUTO 17005KT 10SM CLR 25/21 A2998 RMK AO2 SLP147 T02500206 10289 20250 55002 PWINO $
KRAL 202353Z 28014G20KT 10SM CLR 33/12 A2990 RMK AO2 SLP107 T03330122 10356 20283 56023 $
KRAP 202352Z 16015G23KT 10SM CLR 36/14 A2988 RMK AO2 PK WND 17026/2307 SLP082 T03560139 10367 20333 56029
KRAS 210015Z AUTO 14012G15KT 10SM CLR 30/25 A3000 RMK AO2 T03030248
KRBD 202353Z 13010KT 10SM CLR 36/21 A2997 RMK AO2 SLP139 T03560211 10378 20344 56016
KRBG 202353Z AUTO 02009G16KT 10SM CLR 27/11 A3008 RMK AO2 SLP182 T02670106 10272 20178 56018
KRBL 202354Z AUTO 19010KT 10SM CLR 36/07 A2989 RMK AO2 SLP118 T03610067 10367 20300 58020
KRBO 210015Z AUTO 14017G20KT 10SM CLR 33/23 A2998 RMK AO2 T03270229
KRBW 210035Z AUTO 00000KT 3SM HZ CLR 26/22 A3002 RMK AO2
KRCA 202358Z 17019KT 10SM CLR 36/14 A2987 RMK AO2A SLP084 T03590143 10369 20334 57029 $
KRCM 210035Z AUTO 19006KT 10SM CLR 33/22 A2996 RMK AO2
KRCR 210015Z AUTO 27004KT 10SM CLR 30/25 A2997 RMK AO2
KRCV 210030Z AUTO 26012KT 10SM CLR 24/09 A3032 RMK AO2 T02380089
KRCX 210010Z AUTO 29004KT 10SM CLR 27/18 A3001 RMK AO2 T02740178
KRCZ 210025Z AUTO 19003KT 10SM CLR 31/24 A2998 RMK AO2 T03050235
KRDD 202353Z 12006KT 10SM CLR 37/02 A2988 RMK AO2 SLP111 T03720017 10372 20300 56022
KRDG 202354Z 36003KT 10SM SCT055 31/23 A2990 RMK AO2 SLP125 T03110228 10339 20311 53001
KRDK 210035Z AUTO 01004KT 10SM CLR 32/28 A2991 RMK AO2
KRDM 202356Z 30013KT 10SM CLR 28/M03 A3007 RMK AO2 SLP165 T02781028 10283 20217 56012
KRDR 202356Z AUTO 07003KT 10SM CLR 27/18 A2994 RMK AO2 SLP141 T02700180 10285 20254 56009 $
KRDU 202351Z 15004KT 10SM BKN250 32/21 A2997 RMK AO2 SLP144 T03220206 10372 20322 55007
KREG 210015Z AUTO 00000KT 10SM CLR 30/25 A2998 RMK AO2 LTG DSNT S AND SW T03010253
KREO 202352Z AUTO 28011G18KT 34/M02 A3001 RMK AO1 WSHFT 2240 SLP115 T03391022 10344 20278 58018
KRFD 202354Z 29005KT 10SM SCT032 SCT180 31/24 A2996 RMK AO2 SLP141 T03060244 10317 20289 56005
KRFI 210015Z AUTO 17003KT 10SM CLR 33/23 A3001 RMK AO2 T03320225
KRGA 210035Z AUTO 22004KT 10SM CLR 29/23 A3004 RMK AO2
KRGK 210035Z AUTO 00000KT 10SM CLR 28/19 A2997 RMK AO2
KRHI 202353Z AUTO 29004KT 10SM CLR 28/15 A3000 RMK AO2 SLP151 T02780150 10300 20267 55001
KRHP 210025Z AUTO 00000KT 10SM CLR 24/23 A3008 RMK AO2 T02430225
KRHV 202347Z 34012KT 10SM SKC 27/10 A3003
KRIC 202354Z 18006KT 10SM BKN300 32/22 A2993 RMK AO2 SLP136 T03220217 10367 20322 55007
KRID 210035Z AUTO 23004KT 7SM CLR 27/25 A3001 RMK AO2
KRIL 210001Z AUTO 15018KT 10SM -TSRA FEW075 SCT090 OVC110 22/13 A3013 RMK AO2 LTG DSNT ALQDS TSB2359 P0000 T02220133
KRIV 202358Z AUTO 31010KT 10SM CLR 34/13 A2993 RMK AO2 SLP121 T03370125 10347 20291 57021
KRIW 210024Z AUTO 33027G37KT 10SM VCTS CLR 24/10 A3010 RMK AO2 PK WND 32042/0008 LTG DSNT ALQDS T02440100
KRKD 202356Z AUTO 00000KT 10SM CLR 20/19 A2982 RMK AO2 SLP098 T02000189 10267 20200 55006
KRKP 202353Z AUTO 15010KT 10SM CLR 32/24 A2999 RMK AO2 SLP156 T03170244 10350 20317 58015
KRKR 210015Z AUTO 20003KT 10SM CLR 33/23 A2999 RMK AO2
KRKS 210003Z AUTO 21012KT 10SM CLR 30/06 A3014 RMK AO2 WSHFT 2343 T03000056
KRLD 210015Z AUTO 27007KT 10SM CLR 31/06 A2996 RMK AO2 T03060064
KRME 202353Z 00000KT 10SM CLR 24/17 A2989 RMK AO2 SLP117 60003 T02390172 10267 20211 55002 $
KRMG 202353Z AUTO 32004KT 10SM CLR 32/24 A3002 RMK AO2 SLP154 T03220239 10344 20322 55009
KRMN 210015Z AUTO 00000KT 10SM CLR 28/26 A2995 RMK AO2 T02820263
KRMY 210033Z AUTO 25003KT 10SM CLR 27/22 A2996 RMK AO2 T02710221
KRNC 210035Z AUTO 00000KT 10SM CLR 31/24 A3005 RMK
KRND 202356Z AUTO 12012KT 10SM CLR 36/18 A2997 RMK AO2 SLP140 T03610182 10378 20342 57020 CHINO RWY33R $
KRNH 210015Z AUTO 00000KT 10SM CLR 28/19 A2999 RMK AO2 T02800186
KRNM 202353Z 26009KT 10SM CLR 28/17 A2997 RMK AO2 SLP132 T02830167 10328 20283 58012
KRNO 202355Z 30013KT 7SM FEW040 33/M04 A3006 RMK AO2 SLP124 FU FEW040 FU ALQDS T03331044 10350 20256 56018
KRNP 210034Z AUTO 24003KT 10SM CLR 27/21 A2994 RMK AO2 T02700209
KRNT 202353Z 20008G14KT 10SM CLR 24/11 A3012 RMK AO2 SLP203 T02390111 10244 20194 58007
KRNV 210015Z AUTO 00000KT 10SM CLR 33/26 A3001 RMK AO2 T03300255
KROA 202354Z 32009KT 10SM FEW070 BKN250 32/18 A3001 RMK AO2 LTG DSNT N SLP147 T03170178 10361 20317 55007
KROC 202354Z 23005KT 10SM FEW040 FEW100 SCT180 24/21 A2990 RMK AO2 SLP124 60007 T02390206 10244 20194 55003
KROG 202358Z 21005KT 10SM CLR 33/22 A3006 RMK AO2 SLP161 T03330217 10350 20328 56009
KROS 210034Z AUTO 21003KT 5SM HZ CLR 28/19 A2997 RMK AO2 T02760194
KROW 202351Z 16014KT 10SM FEW085 35/12 A3003 RMK AO2 SLP097 T03500117 10356 20306 58024
KROX 210034Z AUTO 23004KT 10SM SCT090 23/18 A2997 RMK AO2
KRPD 210035Z AUTO 25004KT 10SM CLR 27/19 A3001 RMK AO2 T02710191
KRPH 210015Z AUTO 14005KT 10SM CLR 36/17 A2995 RMK AO2 T03620170
KRPJ 210015Z AUTO 00000KT 10SM SCT048 28/25 A2997 RMK AO2 LTG DSNT SW T02760247
KRPX 202355Z AUTO 18009G20KT 10SM 37/03 A2975
KRQB 210035Z AUTO 31004KT 10SM CLR 27/18 A2995 RMK AO2 T02650175
KRQE 202353Z AUTO 28003KT 10SM CLR 24/09 A3025 RMK AO2 SLP126 60000 T02390094 10306 20211 58013 TSNO $
KRQO 210035Z AUTO 18013KT 10SM CLR 36/17 A2998 RMK AO2 T03630165
KRRL 210035Z AUTO 28004KT 10SM CLR 27/18 A2999 RMK AO2 T02680180
KRRT 210033Z AUTO 23003KT 10SM CLR 24/17 A2997 RMK AO2
KRSL 202353Z AUTO 17015KT 10SM CLR 38/14 A2987 RMK AO2 SLP091 T03780144 10400 20378 56020
KRSN 210015Z AUTO 00000KT 10SM CLR 30/25 A3004 RMK AO2 T02960250
KRSP 202354Z AUTO VRB05KT 8SM CLR 26/20 A3002 RMK AO2 SLP153 T02610200 10306 20256 55001 $
KRST 202354Z 04009KT 10SM CLR 27/22 A3001 RMK AO2 SLP154 T02720222 10294 20272 56011
KRSV 210035Z AUTO 20004KT 10SM CLR 29/24 A2997 RMK AO2 T02910240
KRSW 210007Z 26004KT 10SM VCTS CLR 29/24 A3004 RMK AO2 LTG DSNT E AND SE AND NW TSE01 T02940239
KRTN 202353Z AUTO 19016G25KT 10SM CLR 33/03 A3015 RMK AO2 SLP106 T03280033 10339 20300 57022
KRTS 210010Z AUTO 28013G17KT 10SM CLR 29/M05 A3012 RMK AO2
KRUE 202353Z AUTO 22003KT 10SM SCT050 SCT070 BKN090 34/24 A2999 RMK AO2 SLP148 T03390244 10361 20333 56013
KRUQ 210025Z AUTO 00000KT 10SM CLR 27/25 A2999 RMK AO2 T02660249
KRUT 202356Z AUTO 00000KT 10SM SCT110 24/18 A2988 RMK AO2 SLP127 60001 T02390178 10278 20239 53003 $
KRVS 202353Z 16011KT 10SM CLR 36/22 A2996 RMK AO2 SLP147 T03560222 10389 20356 56010
KRWF 202353Z AUTO 09005KT 10SM CLR 28/21 A2996 RMK AO2 SLP139 T02780206 10300 20261 58023
KRWI 202353Z AUTO 00000KT 10SM CLR 28/24 A2996 RMK AO2 SLP144 T02830239 10350 20283 55009 TSNO
KRWL 202353Z AUTO 26014G23KT 10SM CLR 29/06 A3015 RMK AO2 SLP103 T02940061 10317 20267 56022
KRXE 202353Z AUTO 20012KT 10SM CLR 30/09 A3001 RMK AO2 SLP113 60000 T03000094 10306 20256 58019
KRYN 202345Z 25011KT 10SM CLR 32/ A2997
KRYT 202353Z AUTO 00000KT 9SM CLR 28/22 A2995 RMK AO2 SLP125 T02780217 10328 20272 53005 TSNO $
KRYV 210015Z AUTO 00000KT 10SM CLR 28/23 A2996 RMK AO2 T02800225
KRYW 210015Z AUTO 14007KT 10SM CLR 36/16 A3000 RMK AO2 T03550163
KRYY 202347Z 00000KT 10SM SKC 32/21 A3005
KRZL 210035Z AUTO 00000KT 10SM OVC033 28/24 A2996 RMK AO2
KRZN 210015Z AUTO 00000KT 10SM CLR 28/17 A2998 RMK AO2 T02770167
KRZR 210015Z AUTO 00000KT 8SM CLR 29/24 A3001 RMK A01
KRZT 210034Z AUTO 00000KT 10SM BKN080 BKN095 27/25 A3000 RMK AO2
KS25 210035Z AUTO 09013G21KT 10SM CLR 27/16 A2982 RMK AO2
KS32 210035Z AUTO 05004KT 9SM CLR 27/22 A2994 RMK AO2
KS33 210035Z AUTO 32006KT 10SM CLR 27/00 A3006 RMK AO2
KS39 210015Z AUTO 30008G13KT 260V340 10SM CLR 27/M00 A3008 RMK AO2
KS52 210035Z AUTO 33017G23KT 10SM CLR 25/04 A2997 RMK AO2 T02470044
KSAA 210015Z AUTO 25011KT 10SM CLR 28/06 A3021 RMK AO2 LTG DSNT NE THRU S
KSAC 202353Z 21006KT 10SM CLR 33/12 A2991 RMK AO2 SLP127 T03280122 10333 20239 56021
KSAD 202351Z AUTO VRB04KT 10SM CLR 33/13 A2998 RMK AO2 LTG DSNT NE SLP097 T03280133 10328 20278 56021
KSAF 202353Z 24017G22KT 10SM CLR 31/09 A3019 RMK AO2 LTG DSNT SW SLP113 T03060089 10317 20272 58021
KSAN 202351Z 22007KT 10SM FEW013 FEW060 SCT120 SCT200 24/18 A2996 RMK AO2 SLP145 T02440183 10250 20239 58018
KSAR 210035Z AUTO 18009G14KT 10SM CLR 32/24 A2999 RMK AO2 T03210238
KSAT 202351Z 15011KT 10SM FEW075 FEW250 37/18 A2997 RMK AO2 SLP128 T03670178 10378 20339 56021
KSAV 202353Z 24003KT 10SM FEW090 BKN150 27/22 A3002 RMK AO2 SLP166 60000 T02670222 10361 20261 55006 $
KSAW 202345Z 07006KT 10SM SKC 24/15 A2996
KSAZ 210032Z AUTO 00000KT 10SM CLR 28/18 A2996 RMK AO2
KSBA 202353Z 28008KT 10SM CLR 24/14 A2993 RMK AO2 SLP136 T02390144 10244 20206 58021
KSBD 202352Z 27012KT 7SM FEW150 37/09 A2991
KSBM 202353Z AUTO 30003KT 10SM CLR 27/22 A2994 RMK AO2 SLP135 T02720222 10300 20272 56001
KSBN 202354Z 01003KT 10SM OVC065 27/23 A2997 RMK AO2 SLP143 T02720228 10306 20272 55002
KSBO 210015Z AUTO 13006KT 10SM -VCTSDZ BKN060 BKN070 OVC080 27/22 A3004 RMK AO2 LTG DSNT S THRU W
KSBP 202356Z 30014KT 10SM CLR 22/13 A2997 RMK AO2 SLP148 T02170128 10250 20217 58016
KSBS 210034Z AUTO 07008KT 10SM BKN110 22/11 A3023 RMK AO1 T02180106
KSBY 202355Z 21007KT 10SM CLR 29/23 A2992
KSCD 210035Z AUTO 00000KT 10SM CLR 27/25 A3005 RMK AO2 T02660246
KSCF 210015Z AUTO 25007KT 220V280 10SM CLR 31/24 A3004 RMK A01
KSCH 202346Z 34005KT 15SM SCT100 26/18 A2987
KSCK 202355Z 30010KT 10SM CLR 34/14 A2992 RMK AO2 SLP130 T03390144 10350 20272 58018
KSCR 210025Z AUTO 00000KT 10SM 28/25 A2999 RMK AO2 T02840252
KSDA 210035Z AUTO 17003KT 10SM CLR 33/28 A2990 RMK AO2
KSDB 202353Z AUTO 34012KT 10SM CLR 29/03 A3015 RMK AO2 SLP149 T02940033 10322 20278 58015
KSDF 202356Z 23008KT 7SM FEW060 FEW200 SCT250 32/23 A2999 RMK AO2 SLP150 T03220233 10350 20322 55008
KSDL 202353Z 21005KT 10SM FEW085 38/15 A2985 RMK AO2 LTG DSNT NE SLP077 T03830150 10389 20328 56030
KSDM 202353Z AUTO 25006KT 10SM CLR 25/16 A2995 RMK AO2 SLP138 T02500161 10272 20244 58016
KSDY 202356Z AUTO 07014G24KT 10SM CLR 32/15 A2978 RMK AO2 PK WND 04027/2303 SLP074 60000 T03220150 10361 20272 55017
KSEA 202353Z 21012KT 10SM FEW040 SCT065 SCT250 23/11 A3013 RMK AO2 SLP207 T02330106 10233 20194 58008
KSEE 202347Z VRB06KT 10SM SKC 28/16 A2994
KSEF 210015Z AUTO 00000KT 10SM CLR 26/24 A3006 RMK AO2 LTG DSNT SE THRU W T02620238
KSEG 202353Z AUTO 22003KT 10SM CLR 28/22 A2990 RMK AO2 SLP123 T02830222 10328 20283 53002
KSEM 210035Z AUTO 14005KT 10SM BKN120 29/23 A3002 RMK AO2 TSNO
KSEP 210015Z AUTO 14004KT 10SM CLR 35/16 A3001 RMK AO2 T03530161
KSET 202354Z AUTO 10SM CLR 36/23 A2994 RMK AO2 SLP131 T03560228 10378 20356 56014 $
KSEZ 210015Z AUTO 28011KT 10SM VCTS BKN120 26/12 A3014 RMK AO2 LTG DSNT SE
KSFB 202353Z 17005KT 10SM CLR 23/22 A3004 RMK AO2 LTG DSNT S AND SW SLP172 60065 T02330217 10344 20228 58001
KSFF 202353Z 22017G24KT 10SM FEW050 28/05 A3000 RMK AO2 SLP142 T02780050 10283 20244 56008
KSFM 202356Z AUTO 00000KT 10SM 22/21 A2984 RMK AO2 SLP112 60017 T02220211 10317 20222 55008 $
KSFO 202356Z 27019G27KT 10SM FEW014 19/11 A3002 RMK AO2 PK WND 27027/2330 SLP165 T01940111 10200 20172 58015
KSFQ 210015Z AUTO 00000KT 10SM CLR 29/24 A2996 RMK AO2 T02870243
KSFY 210015Z AUTO 00000KT 10SM CLR 29/25 A2996 RMK AO2 LTG DSNT SW T02870251
KSGF 202352Z 25006KT 10SM CLR 34/22 A3003 RMK AO2 SLP151 T03390217 10356 20328 58010
KSGH 202356Z AUTO 23003KT 10SM SCT080 BKN090 28/24 A3001 RMK AO2 SLP156 60007 T02780239 10289 20250 56008
KSGJ 202356Z 14008KT 10SM CLR 28/24 A3005 RMK AO2 SLP175 T02780239 10311 20278 50007
KSGR 210013Z 20007KT 3SM RA BR SCT034 BKN085 OVC100 27/24 A2999 RMK AO2 TSE11 PRESFR P0012 T02670244
KSGS 210034Z AUTO 00000KT 10SM CLR 30/16 A2997 RMK AO2 T02990160
KSGT 210035Z AUTO 17004KT 10SM CLR 34/19 A3001 RMK AO1
KSGU 202356Z AUTO 27012G17KT 10SM CLR 37/11 A2992 RMK AO2 SLP088 T03670106 10372 20317 56028
KSHD 210015Z AUTO 00000KT 10SM CLR 28/21 A3000 RMK AO2 T02840207
KSHL 210035Z AUTO 10007G12KT 070V140 10SM CLR 28/21 A2992 RMK AO2
KSHM 202358Z AUTO 15008KT 10SM CLR 28/11 A3017 RMK AO2 LTG DSNT SW SLP131 T02800110 10311 20280 57016 $
KSHN 202353Z AUTO 25014G19KT 10SM FEW065 22/12 A3011 RMK AO2 SLP196 60000 T02220117 10228 20189 58004
KSHR 202353Z AUTO 25005KT 10SM CLR 27/12 A2995 RMK AO2 WSHFT 2305 LTG DSNT S-W RAB08E23 PRESRR SLP104 P0000 60000 T02720117 10389 20244 50017
KSHV 202356Z 19004KT 10SM FEW060 FEW090 34/23 A2999 RMK AO2 SLP151 T03440233 10367 20333 56014
KSIF 210030Z AUTO 00000KT 10SM CLR 27/24 A2998 RMK AO2 T02660242
KSIK 210035Z AUTO 00000KT 10SM CLR 33/23 A2999 RMK AO2
KSIY 202353Z AUTO 10SM CLR 31/04 A3002 RMK AO2 SLP155 T03110039 10322 20228 56020
KSJC 202353Z 30011KT 10SM FEW100 25/13 A3001 RMK AO2 SLP162 T02500133 10261 20233 58009
KSJN 202354Z AUTO 27004KT 10SM OVC110 27/12 A3015 RMK AO2 SLP114 60039 T02670122 10300 20189 56025 TSNO
KSJS 210015Z AUTO 00000KT 10SM SCT100 29/23 A3005 RMK AO2 T02900227
KSJT 202351Z 15010G16KT 10SM CLR 37/13 A2998 RMK AO2 SLP124 T03670133 10383 20333 56023
KSJX 210036Z AUTO 00000KT 10SM CLR 22/19 A2994 RMK AO2 T02240186
KSKA 202358Z COR 25016G22KT 10SM FEW075 25/06 A3001 RMK AO2A SLP152 T02490058 10256 20230 403060152 57007 COR 0021
KSKF 202358Z 13013G17KT 10SM SCT075 37/18 A2994 RMK AO2A SLP130 T03740181 10384 20346 57021 $
KSKX 210035Z AUTO 23013G18KT 10SM BKN090 OVC110 29/07 A3025 RMK AO1 TSB07E26
KSLB 210035Z AUTO 09009G15KT 10SM CLR 27/24 A2995 RMK AO2
KSLC 202354Z COR 15014KT 10SM FEW075 FEW110 SCT160 BKN220 36/12 A2996 RMK AO2 SLP075 VIRGA DSNT W CB DSNT SW AND NW TCU DSNT E-SE AND NW-N T03560117 10356 20317 58021
KSLE 202356Z 35007KT 10SM CLR 24/08 A3011 RMK AO2 SLP194 T02440083 10250 20183 58015
KSLG 210035Z AUTO 20006KT 10SM CLR 32/21 A3004 RMK AO1
KSLH 210033Z AUTO 27003KT 10SM CLR 24/17 A2990 RMK AO2 T02460174
KSLI 202358Z 20011KT 10SM CLR 25/19 A2992 RMK AO2A SLP135 T02530190 10284 20253 57020
KSLK 202351Z AUTO 00000KT 10SM CLR 19/14 A2990 RMK AO2 SLP119 T01940144 10244 20194 56006
KSLN 202353Z 17016KT 10SM CLR 39/16 A2988 RMK AO2 SLP099 T03940156 10422 20389 56019
KSLO 210015Z AUTO 21005KT 10SM CLR 33/20 A2997 RMK AO2 T03290204
KSLR 210035Z AUTO 16004KT 10SM CLR 34/21 A3002 RMK AO2 T03370211
KSME 210015Z AUTO 27003KT 10SM CLR 28/21 A3006 RMK AO2
KSMF 202353Z 20007KT 10SM CLR 34/12 A2989 RMK AO2 SLP122 T03390122 10339 20239 58023
KSMO 202351Z 24009KT 10SM CLR 24/18 A2993 RMK AO2 SLP133 T02390178 10272 20239 58020
KSMP 202356Z AUTO VRB05KT 10SM FEW023 BKN042 OVC049 12/08 A3019 RMK AO2 SLP216 60001 T01220078 10150 20106 56002
KSMQ 210017Z AUTO 00000KT 3SM -RA BR BKN036 BKN050 OVC100 23/22 A2991 RMK AO2 LTG DSNT ALQDS P0030 T02280222
KSMS 210015Z AUTO 00000KT 10SM CLR 28/25 A3000 RMK AO2
KSMX 202351Z 32012KT 10SM FEW200 19/13 A3000 RMK AO2 SLP162 T01890133 10228 20189 58015 $
KSNA 202353Z 21011KT 10SM FEW012 FEW250 25/17 A2993 RMK AO2 SLP132 T02500172 10283 20250 56018
KSNC 210035Z AUTO 18004KT 10SM CLR 27/23 A2985 RMK AO2
KSNH 210015Z AUTO 00000KT 10SM CLR 31/26 A3002 RMK A01
KSNK 210035Z AUTO 15010KT 10SM CLR 35/15 A3002 RMK AO2 T03510153
KSNL 210015Z AUTO 17010KT 10SM CLR 35/20 A2998 RMK AO2 T03460203
KSNS 202353Z 26012KT 10SM CLR 19/12 A3004 RMK AO2 SLP181 T01890122 10194 20172 58012
KSNT 202351Z AUTO 25008G17KT 210V280 27/M06 A3016 RMK AO1 SLP132 T02671056 10278 20239 56010
KSNY 202353Z AUTO 12009KT 10SM CLR 33/14 A3004 RMK AO2 SLP109 T03280139 10339 20306 56021
KSOA 210015Z AUTO 18011KT 10SM CLR 35/14 A3006 RMK AO2
KSOP 202356Z AUTO 20008KT 10SM CLR 29/22 A2999 RMK AO2 SLPNO 60000 T02940222 10356 20294 55005
KSOW 210015Z AUTO 21007KT 10SM VCTS FEW110 23/09 A3023 RMK AO2 LTG DSNT SW-N
KSPA 210035Z AUTO 00000KT 10SM CLR 28/20 A3000 RMK AO2
KSPB 202353Z AUTO 01007KT 10SM OVC060 22/12 A3013 RMK AO2 SLP201 T02170122 10222 20183 58012
KSPD 202356Z AUTO 16014KT 34/11 A3002 RMK AO1 SLP090 T03390106 10350 20322 56018
KSPF 210035Z AUTO 19014G19KT 10SM -RA CLR 35/12 A2986 RMK AO2
KSPG 202353Z 15004KT 10SM BKN037 31/23 A3002 RMK AO2 LTG DSNT E AND SE SLP165 T03110233 10333 20267 53004
KSPI 202352Z 21007KT 10SM CLR 34/26 A2993 RMK AO2 SLP130 T03390261 10356 20333 56012
KSPR 210015Z AUTO 20006KT 3SM HZ FEW026 30/24 A3002 RMK A01
KSPS 202352Z AUTO 16008KT 10SM CLR 37/18 A2994 RMK AO2 SLP121 T03670178 10372 20344 56018
KSPW 202353Z AUTO 09009KT 10SM FEW110 28/23 A2997 RMK AO2 RAB13E49 SLP139 P0000 60000 T02830228 10333 20278 58010
KSQI 202356Z 04003KT 10SM FEW032 OVC046 29/26 A2996 RMK AO2 SLP153 6//// T02940256 10322 20267 55004 PNO $
KSQL 202355Z 26008KT 10SM FEW010 22/12 A3003
KSRB 210015Z AUTO 00000KT 10SM CLR 29/26 A3004 RMK A01
KSRC 202356Z AUTO 19004KT 10SM CLR 34/26 A3001 RMK AO2 SLP164 6//// T03390261 10356 20333 56011
KSRQ 210001Z AUTO 30004KT 10SM FEW037 30/23 A3003 RMK AO2 LTG DSNT NE AND E T03000228
KSRR 210015Z AUTO 00000KT VCTS CLR 22/12 A3032 RMK AO2 LTG DSNT SW AND W
KSSC 202358Z AUTO 22004KT 10SM CLR 29/24 A2997 RMK AO2 SLP148 T02940238 10343 20260 55008 $
KSSF 202353Z 12011KT 10SM SCT080 38/18 A2993 RMK AO2 SLP122 T03780178 10394 20350 56020 $
KSSI 202353Z AUTO 00000KT 10SM CLR 28/22 A3004 RMK AO2 SLP174 T02830217 10322 20272 51010
KSTC 202353Z 24005KT 10SM CLR 29/18 A2998 RMK AO2 SLP154 T02890183 10306 20278 56015
KSTE 210015Z AUTO 29003KT 10SM CLR 27/19 A2999 RMK AO2 T02670185
KSTF 210035Z AUTO 00000KT 10SM CLR 28/25 A3003 RMK AO2
KSTJ 202353Z 19005KT 10SM CLR 33/27 A2993 RMK AO2 SLP123 T03330272 10350 20328 56012
KSTK 210030Z AUTO 04007KT 10SM CLR 30/16 A2998 RMK AO2
KSTL 202351Z 27011KT 10SM FEW050 SCT250 37/19 A2996 RMK AO2 SLP130 T03720194 10389 20367 56013
KSTP 202353Z 22005KT 10SM CLR 30/18 A2997 RMK AO2 SLP143 T03000183 10311 20272 58013
KSTS 202353Z 16011KT 10SM CLR 31/12 A2992 RMK AO2 SLP127 T03110117 10322 20228 58019
KSUA 202347Z 00000KT 7SM VCTS -RA SCT020 27/24 A3007
KSUE 202356Z AUTO 22004KT 10SM 28/19 A2993 RMK AO2 SLP146 6//// T02830194 10289 20256 56003 PNO $
KSUN 202346Z 18009G14KT 10SM HZ SKC 29/01 A3008
KSUS 202354Z 25005KT 10SM SCT250 36/23 A2995 RMK AO2 SLP131 T03560233 10372 20350 56012
KSUU 202358Z AUTO 23019KT 10SM CLR 30/12 A2990 RMK AO2 SLPNO T03020119 10315 20244 57021 $
KSUX 202352Z 13007KT 10SM CLR 27/20 A2991 RMK AO2 LTG DSNT E RAE2258 PRESFR SLP120 P0000 60000 T02670200 10339 20267 56022
KSVC 210035Z AUTO 06013KT 10SM SCT065 SCT075 OVC100 24/13 A3017 RMK AO2 LTG DSNT SW THRU NE T02400134
KSVE 210035Z AUTO 25010KT 10SM CLR 31/M01 A3007 RMK AO2
KSVH 210025Z AUTO 00000KT 10SM CLR 28/25 A3000 RMK AO2 T02790254
KSVN 202358Z AUTO 18004KT 10SM FEW170 26/22 A3000 RMK AO2 SLP162 60004 T02640219 10313 20254 58003
KSWF 210000Z 00000KT 15SM SCT070 22/21 A2989
KSWO 202353Z 15012KT 10SM CLR 37/17 A2994 RMK AO2 SLP123 T03720172 10394 20367 56015
KSWW 210015Z AUTO 14007KT 10SM SCT080 35/14 A3003 RMK AO2 T03520137
KSXS 202358Z AUTO 00000KT 9SM CLR 32/21 A3001 RMK AO2 SLP160 T03230211 10343 20322 53002
KSXT 202356Z AUTO VRB03KT 10SM CLR 23/07 A3016 RMK AO2 SLP175 T02280067 10233 20156 58010
KSXU 210035Z AUTO 17011KT 10SM CLR 33/08 A3008 RMK AO2 T03290076
KSYF 210015Z AUTO 17009KT 10SM CLR 35/12 A2992 RMK AO2 T03510123
KSYM 210030Z AUTO 00000KT 10SM CLR 29/24 A3005 RMK AO2
KSYN 210033Z AUTO 00000KT 10SM CLR 28/23 A2998 RMK AO2 T02800229
KSYR 202354Z 03004KT 10SM FEW075 SCT180 23/18 A2988 RMK AO2 SLP112 60003 T02280178 10261 20211 55004
KSZL 202358Z 21010KT 10SM CLR 34/24 A2996 RMK AO2A SLP138 T03440241 10366 20344 403660231 57009 $
KSZT 210015Z AUTO 24009G17KT 198V268 10SM CLR 26/04 A2997 RMK AO2
KT20 210015Z AUTO 16007KT 10SM CLR 36/20 A2996 RMK AO2 T03620204
KT35 210015Z AUTO 14004KT 10SM SCT070 36/20 A2996 RMK AO2 T03570200
KT65 210015Z AUTO 15013G18KT 10SM CLR 34/20 A2995 RMK AO2 T03370204
KT82 210015Z AUTO 17007KT 10SM CLR 34/14 A3001 RMK AO2 T03430144
KTAD 202354Z AUTO VRB06KT 10SM CLR 34/03 A3010 RMK AO2 SLP085 T03390028 10356 20300 56022 TSNO
KTAN 202352Z AUTO 19003KT 10SM CLR 24/21 A2982 RMK AO2 RAE2257 SLP098 P0000 60005 T02390206 10333 20239 56006
KTAZ 210015Z AUTO 20005KT 10SM CLR 31/25 A2995 RMK AO2 T03110249
KTBN 202356Z AUTO 07004KT 10SM FEW080 34/22 A3001 RMK AO2 SLP151 T03430217 10364 20331 56009
KTBR 210015Z AUTO 00000KT 10SM CLR 25/22 A3003 RMK AO2 LTG DSNT SW T02480220
KTCC 202353Z AUTO 20008KT 10SM CLR 37/07 A3001 RMK AO2 SLP089 T03670072 10378 20333 56022
KTCL 202353Z 01004KT 10SM CLR 34/22 A3001 RMK AO2 SLP160 T03390222 10350 20333 56012
KTCM 202358Z AUTO 23009KT 10SM FEW043 OVC070 22/13 A3014 RMK AO2 SLP209 T02240132 10229 20178 58006 $
KTCS 202353Z AUTO 22008KT 10SM CLR 30/14 A3011 RMK AO2 LTG DSNT N AND NE SLP110 T03000139 10322 20267 56020
KTDF 210025Z AUTO 00000KT 10SM CLR 27/23 A3000 RMK AO2
KTDR 202356Z AUTO 28005KT 10SM FEW021 FEW230 30/25 A3003 RMK AO2 SLP173 T02980253 10309 20280 53005 $
KTDZ 202353Z AUTO 24007KT 10SM FEW039 SCT047 OVC060 29/22 A2996 RMK AO2 SLP138 T02940217 10311 20283 55005
KTEB 202351Z 27006KT 10SM BKN110 32/20 A2987 RMK AO2 SLP115 T03170200 10350 20317 53005
KTEW 210023Z AUTO 31004KT 10SM SCT034 27/21 A2996 RMK AO2 T02710213
KTEX 210035Z AUTO 00000KT 10SM BKN080 OVC085 19/09 A3048 RMK AO2 LTG DSNT SE THRU SW T01870090
KTFP 210035Z AUTO M1/4SM +DZ VV000 31/25 A2999 RMK AO2 T03100254
KTGI 210012Z AUTO 15007KT 10SM CLR 29/24 A2993 RMK AO1
KTHA 210035Z AUTO 30003KT 10SM 29/24 A3006 RMK
KTHV 202353Z AUTO 24003KT 8SM CLR 29/23 A2992 RMK AO2 SLP128 T02940228 10333 20294 55001
KTIF 210015Z AUTO 11009KT 10SM CLR 33/19 A2995 RMK AO2 T03250193
KTIK 202358Z AUTO 17012KT 10SM CLR 36/18 A2997 RMK AO2 SLP138 T03640178 10380 20357 57013 $
KTIP 210015Z AUTO 24005KT 10SM CLR 32/26 A2995 RMK AO2 T03200260
KTIW 202353Z 22010KT 10SM CLR 21/11 A3013 RMK AO2 SLP202 60000 T02110111 10222 20172 58007
KTIX 202350Z VRB05KT 7SM SCT050 BKN120 24/23 A3005
KTKC 210033Z AUTO 11004KT 10SM CLR 28/22 A2996 RMK AO2 T02760224
KTKI 202353Z 14008KT 10SM CLR 34/22 A2998 RMK AO2 SLP144 T03440217 10356 20339 56016
KTKV 210015Z AUTO 27004KT 10SM 26/16 A3000 RMK AO2 T02570162
KTKX 210035Z AUTO 21005KT 10SM CLR 34/25 A2999 RMK AO2
KTLH 210019Z 27005KT 10SM SCT035 BKN100 BKN250 30/24 A3002 RMK AO2 LTG DSNT N AND NE TSB2339E12 CB DSNT NE T03000239
KTMA 210015Z AUTO 18006KT 10SM BKN060 OVC075 27/24 A3004 RMK AO2 LTG DSNT SE T02650235
KTMB 202353Z 19004KT 10SM FEW032 FEW046 31/24 A3005 RMK AO2 SLP174 60000 T03060239 10317 20294 56001
KTME 210035Z AUTO 20012KT 9SM CLR 31/23 A3001 RMK AO2
KTMK 210015Z AUTO 32008KT 10SM SCT026 BKN030 OVC042 19/12 A3018 RMK AO2
KTMT 210015Z AUTO 31013KT 10SM CLR 32/M10 A3012 RMK AO2 T03181101
KTNB 210015Z AUTO 26004KT 10SM CLR 26/17 A3017 RMK AO2 T02560169
KTNU 210035Z AUTO 06010KT 10SM FEW060 32/26 A2991 RMK AO2 PWINO
KTOA 202350Z 28016KT 10SM SKC 23/18 A2992
KTOB 210033Z AUTO 03004KT 10SM CLR 27/21 A3001 RMK AO2
KTOC 210015Z AUTO 00000KT 10SM CLR 30/25 A3003 RMK AO2 T02960245
KTOI 202353Z AUTO 02009KT 10SM CLR 29/23 A3003 RMK AO2 SLP164 T02940228 10350 20294 53003
KTOL 202352Z 23005KT 10SM CLR 28/22 A2995 RMK AO2 SLP137 60000 T02830217 10311 20267 56005
KTOP 202353Z 17009KT 10SM CLR 36/23 A2992 RMK AO2 SLP119 T03610228 10372 20356 56015
KTOR 210027Z AUTO 11009KT 10SM VCTS CLR 29/14 A2998 RMK AO2 LTG DSNT W T02890139
KTPA 202353Z 03005KT 10SM BKN040TCU 29/24 A3005 RMK AO2 LTG DSNT E-S SLP174 TCU ALQDS 60000 T02940244 10322 20272 53008
KTPF 210015Z AUTO 07010KT 10SM BKN037 OVC047 29/23 A3005 RMK AO2
KTPH 202356Z AUTO 18012G18KT 10SM CLR 34/01 A3008 RMK AO2 SLP095 T03390011 10344 20283 58019
KTPL 202351Z AUTO 13006KT 10SM CLR 37/18 A2997 RMK AO2 SLP147 T03670178 10383 20356 56021
KTQE 202354Z AUTO 03004KT 10SM CLR 29/22 A2990 RMK AO2 LTG DSNT NE AND E SLP109 T02940222 10361 20272 58015
KTQH 210035Z AUTO 18004KT 10SM CLR 33/22 A3002 RMK AO2
KTRI 202353Z 27004KT 10SM SCT050 BKN250 30/19 A3006 RMK AO2 SLP150 T03000194 10339 20300 55012
KTRK 202355Z 26008G16KT 7SM SKC 26/M01 A3022 RMK FU ALQDS
KTRL 202353Z AUTO 14007KT 10SM +RA CLR 35/20 A2999 RMK AO2 RAB37 SLP149 6//// T03500200 10361 20339 56015 PNO $
KTRM 202352Z AUTO 15008KT 10SM CLR 41/16 A2971 RMK AO2 SLP064 T04110161 10417 20356 58036
KTSP 210035Z AUTO 31018G24KT 10SM CLR 28/01 A3010 RMK AO2
KTTA 210030Z AUTO 00000KT 10SM CLR 27/24 A2997 RMK AO2 T02730242
KTTD 202353Z 31005KT 10SM CLR 24/11 A3011 RMK AO2 SLP195 T02390111 10250 20189 58016
KTTF 210014Z AUTO 24004KT 10SM CLR 28/22 A2993 RMK AO2 T02790215
KTTN 210034Z 04009KT 4SM -RA BR SCT029 BKN046 OVC065 23/21 A2992 RMK AO2 PK WND 35031/0007 WSHFT 0002 LTG DSNT NE RAB10 TSB04E26 PRESFR P0046 T02280211
KTUL 202353Z 17014KT 10SM R36R/4500VP6000FT FEW070 36/22 A2995 RMK AO2 SLP131 T03560222 10378 20356 56010
KTUP 202353Z 00000KT 10SM CLR 34/22 A3002 RMK AO2 SLP159 T03390222 10367 20317 56011 $
KTUS 210024Z 23011KT 10SM VCTS CLR 32/18 A2999 RMK AO2 LTG DSNT W-N T03220183
KTVC 202353Z 35004KT 10SM FEW250 27/16 A2992 RMK AO2 SLP128 T02720156 10300 20272 55000
KTVF 210001Z AUTO 00000KT 10SM CLR 27/16 A2997 RMK AO2 SLP148 T02720156 10272 20228 58013
KTVI 210035Z AUTO 08005KT 10SM -DZ SCT035 BKN044 BKN060 26/26 A3004 RMK AO2
KTVK 210015Z AUTO 21007KT 10SM CLR 33/25 A2995 RMK AO2
KTVL 202353Z AUTO 19010G15KT 5SM HZ FEW042 26/01 A3023 RMK AO2 SLP190 T02560011 10267 20211 57008
KTVR 202353Z AUTO 05004KT 10SM CLR 34/22 A3000 RMK AO2 SLP166 T03440222 10367 20317 56015
KTVY 210035Z AUTO 13008KT 10SM SCT110 33/12 A2996 RMK AO2
KTWF 202353Z 29008KT 10SM CLR 31/03 A3001 RMK AO2 SLP099 T03110028 10317 20278 58019
KTWM 210034Z AUTO 00000KT 10SM CLR 26/19 A2992 RMK AO2
KTXK 202353Z 17004KT 10SM CLR 33/23 A3001 RMK AO2 SLP156 T03330233 10350 20333 56013
KTYQ 210015Z AUTO 23004KT 10SM CLR 28/25 A2999 RMK AO2 T02820250
KTYR 202353Z 19005KT 10SM CLR 34/21 A3001 RMK AO2 SLP152 T03440206 10356 20328 56016
KTYS 202353Z COR 35004KT 10SM FEW060 FEW150 BKN250CLR 32/19 A3002 RMK AO2 SLP153 T03170194 10333 20317 56016
KTZR 210015Z AUTO 27003KT 2SM HZ BKN070 BKN090 27/23 A3001 RMK AO2 VIS 3/4V5 T02700231
KU42 210035Z AUTO 14010G14KT 10SM SCT120 32/17 A3000 RMK AO1 T03180167
KU68 210035Z AUTO 06003KT 10SM CLR 24/M33 A2998 RMK AO2
KUAO 202353Z VRB04KT 10SM BKN050 BKN200 24/09 A3012 RMK AO2 SLP200 T02440094 10250 20189 58015
KUBE 210015Z AUTO 26004KT 10SM CLR 26/18 A3000 RMK AO2
KUCP 202356Z AUTO 28003KT 10SM CLR 27/21 A2999 RMK AO2 SLPNO 60001 T02720211 10311 20244 55000
KUCY 210015Z AUTO 19004KT 9SM CLR 32/25 A3000 RMK A01
KUDG 202256Z AUTO 21006KT 10SM CLR 33/23 A2998 RMK AO2 SLP154 T03280228
KUES 202345Z 29005KT 10SM FEW038 27/21 A2997
KUGN 202355Z 14006KT 10SM CLR 24/21 A2996 RMK AO2 SLP135 T02440211 10300 20239 50000
KUIL 210028Z AUTO 20006KT 10SM BKN023 19/12 A3016 RMK AO2 T01890122
KUIN 202354Z AUTO 22007KT 10SM CLR 34/24 A2993 RMK AO2 SLP125 T03440244 10367 20344 56013
KUKF 210025Z AUTO 31003KT 10SM CLR 27/21 A3007 RMK AO2
KUKI 202356Z AUTO 03011G17KT 10SM CLR 31/08 A2998 RMK AO2 SLP143 T03110078 10333 20256 58008
KUKT 210035Z AUTO 03003KT 10SM FEW050 FEW060 SCT110 24/20 A2996 RMK AO1
KULM 210034Z AUTO 08007KT 10SM CLR 28/21 A2995 RMK AO2
KUNI 210035Z AUTO 24003KT 10SM SCT041 SCT049 27/23 A3000 RMK AO2 T02740230
KUNO 202353Z AUTO 21007KT 10SM CLR 33/21 A3005 RMK AO2 SLP160 T03280211 10356 20328 56010
KUNU 210015Z AUTO 35003KT 10SM CLR 27/21 A2997 RMK AO2 T02670211
KUNV 202353Z 26006KT 10SM BKN090 25/19 A2996
KUOX 210015Z AUTO 00000KT 10SM CLR 32/20 A3005 RMK AO2
KUSE 210015Z AUTO 23005KT 10SM CLR 28/22 A2996 RMK AO2
KUTA 210035Z AUTO 00000KT 10SM 32/22 A3002 RMK AO2 TSNO
KUTS 202353Z AUTO VRB03KT 10SM CLR 34/21 A3000 RMK AO2 SLP153 T03440206 10361 20322 56018
KUUU 202353Z AUTO VRB06KT 5SM BR FEW110 24/23 A2984 RMK AO2 SLP103 T02440233 10311 20244 58012
KUVA 210015Z AUTO 13009KT 10SM CLR 37/15 A2995 RMK AO2 T03700152
KUXL 210015Z AUTO 18004KT 10SM CLR 29/24 A3001 RMK AO2 LTG DSNT E AND SE T02900240
KUYF 210035Z AUTO 00000KT 10SM SCT060 OVC070 27/24 A3001 RMK AO2
KUZA 202354Z AUTO 15006KT 10SM CLR 31/22 A3000 RMK AO2 SLP142 T03110217 10350 20311 55005
KVAD 202358Z AUTO 00000KT 10SM CLR 26/22 A3001 RMK AO2 SLP163 T02570216 10341 20257 50005 $
KVAF 210015Z AUTO 13004KT 10SM CLR 30/24 A3005 RMK A01
KVAY 202354Z AUTO 23005KT 10SM CLR 32/21 A2988 RMK AO2 LTG DSNT N SLP117 T03220206 10356 20322 55001
KVBG 210003Z AUTO 32009KT 10SM OVC005 15/13 A3002 RMK AO2 SLP168 $
KVBS 210020Z AUTO VRB03KT 10SM CLR 32/24 A3001 RMK A01
KVBT 210035Z AUTO 20005KT 10SM CLR 32/21 A3006 RMK AO1
KVBW 210035Z AUTO 36006KT 10SM SCT070 26/24 A2999 RMK AO2 T02570235
KVCB 202353Z AUTO 19007KT 10SM CLR 34/13 A2991 RMK AO2 SLP127 T03440133 10350 20267 58024
KVCT 202351Z 16014KT 10SM SCT050 34/23 A3000 RMK AO2 SLP156 T03390233 10372 20339 56009
KVCV 210035Z AUTO 26012G15KT 10SM CLR 36/M06 A2996 RMK AO2
KVDF 210035Z AUTO 14003KT 10SM SCT044 SCT055 SCT120 25/22 A3006 RMK AO2
KVDI 210035Z AUTO 20005KT 10SM CLR 26/22 A3003 RMK AO2
KVEL 202353Z AUTO 24008KT 10SM CLR 29/13 A3007 RMK AO2 SLP113 T02940133 10344 20261 55018
KVER 210015Z AUTO 00000KT 10SM CLR 34/22 A2996 RMK AO2 LTG DSNT NE T03440222
KVES 210015Z AUTO 00000KT 10SM BKN065 27/25 A2999 RMK AO2
KVGT 202353Z AUTO 18013KT 10SM CLR 37/09 A2986 RMK AO2 TSB02E17 SLP099 T03670089 10372 20311 58031
KVIH 202353Z AUTO 18005KT 10SM CLR 33/23 A3000 RMK AO2 SLP146 T03280228 10350 20328 56011
KVIS 202356Z AUTO 28009KT 10SM CLR 34/12 A2991 RMK AO2 SLP130 T03390122 10344 20272 58023
KVJI 210015Z AUTO 00000KT 10SM CLR 28/20 A3010 RMK AO2 T02830197
KVKS 210015Z AUTO 00000KT 10SM CLR 33/24 A2997 RMK A01
KVKY 210015Z AUTO 22004KT 10SM CLR 31/23 A3004 RMK A01
KVLD 202353Z AUTO 00000KT 10SM CLR 26/21 A3002 RMK AO2 SLP171 T02560211 10344 20250 50003
KVLL 210035Z AUTO 24004KT 10SM SCT042 29/20 A2996 RMK AO2 T02870195
KVNC 210035Z AUTO 26003KT 10SM FEW033 30/25 A3005 RMK AO2 LTG DSNT NE AND SE
KVNY 202351Z 12009KT 10SM CLR 33/07 A2991 RMK AO2 SLP117 T03330067 10333 20278 58023
KVOA 210015Z AUTO 23004KT 10SM CLR 31/25 A3002 RMK A01
KVOK 202358Z AUTO 30003KT 10SM FEW180 25/23 A2998 RMK AO2 SLP151 60000 T02510227 10297 20251 58003
KVPC 202353Z AUTO 00000KT 10SM CLR 29/24 A3003 RMK AO2 SLP156 T02940244 10339 20294 56007
KVPS 210018Z 13006KT 10SM FEW030 SCT080 BKN140 BKN250 27/24 A3002 RMK AO2A $
KVPZ 202356Z AUTO 06003KT 9SM BKN047 OVC055 28/24 A2997 RMK AO2 SLP141 T02780239 10322 20278 50001 TSNO
KVQQ 202350Z 05005KT 10SM CLR 28/24 A3002
KVQT 210015Z AUTO 00000KT 10SM CLR 31/25 A3004 RMK A01
KVRB 202353Z 25003KT 10SM CLR 26/25 A3005 RMK AO2 RAB2255E36 SLP175 P0002 60004 T02610250 10322 20261 55003
KVSF 202354Z AUTO 00000KT 10SM CLR 26/16 A2987 RMK AO2 SLP112 T02610161 10300 20261 53005
KVTA 202354Z AUTO 23006KT 10SM FEW030 SCT042 28/23 A2999 RMK AO2 SLP146 T02830228 10306 20283 58001
KVTI 210035Z AUTO 05007KT 10SM CLR 30/24 A2995 RMK AO2 T02950240
KVTN 202352Z AUTO 17016G21KT 10SM CLR 34/14 A2993 RMK AO2 SLP106 T03440139 10378 20339 58020
KVUJ 210025Z AUTO 22003KT 10SM CLR 29/23 A3003 RMK AO2 T02890225
KVUO 202353Z AUTO VRB06KT 10SM CLR 24/12 A3012 RMK AO2 SLP198 60000 T02390122 10239 20189 58014
KVVG 210010Z AUTO 00000KT 10SM 25/23 A2996 RMK A01
KVVV 210033Z AUTO 13006KT 10SM CLR 28/21 A2991 RMK AO2
KVWU 210008Z AUTO 23004KT 10SM SCT047 BKN070 OVC090 26/17 A2996 RMK AO2
KVYS 210015Z AUTO 05005KT 10SM BKN031 BKN040 OVC048 28/25 A2996 RMK AO2 LTG DSNT W T02820252
KW13 210035Z AUTO 00000KT 10SM CLR 27/21 A3001 RMK AO1 T02720209
KW22 210015Z AUTO 29004KT 10SM FEW095 SCT120 27/20 A3006 RMK AO2
KW29 210025Z AUTO 19006KT 7SM CLR 31/25 A2990 RMK AO2
KW31 210035Z AUTO 00000KT 10SM CLR 28/23 A2996 RMK AO1 T02770225
KW43 210015Z AUTO 20011G21KT 10SM CLR 35/07 A2989 RMK AO2
KW63 210015Z AUTO 00000KT 10SM CLR 27/24 A2996 RMK AO1
KW75 210035Z AUTO 17003KT 10SM CLR 29/26 A2993 RMK AO1 T02870255
KW78 210015Z AUTO 00000KT 10SM CLR 29/24 A2996 RMK AO1 T02850240
KW81 210035Z AUTO 00000KT 10SM CLR 27/21 A2995 RMK AO1 T02720205
KW96 210035Z AUTO 00000KT 10SM CLR 30/24 A2993 RMK AO1 T03000236
KW99 210010Z AUTO 32003KT 10SM CLR 30/19 A3000 RMK AO2 T02950193
KWAL 202354Z AUTO 21008KT 10SM CLR 27/23 A2994 RMK AO2 SLP137 T02720233 10322 20272 55006
KWDG 202359Z 19008KT 10SM SCT110 40/14 A2991
KWDR 210035Z AUTO 00000KT 10SM CLR 31/22 A3005 RMK AO1
KWHP 202355Z 12007KT 10SM SKC 32/13 A2996
KWJF 202356Z 24020G26KT 10SM CLR 36/06 A2996 RMK AO2 PK WND 25027/2346 SLP119 T03560056 10367 20333 58016
KWLD 202354Z AUTO 15012KT 10SM CLR 36/18 A2995 RMK AO2 SLP125 T03610183 10383 20361 56016
KWRB 202358Z VRB02KT 10SM FEW060 BKN250 35/20 A2999 RMK AO2A SLPNO WND DATA ESTMD ALSTG ESTMD
KWRI 202358Z AUTO 28006KT 10SM CLR 32/20 A2986 RMK AO2 SLP110 T03200204 10353 20320 53003
KWRL 202353Z AUTO 31026G40KT 10SM CLR 27/11 A2999 RMK AO2 PK WND 33042/2327 LTG DSNT ALQDS SLP110 T02670111 10394 20267 53033
KWST 202353Z AUTO 25005KT 6SM HZ CLR 26/22 A2986 RMK AO2 SLP112 T02610222 10328 20261 56007
KWVI 202353Z AUTO 13007KT 10SM CLR 22/13 A3003 RMK AO2 SLP168 T02170133 10228 20167 58014
KWVL 202356Z AUTO 21004KT 10SM CLR 21/18 A2978 RMK AO2 SLPNO 6//// T02110178 56007
KWWR 210015Z AUTO 18009KT 10SM CLR 36/10 A2999 RMK AO2
KWYS 210035Z AUTO 22016G23KT 10SM CLR 26/07 A3013 RMK AO2
KX60 210035Z AUTO 10009G16KT 9SM CLR 24/21 A3007 RMK A01
KXBP 210035Z AUTO 14007KT 10SM CLR 35/17 A2998 RMK AO2 T03500173
KXIH 210015Z AUTO 19008KT 10SM CLR 32/23 A3002 RMK A01
KXLL 210035Z AUTO 07006KT 10SM -RA SCT050 SCT060 SCT085 23/21 A2994 RMK AO2
KXMR 202358Z AUTO 00000KT 10SM FEW055 25/23 A3004 RMK AO2 DZB11E16RAB16E44DZB44E50 SLP176 P0001 60014 T02470228 10321 20246 53001 $
KXNA 202353Z 20007KT 10SM FEW050 33/22 A3005 RMK AO2 SLP158 T03280222 10356 20328 56008
KXPY 210015Z AUTO 18007KT 10SM CLR 31/24 A3001 RMK A01
KXSA 210015Z AUTO 00000KT 10SM CLR 30/12 A2994 RMK AO2 T02980121
KXVG 210036Z AUTO 00000KT 10SM CLR 27/17 A2996 RMK AO2
KY19 210035Z AUTO 08013KT 10SM SCT044 SCT060 BKN110 28/14 A2989 RMK AO2 LTG DSNT SW-NW
KY23 210015Z AUTO 00000KT CLR 28/20 A2999 RMK AO2 T02750199 PWINO
KY31 210033Z AUTO 28003KT 10SM CLR 27/19 A2991 RMK AO2 T02680185
KY49 210015Z AUTO 00000KT 10SM CLR 27/17 A2996 RMK AO2 T02650169
KY50 202356Z AUTO 33004KT 10SM CLR 27/22 A2996 RMK AO2 SLP159 T02720222 10300 20272 58003
KY51 210015Z AUTO 36004KT 10SM CLR 26/23 A3000 RMK AO1 T02560229
KY63 210036Z AUTO 14004KT 7SM CLR 27/22 A2995 RMK AO2 T02660221
KY70 210034Z AUTO 22003KT 10SM CLR 27/21 A2994 RMK AO2 T02700206
KYIP 202353Z 23008KT 10SM FEW043 FEW050 29/22 A2995 RMK AO2 SLP132 T02890217 10311 20283 56009
KYKM 202353Z 00000KT 10SM CLR 28/05 A3000 RMK AO2 SLP154 T02780050 10289 20256 58013
KYKN 202356Z AUTO 11011KT 10SM CLR 30/24 A2993 RMK AO2 SLP135 60001 T03000239 10306 20272 56020 PWINO
KYNG 202351Z 29003KT 10SM FEW032 SCT080 BKN240 28/20 A2998 RMK AO2 SLP143 60009 T02780200 10311 20233 55001
KZPH 210035Z AUTO 17005KT 10SM SCT110 24/22 A3004 RMK AO2 LTG DSNT ALQS T02410220
KZZV 202353Z AUTO 26004KT 10SM FEW023 FEW030 28/23 A2999 RMK AO2 RAB2258E13 SLP148 P0004 60004 T02830233 10311 20278 56004